<?xml version="1.0" encoding="UTF-8" standalone="no" ?>
<gpx xmlns="http://www.topografix.com/GPX/1/1" xmlns:xsi="http://www.w3.org/2001/XMLSchema-instance" xsi:schemaLocation="http://www.topografix.com/GPX/1/1 http://www.topografix.com/GPX/1/1/gpx.xsd" version="1.1" creator="VisuGPX - https://www.visugpx.com">
  <metadata>
    <name>2021-02-02- M.Burel v. dell'Arma</name>
  </metadata>
  <trk>
    <name><![CDATA[2021-02-02 12:17:19]]></name>
    <trkseg>
      <trkpt lat="44.34614" lon="7.20203">
        <ele>1319.55</ele>
        <time>2021-02-02T07:37:27Z</time>
      </trkpt>
      <trkpt lat="44.34613" lon="7.20203">
        <ele>1316.66</ele>
        <time>2021-02-02T07:37:39Z</time>
      </trkpt>
      <trkpt lat="44.34613" lon="7.20203">
        <ele>1316.18</ele>
        <time>2021-02-02T07:38:02Z</time>
      </trkpt>
      <trkpt lat="44.34616" lon="7.20203">
        <ele>1319.07</ele>
        <time>2021-02-02T07:38:23Z</time>
      </trkpt>
      <trkpt lat="44.34616" lon="7.20203">
        <ele>1320.99</ele>
        <time>2021-02-02T07:38:37Z</time>
      </trkpt>
      <trkpt lat="44.34614" lon="7.202">
        <ele>1321.95</ele>
        <time>2021-02-02T07:38:49Z</time>
      </trkpt>
      <trkpt lat="44.34615" lon="7.20205">
        <ele>1322.43</ele>
        <time>2021-02-02T07:38:58Z</time>
      </trkpt>
      <trkpt lat="44.34611" lon="7.2023">
        <ele>1321.95</ele>
        <time>2021-02-02T07:39:14Z</time>
      </trkpt>
      <trkpt lat="44.34604" lon="7.20265">
        <ele>1321.47</ele>
        <time>2021-02-02T07:39:33Z</time>
      </trkpt>
      <trkpt lat="44.34602" lon="7.20301">
        <ele>1320.99</ele>
        <time>2021-02-02T07:39:54Z</time>
      </trkpt>
      <trkpt lat="44.34603" lon="7.20334">
        <ele>1318.1</ele>
        <time>2021-02-02T07:40:15Z</time>
      </trkpt>
      <trkpt lat="44.34613" lon="7.20361">
        <ele>1317.62</ele>
        <time>2021-02-02T07:40:35Z</time>
      </trkpt>
      <trkpt lat="44.34616" lon="7.20365">
        <ele>1317.14</ele>
        <time>2021-02-02T07:40:39Z</time>
      </trkpt>
      <trkpt lat="44.34619" lon="7.20366">
        <ele>1318.1</ele>
        <time>2021-02-02T07:40:42Z</time>
      </trkpt>
      <trkpt lat="44.34621" lon="7.20368">
        <ele>1318.59</ele>
        <time>2021-02-02T07:40:45Z</time>
      </trkpt>
      <trkpt lat="44.34627" lon="7.20371">
        <ele>1320.51</ele>
        <time>2021-02-02T07:40:53Z</time>
      </trkpt>
      <trkpt lat="44.34636" lon="7.20377">
        <ele>1324.83</ele>
        <time>2021-02-02T07:41:07Z</time>
      </trkpt>
      <trkpt lat="44.34639" lon="7.20379">
        <ele>1326.28</ele>
        <time>2021-02-02T07:41:13Z</time>
      </trkpt>
      <trkpt lat="44.34641" lon="7.20384">
        <ele>1326.76</ele>
        <time>2021-02-02T07:41:18Z</time>
      </trkpt>
      <trkpt lat="44.34646" lon="7.20385">
        <ele>1327.24</ele>
        <time>2021-02-02T07:41:22Z</time>
      </trkpt>
      <trkpt lat="44.34658" lon="7.20396">
        <ele>1328.2</ele>
        <time>2021-02-02T07:41:37Z</time>
      </trkpt>
      <trkpt lat="44.34667" lon="7.20402">
        <ele>1329.16</ele>
        <time>2021-02-02T07:41:45Z</time>
      </trkpt>
      <trkpt lat="44.3469" lon="7.20398">
        <ele>1329.16</ele>
        <time>2021-02-02T07:42:04Z</time>
      </trkpt>
      <trkpt lat="44.347" lon="7.20396">
        <ele>1329.16</ele>
        <time>2021-02-02T07:42:12Z</time>
      </trkpt>
      <trkpt lat="44.34709" lon="7.20397">
        <ele>1329.16</ele>
        <time>2021-02-02T07:42:20Z</time>
      </trkpt>
      <trkpt lat="44.34723" lon="7.204">
        <ele>1331.08</ele>
        <time>2021-02-02T07:42:35Z</time>
      </trkpt>
      <trkpt lat="44.34726" lon="7.20399">
        <ele>1330.6</ele>
        <time>2021-02-02T07:42:46Z</time>
      </trkpt>
      <trkpt lat="44.34726" lon="7.204">
        <ele>1330.6</ele>
        <time>2021-02-02T07:43:00Z</time>
      </trkpt>
      <trkpt lat="44.34724" lon="7.20402">
        <ele>1330.6</ele>
        <time>2021-02-02T07:43:17Z</time>
      </trkpt>
      <trkpt lat="44.34726" lon="7.204">
        <ele>1329.16</ele>
        <time>2021-02-02T07:43:37Z</time>
      </trkpt>
      <trkpt lat="44.34727" lon="7.20402">
        <ele>1328.68</ele>
        <time>2021-02-02T07:43:49Z</time>
      </trkpt>
      <trkpt lat="44.34725" lon="7.20401">
        <ele>1327.24</ele>
        <time>2021-02-02T07:44:09Z</time>
      </trkpt>
      <trkpt lat="44.34724" lon="7.20403">
        <ele>1327.72</ele>
        <time>2021-02-02T07:44:19Z</time>
      </trkpt>
      <trkpt lat="44.34729" lon="7.20404">
        <ele>1328.2</ele>
        <time>2021-02-02T07:44:30Z</time>
      </trkpt>
      <trkpt lat="44.34738" lon="7.20402">
        <ele>1329.16</ele>
        <time>2021-02-02T07:44:41Z</time>
      </trkpt>
      <trkpt lat="44.34746" lon="7.20401">
        <ele>1330.6</ele>
        <time>2021-02-02T07:44:53Z</time>
      </trkpt>
      <trkpt lat="44.34749" lon="7.20401">
        <ele>1331.56</ele>
        <time>2021-02-02T07:44:57Z</time>
      </trkpt>
      <trkpt lat="44.34759" lon="7.20398">
        <ele>1333.01</ele>
        <time>2021-02-02T07:45:08Z</time>
      </trkpt>
      <trkpt lat="44.34769" lon="7.20402">
        <ele>1333.97</ele>
        <time>2021-02-02T07:45:18Z</time>
      </trkpt>
      <trkpt lat="44.34775" lon="7.20404">
        <ele>1334.93</ele>
        <time>2021-02-02T07:45:25Z</time>
      </trkpt>
      <trkpt lat="44.34781" lon="7.20406">
        <ele>1334.93</ele>
        <time>2021-02-02T07:45:32Z</time>
      </trkpt>
      <trkpt lat="44.34793" lon="7.20407">
        <ele>1334.93</ele>
        <time>2021-02-02T07:45:46Z</time>
      </trkpt>
      <trkpt lat="44.34796" lon="7.20405">
        <ele>1335.41</ele>
        <time>2021-02-02T07:45:49Z</time>
      </trkpt>
      <trkpt lat="44.34806" lon="7.20402">
        <ele>1335.41</ele>
        <time>2021-02-02T07:46:03Z</time>
      </trkpt>
      <trkpt lat="44.34807" lon="7.20402">
        <ele>1335.41</ele>
        <time>2021-02-02T07:46:04Z</time>
      </trkpt>
      <trkpt lat="44.34814" lon="7.204">
        <ele>1335.89</ele>
        <time>2021-02-02T07:46:11Z</time>
      </trkpt>
      <trkpt lat="44.34822" lon="7.20399">
        <ele>1335.41</ele>
        <time>2021-02-02T07:46:19Z</time>
      </trkpt>
      <trkpt lat="44.34832" lon="7.204">
        <ele>1335.41</ele>
        <time>2021-02-02T07:46:30Z</time>
      </trkpt>
      <trkpt lat="44.34842" lon="7.20401">
        <ele>1335.41</ele>
        <time>2021-02-02T07:46:40Z</time>
      </trkpt>
      <trkpt lat="44.34848" lon="7.20403">
        <ele>1336.85</ele>
        <time>2021-02-02T07:46:47Z</time>
      </trkpt>
      <trkpt lat="44.34852" lon="7.20404">
        <ele>1336.37</ele>
        <time>2021-02-02T07:46:51Z</time>
      </trkpt>
      <trkpt lat="44.34855" lon="7.20405">
        <ele>1336.85</ele>
        <time>2021-02-02T07:46:55Z</time>
      </trkpt>
      <trkpt lat="44.34858" lon="7.20405">
        <ele>1338.29</ele>
        <time>2021-02-02T07:46:59Z</time>
      </trkpt>
      <trkpt lat="44.34868" lon="7.2041">
        <ele>1339.73</ele>
        <time>2021-02-02T07:47:11Z</time>
      </trkpt>
      <trkpt lat="44.34879" lon="7.20414">
        <ele>1342.62</ele>
        <time>2021-02-02T07:47:23Z</time>
      </trkpt>
      <trkpt lat="44.34885" lon="7.20416">
        <ele>1342.62</ele>
        <time>2021-02-02T07:47:34Z</time>
      </trkpt>
      <trkpt lat="44.34896" lon="7.20415">
        <ele>1345.02</ele>
        <time>2021-02-02T07:47:48Z</time>
      </trkpt>
      <trkpt lat="44.34908" lon="7.20418">
        <ele>1347.91</ele>
        <time>2021-02-02T07:48:00Z</time>
      </trkpt>
      <trkpt lat="44.34915" lon="7.20424">
        <ele>1350.31</ele>
        <time>2021-02-02T07:48:09Z</time>
      </trkpt>
      <trkpt lat="44.34927" lon="7.20432">
        <ele>1355.12</ele>
        <time>2021-02-02T07:48:24Z</time>
      </trkpt>
      <trkpt lat="44.34939" lon="7.20436">
        <ele>1358.96</ele>
        <time>2021-02-02T07:48:36Z</time>
      </trkpt>
      <trkpt lat="44.34953" lon="7.2044">
        <ele>1362.33</ele>
        <time>2021-02-02T07:48:49Z</time>
      </trkpt>
      <trkpt lat="44.34955" lon="7.20441">
        <ele>1362.33</ele>
        <time>2021-02-02T07:48:51Z</time>
      </trkpt>
      <trkpt lat="44.34957" lon="7.20443">
        <ele>1363.29</ele>
        <time>2021-02-02T07:48:53Z</time>
      </trkpt>
      <trkpt lat="44.34969" lon="7.20453">
        <ele>1364.25</ele>
        <time>2021-02-02T07:49:07Z</time>
      </trkpt>
      <trkpt lat="44.34973" lon="7.20454">
        <ele>1363.29</ele>
        <time>2021-02-02T07:49:12Z</time>
      </trkpt>
      <trkpt lat="44.34978" lon="7.2046">
        <ele>1362.33</ele>
        <time>2021-02-02T07:49:20Z</time>
      </trkpt>
      <trkpt lat="44.34981" lon="7.20463">
        <ele>1361.84</ele>
        <time>2021-02-02T07:49:24Z</time>
      </trkpt>
      <trkpt lat="44.34988" lon="7.20474">
        <ele>1362.81</ele>
        <time>2021-02-02T07:49:37Z</time>
      </trkpt>
      <trkpt lat="44.34989" lon="7.20474">
        <ele>1362.81</ele>
        <time>2021-02-02T07:49:38Z</time>
      </trkpt>
      <trkpt lat="44.34995" lon="7.20485">
        <ele>1363.77</ele>
        <time>2021-02-02T07:49:50Z</time>
      </trkpt>
      <trkpt lat="44.35002" lon="7.20496">
        <ele>1364.25</ele>
        <time>2021-02-02T07:50:02Z</time>
      </trkpt>
      <trkpt lat="44.35006" lon="7.20503">
        <ele>1364.25</ele>
        <time>2021-02-02T07:50:09Z</time>
      </trkpt>
      <trkpt lat="44.35009" lon="7.20505">
        <ele>1364.73</ele>
        <time>2021-02-02T07:50:13Z</time>
      </trkpt>
      <trkpt lat="44.35019" lon="7.20514">
        <ele>1363.77</ele>
        <time>2021-02-02T07:50:26Z</time>
      </trkpt>
      <trkpt lat="44.3503" lon="7.20519">
        <ele>1363.29</ele>
        <time>2021-02-02T07:50:38Z</time>
      </trkpt>
      <trkpt lat="44.35037" lon="7.20522">
        <ele>1362.33</ele>
        <time>2021-02-02T07:50:46Z</time>
      </trkpt>
      <trkpt lat="44.35048" lon="7.2053">
        <ele>1363.29</ele>
        <time>2021-02-02T07:50:59Z</time>
      </trkpt>
      <trkpt lat="44.35052" lon="7.20536">
        <ele>1363.77</ele>
        <time>2021-02-02T07:51:06Z</time>
      </trkpt>
      <trkpt lat="44.35058" lon="7.2055">
        <ele>1363.77</ele>
        <time>2021-02-02T07:51:18Z</time>
      </trkpt>
      <trkpt lat="44.35062" lon="7.20561">
        <ele>1365.21</ele>
        <time>2021-02-02T07:51:28Z</time>
      </trkpt>
      <trkpt lat="44.35067" lon="7.20575">
        <ele>1367.13</ele>
        <time>2021-02-02T07:51:41Z</time>
      </trkpt>
      <trkpt lat="44.3507" lon="7.20579">
        <ele>1367.61</ele>
        <time>2021-02-02T07:51:45Z</time>
      </trkpt>
      <trkpt lat="44.35075" lon="7.20583">
        <ele>1368.09</ele>
        <time>2021-02-02T07:51:52Z</time>
      </trkpt>
      <trkpt lat="44.35083" lon="7.20588">
        <ele>1368.57</ele>
        <time>2021-02-02T07:52:01Z</time>
      </trkpt>
      <trkpt lat="44.35088" lon="7.20591">
        <ele>1369.05</ele>
        <time>2021-02-02T07:52:08Z</time>
      </trkpt>
      <trkpt lat="44.35097" lon="7.20597">
        <ele>1370.5</ele>
        <time>2021-02-02T07:52:20Z</time>
      </trkpt>
      <trkpt lat="44.35105" lon="7.20599">
        <ele>1371.46</ele>
        <time>2021-02-02T07:52:28Z</time>
      </trkpt>
      <trkpt lat="44.35116" lon="7.20609">
        <ele>1369.54</ele>
        <time>2021-02-02T07:52:43Z</time>
      </trkpt>
      <trkpt lat="44.35126" lon="7.20618">
        <ele>1369.05</ele>
        <time>2021-02-02T07:52:55Z</time>
      </trkpt>
      <trkpt lat="44.35128" lon="7.20623">
        <ele>1369.05</ele>
        <time>2021-02-02T07:52:59Z</time>
      </trkpt>
      <trkpt lat="44.35132" lon="7.20623">
        <ele>1369.54</ele>
        <time>2021-02-02T07:53:03Z</time>
      </trkpt>
      <trkpt lat="44.35135" lon="7.20626">
        <ele>1370.02</ele>
        <time>2021-02-02T07:53:07Z</time>
      </trkpt>
      <trkpt lat="44.35141" lon="7.20637">
        <ele>1370.98</ele>
        <time>2021-02-02T07:53:19Z</time>
      </trkpt>
      <trkpt lat="44.35142" lon="7.20638">
        <ele>1371.46</ele>
        <time>2021-02-02T07:53:21Z</time>
      </trkpt>
      <trkpt lat="44.35144" lon="7.20654">
        <ele>1372.42</ele>
        <time>2021-02-02T07:53:34Z</time>
      </trkpt>
      <trkpt lat="44.35145" lon="7.20658">
        <ele>1373.86</ele>
        <time>2021-02-02T07:53:38Z</time>
      </trkpt>
      <trkpt lat="44.35148" lon="7.20674">
        <ele>1375.3</ele>
        <time>2021-02-02T07:53:51Z</time>
      </trkpt>
      <trkpt lat="44.35151" lon="7.20684">
        <ele>1376.75</ele>
        <time>2021-02-02T07:53:59Z</time>
      </trkpt>
      <trkpt lat="44.35155" lon="7.20692">
        <ele>1376.75</ele>
        <time>2021-02-02T07:54:07Z</time>
      </trkpt>
      <trkpt lat="44.35158" lon="7.20695">
        <ele>1377.71</ele>
        <time>2021-02-02T07:54:12Z</time>
      </trkpt>
      <trkpt lat="44.35161" lon="7.20697">
        <ele>1378.19</ele>
        <time>2021-02-02T07:54:16Z</time>
      </trkpt>
      <trkpt lat="44.35167" lon="7.20702">
        <ele>1379.63</ele>
        <time>2021-02-02T07:54:24Z</time>
      </trkpt>
      <trkpt lat="44.35176" lon="7.20708">
        <ele>1381.07</ele>
        <time>2021-02-02T07:54:36Z</time>
      </trkpt>
      <trkpt lat="44.35186" lon="7.20714">
        <ele>1382.99</ele>
        <time>2021-02-02T07:54:49Z</time>
      </trkpt>
      <trkpt lat="44.35188" lon="7.20715">
        <ele>1383.96</ele>
        <time>2021-02-02T07:54:52Z</time>
      </trkpt>
      <trkpt lat="44.35196" lon="7.20717">
        <ele>1384.92</ele>
        <time>2021-02-02T07:55:00Z</time>
      </trkpt>
      <trkpt lat="44.35203" lon="7.20717">
        <ele>1386.84</ele>
        <time>2021-02-02T07:55:09Z</time>
      </trkpt>
      <trkpt lat="44.35211" lon="7.20718">
        <ele>1388.28</ele>
        <time>2021-02-02T07:55:17Z</time>
      </trkpt>
      <trkpt lat="44.35213" lon="7.20719">
        <ele>1388.76</ele>
        <time>2021-02-02T07:55:21Z</time>
      </trkpt>
      <trkpt lat="44.35221" lon="7.2072">
        <ele>1389.24</ele>
        <time>2021-02-02T07:55:29Z</time>
      </trkpt>
      <trkpt lat="44.35223" lon="7.20723">
        <ele>1390.2</ele>
        <time>2021-02-02T07:55:33Z</time>
      </trkpt>
      <trkpt lat="44.35228" lon="7.20725">
        <ele>1390.68</ele>
        <time>2021-02-02T07:55:38Z</time>
      </trkpt>
      <trkpt lat="44.35233" lon="7.20729">
        <ele>1391.65</ele>
        <time>2021-02-02T07:55:45Z</time>
      </trkpt>
      <trkpt lat="44.35237" lon="7.20731">
        <ele>1392.61</ele>
        <time>2021-02-02T07:55:49Z</time>
      </trkpt>
      <trkpt lat="44.3524" lon="7.20734">
        <ele>1393.09</ele>
        <time>2021-02-02T07:55:54Z</time>
      </trkpt>
      <trkpt lat="44.35243" lon="7.20737">
        <ele>1394.05</ele>
        <time>2021-02-02T07:55:58Z</time>
      </trkpt>
      <trkpt lat="44.35253" lon="7.20745">
        <ele>1395.49</ele>
        <time>2021-02-02T07:56:10Z</time>
      </trkpt>
      <trkpt lat="44.35256" lon="7.20749">
        <ele>1396.45</ele>
        <time>2021-02-02T07:56:15Z</time>
      </trkpt>
      <trkpt lat="44.3526" lon="7.20753">
        <ele>1397.41</ele>
        <time>2021-02-02T07:56:20Z</time>
      </trkpt>
      <trkpt lat="44.35262" lon="7.20756">
        <ele>1397.89</ele>
        <time>2021-02-02T07:56:24Z</time>
      </trkpt>
      <trkpt lat="44.35268" lon="7.20764">
        <ele>1398.37</ele>
        <time>2021-02-02T07:56:33Z</time>
      </trkpt>
      <trkpt lat="44.35276" lon="7.20775">
        <ele>1397.89</ele>
        <time>2021-02-02T07:56:45Z</time>
      </trkpt>
      <trkpt lat="44.35281" lon="7.20782">
        <ele>1398.86</ele>
        <time>2021-02-02T07:56:53Z</time>
      </trkpt>
      <trkpt lat="44.35283" lon="7.20785">
        <ele>1398.86</ele>
        <time>2021-02-02T07:56:57Z</time>
      </trkpt>
      <trkpt lat="44.35286" lon="7.20789">
        <ele>1398.86</ele>
        <time>2021-02-02T07:57:01Z</time>
      </trkpt>
      <trkpt lat="44.35289" lon="7.20793">
        <ele>1399.82</ele>
        <time>2021-02-02T07:57:05Z</time>
      </trkpt>
      <trkpt lat="44.35296" lon="7.20809">
        <ele>1401.26</ele>
        <time>2021-02-02T07:57:19Z</time>
      </trkpt>
      <trkpt lat="44.35299" lon="7.20815">
        <ele>1401.74</ele>
        <time>2021-02-02T07:57:25Z</time>
      </trkpt>
      <trkpt lat="44.35302" lon="7.20819">
        <ele>1402.7</ele>
        <time>2021-02-02T07:57:29Z</time>
      </trkpt>
      <trkpt lat="44.35308" lon="7.20832">
        <ele>1402.7</ele>
        <time>2021-02-02T07:57:42Z</time>
      </trkpt>
      <trkpt lat="44.35316" lon="7.20843">
        <ele>1404.14</ele>
        <time>2021-02-02T07:57:54Z</time>
      </trkpt>
      <trkpt lat="44.35317" lon="7.20844">
        <ele>1404.14</ele>
        <time>2021-02-02T07:57:56Z</time>
      </trkpt>
      <trkpt lat="44.3532" lon="7.20848">
        <ele>1404.62</ele>
        <time>2021-02-02T07:58:00Z</time>
      </trkpt>
      <trkpt lat="44.35329" lon="7.20857">
        <ele>1406.55</ele>
        <time>2021-02-02T07:58:13Z</time>
      </trkpt>
      <trkpt lat="44.35332" lon="7.20861">
        <ele>1407.51</ele>
        <time>2021-02-02T07:58:18Z</time>
      </trkpt>
      <trkpt lat="44.35334" lon="7.20864">
        <ele>1407.99</ele>
        <time>2021-02-02T07:58:22Z</time>
      </trkpt>
      <trkpt lat="44.35337" lon="7.20867">
        <ele>1408.95</ele>
        <time>2021-02-02T07:58:26Z</time>
      </trkpt>
      <trkpt lat="44.35342" lon="7.20875">
        <ele>1409.43</ele>
        <time>2021-02-02T07:58:34Z</time>
      </trkpt>
      <trkpt lat="44.35347" lon="7.20882">
        <ele>1410.39</ele>
        <time>2021-02-02T07:58:42Z</time>
      </trkpt>
      <trkpt lat="44.35353" lon="7.20887">
        <ele>1412.79</ele>
        <time>2021-02-02T07:58:51Z</time>
      </trkpt>
      <trkpt lat="44.35355" lon="7.20891">
        <ele>1412.79</ele>
        <time>2021-02-02T07:58:55Z</time>
      </trkpt>
      <trkpt lat="44.3536" lon="7.20899">
        <ele>1414.72</ele>
        <time>2021-02-02T07:59:03Z</time>
      </trkpt>
      <trkpt lat="44.35362" lon="7.20902">
        <ele>1415.2</ele>
        <time>2021-02-02T07:59:07Z</time>
      </trkpt>
      <trkpt lat="44.3537" lon="7.20915">
        <ele>1416.16</ele>
        <time>2021-02-02T07:59:20Z</time>
      </trkpt>
      <trkpt lat="44.3537" lon="7.20916">
        <ele>1416.16</ele>
        <time>2021-02-02T07:59:21Z</time>
      </trkpt>
      <trkpt lat="44.35377" lon="7.20929">
        <ele>1417.6</ele>
        <time>2021-02-02T07:59:34Z</time>
      </trkpt>
      <trkpt lat="44.35379" lon="7.20932">
        <ele>1418.08</ele>
        <time>2021-02-02T07:59:37Z</time>
      </trkpt>
      <trkpt lat="44.35382" lon="7.20936">
        <ele>1418.08</ele>
        <time>2021-02-02T07:59:42Z</time>
      </trkpt>
      <trkpt lat="44.35387" lon="7.20945">
        <ele>1419.04</ele>
        <time>2021-02-02T07:59:51Z</time>
      </trkpt>
      <trkpt lat="44.35391" lon="7.20953">
        <ele>1419.52</ele>
        <time>2021-02-02T07:59:59Z</time>
      </trkpt>
      <trkpt lat="44.35399" lon="7.20962">
        <ele>1420</ele>
        <time>2021-02-02T08:00:10Z</time>
      </trkpt>
      <trkpt lat="44.35402" lon="7.20964">
        <ele>1420.49</ele>
        <time>2021-02-02T08:00:16Z</time>
      </trkpt>
      <trkpt lat="44.35412" lon="7.20973">
        <ele>1421.45</ele>
        <time>2021-02-02T08:00:29Z</time>
      </trkpt>
      <trkpt lat="44.35413" lon="7.20973">
        <ele>1421.93</ele>
        <time>2021-02-02T08:00:30Z</time>
      </trkpt>
      <trkpt lat="44.35415" lon="7.20975">
        <ele>1422.41</ele>
        <time>2021-02-02T08:00:34Z</time>
      </trkpt>
      <trkpt lat="44.35418" lon="7.20977">
        <ele>1422.89</ele>
        <time>2021-02-02T08:00:38Z</time>
      </trkpt>
      <trkpt lat="44.35427" lon="7.20983">
        <ele>1424.33</ele>
        <time>2021-02-02T08:00:49Z</time>
      </trkpt>
      <trkpt lat="44.35433" lon="7.20987">
        <ele>1425.29</ele>
        <time>2021-02-02T08:00:57Z</time>
      </trkpt>
      <trkpt lat="44.35444" lon="7.2099">
        <ele>1426.25</ele>
        <time>2021-02-02T08:01:10Z</time>
      </trkpt>
      <trkpt lat="44.35448" lon="7.2099">
        <ele>1426.73</ele>
        <time>2021-02-02T08:01:15Z</time>
      </trkpt>
      <trkpt lat="44.35452" lon="7.20991">
        <ele>1428.18</ele>
        <time>2021-02-02T08:01:20Z</time>
      </trkpt>
      <trkpt lat="44.35455" lon="7.20992">
        <ele>1428.66</ele>
        <time>2021-02-02T08:01:25Z</time>
      </trkpt>
      <trkpt lat="44.35459" lon="7.20992">
        <ele>1428.66</ele>
        <time>2021-02-02T08:01:29Z</time>
      </trkpt>
      <trkpt lat="44.35468" lon="7.20995">
        <ele>1429.62</ele>
        <time>2021-02-02T08:01:41Z</time>
      </trkpt>
      <trkpt lat="44.35469" lon="7.20997">
        <ele>1430.1</ele>
        <time>2021-02-02T08:01:44Z</time>
      </trkpt>
      <trkpt lat="44.35472" lon="7.20998">
        <ele>1430.1</ele>
        <time>2021-02-02T08:01:49Z</time>
      </trkpt>
      <trkpt lat="44.35478" lon="7.21002">
        <ele>1430.58</ele>
        <time>2021-02-02T08:02:00Z</time>
      </trkpt>
      <trkpt lat="44.35485" lon="7.21007">
        <ele>1432.02</ele>
        <time>2021-02-02T08:02:12Z</time>
      </trkpt>
      <trkpt lat="44.35497" lon="7.21011">
        <ele>1435.39</ele>
        <time>2021-02-02T08:02:27Z</time>
      </trkpt>
      <trkpt lat="44.35504" lon="7.21019">
        <ele>1438.75</ele>
        <time>2021-02-02T08:02:39Z</time>
      </trkpt>
      <trkpt lat="44.35519" lon="7.21019">
        <ele>1444.04</ele>
        <time>2021-02-02T08:02:52Z</time>
      </trkpt>
      <trkpt lat="44.35521" lon="7.21025">
        <ele>1445.96</ele>
        <time>2021-02-02T08:02:57Z</time>
      </trkpt>
      <trkpt lat="44.35529" lon="7.21035">
        <ele>1445.96</ele>
        <time>2021-02-02T08:03:11Z</time>
      </trkpt>
      <trkpt lat="44.35535" lon="7.21044">
        <ele>1446.44</ele>
        <time>2021-02-02T08:03:23Z</time>
      </trkpt>
      <trkpt lat="44.35542" lon="7.21053">
        <ele>1446.92</ele>
        <time>2021-02-02T08:03:36Z</time>
      </trkpt>
      <trkpt lat="44.35545" lon="7.21056">
        <ele>1448.36</ele>
        <time>2021-02-02T08:03:50Z</time>
      </trkpt>
      <trkpt lat="44.35547" lon="7.21057">
        <ele>1449.32</ele>
        <time>2021-02-02T08:03:56Z</time>
      </trkpt>
      <trkpt lat="44.35553" lon="7.21066">
        <ele>1448.36</ele>
        <time>2021-02-02T08:04:06Z</time>
      </trkpt>
      <trkpt lat="44.35562" lon="7.21072">
        <ele>1450.29</ele>
        <time>2021-02-02T08:04:17Z</time>
      </trkpt>
      <trkpt lat="44.3557" lon="7.21079">
        <ele>1453.17</ele>
        <time>2021-02-02T08:04:28Z</time>
      </trkpt>
      <trkpt lat="44.35574" lon="7.21084">
        <ele>1454.13</ele>
        <time>2021-02-02T08:04:34Z</time>
      </trkpt>
      <trkpt lat="44.35583" lon="7.21091">
        <ele>1454.61</ele>
        <time>2021-02-02T08:04:46Z</time>
      </trkpt>
      <trkpt lat="44.35591" lon="7.21101">
        <ele>1455.09</ele>
        <time>2021-02-02T08:04:58Z</time>
      </trkpt>
      <trkpt lat="44.35595" lon="7.21105">
        <ele>1455.57</ele>
        <time>2021-02-02T08:05:04Z</time>
      </trkpt>
      <trkpt lat="44.35598" lon="7.21109">
        <ele>1456.05</ele>
        <time>2021-02-02T08:05:09Z</time>
      </trkpt>
      <trkpt lat="44.356" lon="7.21114">
        <ele>1457.02</ele>
        <time>2021-02-02T08:05:14Z</time>
      </trkpt>
      <trkpt lat="44.35603" lon="7.21118">
        <ele>1456.53</ele>
        <time>2021-02-02T08:05:19Z</time>
      </trkpt>
      <trkpt lat="44.35608" lon="7.21133">
        <ele>1456.05</ele>
        <time>2021-02-02T08:05:32Z</time>
      </trkpt>
      <trkpt lat="44.35609" lon="7.21138">
        <ele>1456.05</ele>
        <time>2021-02-02T08:05:36Z</time>
      </trkpt>
      <trkpt lat="44.35614" lon="7.21149">
        <ele>1456.05</ele>
        <time>2021-02-02T08:05:48Z</time>
      </trkpt>
      <trkpt lat="44.35619" lon="7.21156">
        <ele>1456.05</ele>
        <time>2021-02-02T08:05:57Z</time>
      </trkpt>
      <trkpt lat="44.35622" lon="7.21168">
        <ele>1456.05</ele>
        <time>2021-02-02T08:06:08Z</time>
      </trkpt>
      <trkpt lat="44.35623" lon="7.21172">
        <ele>1456.53</ele>
        <time>2021-02-02T08:06:12Z</time>
      </trkpt>
      <trkpt lat="44.35631" lon="7.21182">
        <ele>1457.98</ele>
        <time>2021-02-02T08:06:24Z</time>
      </trkpt>
      <trkpt lat="44.35647" lon="7.21182">
        <ele>1465.19</ele>
        <time>2021-02-02T08:06:38Z</time>
      </trkpt>
      <trkpt lat="44.35653" lon="7.21185">
        <ele>1467.59</ele>
        <time>2021-02-02T08:06:46Z</time>
      </trkpt>
      <trkpt lat="44.35665" lon="7.21185">
        <ele>1471.44</ele>
        <time>2021-02-02T08:07:00Z</time>
      </trkpt>
      <trkpt lat="44.35675" lon="7.21182">
        <ele>1472.4</ele>
        <time>2021-02-02T08:07:12Z</time>
      </trkpt>
      <trkpt lat="44.35681" lon="7.2118">
        <ele>1473.36</ele>
        <time>2021-02-02T08:07:22Z</time>
      </trkpt>
      <trkpt lat="44.35683" lon="7.2118">
        <ele>1473.84</ele>
        <time>2021-02-02T08:07:26Z</time>
      </trkpt>
      <trkpt lat="44.35687" lon="7.21177">
        <ele>1474.32</ele>
        <time>2021-02-02T08:07:31Z</time>
      </trkpt>
      <trkpt lat="44.35695" lon="7.21174">
        <ele>1476.24</ele>
        <time>2021-02-02T08:07:44Z</time>
      </trkpt>
      <trkpt lat="44.35706" lon="7.21167">
        <ele>1477.68</ele>
        <time>2021-02-02T08:07:58Z</time>
      </trkpt>
      <trkpt lat="44.35721" lon="7.21156">
        <ele>1479.13</ele>
        <time>2021-02-02T08:08:10Z</time>
      </trkpt>
      <trkpt lat="44.35725" lon="7.21156">
        <ele>1479.61</ele>
        <time>2021-02-02T08:08:14Z</time>
      </trkpt>
      <trkpt lat="44.35738" lon="7.21163">
        <ele>1486.82</ele>
        <time>2021-02-02T08:08:25Z</time>
      </trkpt>
      <trkpt lat="44.35738" lon="7.2118">
        <ele>1488.26</ele>
        <time>2021-02-02T08:08:37Z</time>
      </trkpt>
      <trkpt lat="44.35733" lon="7.21193">
        <ele>1496.43</ele>
        <time>2021-02-02T08:08:50Z</time>
      </trkpt>
      <trkpt lat="44.35727" lon="7.21199">
        <ele>1503.16</ele>
        <time>2021-02-02T08:09:00Z</time>
      </trkpt>
      <trkpt lat="44.35725" lon="7.21202">
        <ele>1508.93</ele>
        <time>2021-02-02T08:09:04Z</time>
      </trkpt>
      <trkpt lat="44.35717" lon="7.21207">
        <ele>1498.83</ele>
        <time>2021-02-02T08:09:12Z</time>
      </trkpt>
      <trkpt lat="44.35705" lon="7.21218">
        <ele>1486.82</ele>
        <time>2021-02-02T08:09:25Z</time>
      </trkpt>
      <trkpt lat="44.35706" lon="7.21221">
        <ele>1483.93</ele>
        <time>2021-02-02T08:09:30Z</time>
      </trkpt>
      <trkpt lat="44.35716" lon="7.21217">
        <ele>1486.82</ele>
        <time>2021-02-02T08:09:43Z</time>
      </trkpt>
      <trkpt lat="44.35722" lon="7.21212">
        <ele>1489.7</ele>
        <time>2021-02-02T08:09:52Z</time>
      </trkpt>
      <trkpt lat="44.35733" lon="7.21207">
        <ele>1492.1</ele>
        <time>2021-02-02T08:10:06Z</time>
      </trkpt>
      <trkpt lat="44.35736" lon="7.21206">
        <ele>1492.58</ele>
        <time>2021-02-02T08:10:09Z</time>
      </trkpt>
      <trkpt lat="44.35742" lon="7.21205">
        <ele>1493.55</ele>
        <time>2021-02-02T08:10:16Z</time>
      </trkpt>
      <trkpt lat="44.35755" lon="7.21201">
        <ele>1494.99</ele>
        <time>2021-02-02T08:10:30Z</time>
      </trkpt>
      <trkpt lat="44.35757" lon="7.212">
        <ele>1495.47</ele>
        <time>2021-02-02T08:10:33Z</time>
      </trkpt>
      <trkpt lat="44.35765" lon="7.21194">
        <ele>1498.35</ele>
        <time>2021-02-02T08:10:44Z</time>
      </trkpt>
      <trkpt lat="44.35768" lon="7.21192">
        <ele>1499.79</ele>
        <time>2021-02-02T08:10:48Z</time>
      </trkpt>
      <trkpt lat="44.35776" lon="7.21186">
        <ele>1503.16</ele>
        <time>2021-02-02T08:11:00Z</time>
      </trkpt>
      <trkpt lat="44.35782" lon="7.21181">
        <ele>1502.2</ele>
        <time>2021-02-02T08:11:08Z</time>
      </trkpt>
      <trkpt lat="44.35784" lon="7.2118">
        <ele>1502.2</ele>
        <time>2021-02-02T08:11:12Z</time>
      </trkpt>
      <trkpt lat="44.35787" lon="7.21177">
        <ele>1501.72</ele>
        <time>2021-02-02T08:11:16Z</time>
      </trkpt>
      <trkpt lat="44.3579" lon="7.21176">
        <ele>1501.24</ele>
        <time>2021-02-02T08:11:19Z</time>
      </trkpt>
      <trkpt lat="44.35795" lon="7.21172">
        <ele>1501.72</ele>
        <time>2021-02-02T08:11:26Z</time>
      </trkpt>
      <trkpt lat="44.35807" lon="7.21168">
        <ele>1500.76</ele>
        <time>2021-02-02T08:11:39Z</time>
      </trkpt>
      <trkpt lat="44.35817" lon="7.21165">
        <ele>1502.2</ele>
        <time>2021-02-02T08:11:51Z</time>
      </trkpt>
      <trkpt lat="44.3583" lon="7.21167">
        <ele>1505.08</ele>
        <time>2021-02-02T08:12:05Z</time>
      </trkpt>
      <trkpt lat="44.35842" lon="7.21174">
        <ele>1507</ele>
        <time>2021-02-02T08:12:18Z</time>
      </trkpt>
      <trkpt lat="44.35849" lon="7.21181">
        <ele>1508.45</ele>
        <time>2021-02-02T08:12:29Z</time>
      </trkpt>
      <trkpt lat="44.35852" lon="7.21182">
        <ele>1508.93</ele>
        <time>2021-02-02T08:12:33Z</time>
      </trkpt>
      <trkpt lat="44.35862" lon="7.21184">
        <ele>1511.33</ele>
        <time>2021-02-02T08:12:46Z</time>
      </trkpt>
      <trkpt lat="44.35867" lon="7.21184">
        <ele>1513.73</ele>
        <time>2021-02-02T08:12:52Z</time>
      </trkpt>
      <trkpt lat="44.35871" lon="7.21184">
        <ele>1515.18</ele>
        <time>2021-02-02T08:12:57Z</time>
      </trkpt>
      <trkpt lat="44.35881" lon="7.21179">
        <ele>1519.02</ele>
        <time>2021-02-02T08:13:11Z</time>
      </trkpt>
      <trkpt lat="44.35889" lon="7.21175">
        <ele>1519.98</ele>
        <time>2021-02-02T08:13:20Z</time>
      </trkpt>
      <trkpt lat="44.35898" lon="7.2117">
        <ele>1518.54</ele>
        <time>2021-02-02T08:13:34Z</time>
      </trkpt>
      <trkpt lat="44.35901" lon="7.21166">
        <ele>1518.06</ele>
        <time>2021-02-02T08:13:41Z</time>
      </trkpt>
      <trkpt lat="44.3591" lon="7.21159">
        <ele>1518.54</ele>
        <time>2021-02-02T08:13:54Z</time>
      </trkpt>
      <trkpt lat="44.35913" lon="7.21156">
        <ele>1519.02</ele>
        <time>2021-02-02T08:13:58Z</time>
      </trkpt>
      <trkpt lat="44.35921" lon="7.21147">
        <ele>1521.42</ele>
        <time>2021-02-02T08:14:12Z</time>
      </trkpt>
      <trkpt lat="44.35925" lon="7.21144">
        <ele>1521.9</ele>
        <time>2021-02-02T08:14:18Z</time>
      </trkpt>
      <trkpt lat="44.35928" lon="7.21143">
        <ele>1522.87</ele>
        <time>2021-02-02T08:14:22Z</time>
      </trkpt>
      <trkpt lat="44.35938" lon="7.21141">
        <ele>1523.83</ele>
        <time>2021-02-02T08:14:36Z</time>
      </trkpt>
      <trkpt lat="44.35943" lon="7.21142">
        <ele>1524.79</ele>
        <time>2021-02-02T08:14:42Z</time>
      </trkpt>
      <trkpt lat="44.35954" lon="7.21146">
        <ele>1525.75</ele>
        <time>2021-02-02T08:14:56Z</time>
      </trkpt>
      <trkpt lat="44.35961" lon="7.21146">
        <ele>1525.75</ele>
        <time>2021-02-02T08:15:08Z</time>
      </trkpt>
      <trkpt lat="44.35967" lon="7.21146">
        <ele>1525.75</ele>
        <time>2021-02-02T08:15:18Z</time>
      </trkpt>
      <trkpt lat="44.35981" lon="7.21149">
        <ele>1527.19</ele>
        <time>2021-02-02T08:15:32Z</time>
      </trkpt>
      <trkpt lat="44.35993" lon="7.21157">
        <ele>1530.08</ele>
        <time>2021-02-02T08:15:45Z</time>
      </trkpt>
      <trkpt lat="44.36005" lon="7.21166">
        <ele>1532.96</ele>
        <time>2021-02-02T08:15:58Z</time>
      </trkpt>
      <trkpt lat="44.3601" lon="7.21169">
        <ele>1534.4</ele>
        <time>2021-02-02T08:16:03Z</time>
      </trkpt>
      <trkpt lat="44.36022" lon="7.21174">
        <ele>1538.25</ele>
        <time>2021-02-02T08:16:17Z</time>
      </trkpt>
      <trkpt lat="44.36025" lon="7.21174">
        <ele>1539.21</ele>
        <time>2021-02-02T08:16:20Z</time>
      </trkpt>
      <trkpt lat="44.36035" lon="7.2117">
        <ele>1541.61</ele>
        <time>2021-02-02T08:16:32Z</time>
      </trkpt>
      <trkpt lat="44.3604" lon="7.21168">
        <ele>1541.13</ele>
        <time>2021-02-02T08:16:39Z</time>
      </trkpt>
      <trkpt lat="44.36046" lon="7.21166">
        <ele>1537.77</ele>
        <time>2021-02-02T08:16:50Z</time>
      </trkpt>
      <trkpt lat="44.36059" lon="7.21168">
        <ele>1536.8</ele>
        <time>2021-02-02T08:17:04Z</time>
      </trkpt>
      <trkpt lat="44.36068" lon="7.21169">
        <ele>1538.73</ele>
        <time>2021-02-02T08:17:14Z</time>
      </trkpt>
      <trkpt lat="44.36076" lon="7.21168">
        <ele>1540.17</ele>
        <time>2021-02-02T08:17:27Z</time>
      </trkpt>
      <trkpt lat="44.36074" lon="7.21165">
        <ele>1543.53</ele>
        <time>2021-02-02T08:17:50Z</time>
      </trkpt>
      <trkpt lat="44.36079" lon="7.21165">
        <ele>1544.98</ele>
        <time>2021-02-02T08:18:03Z</time>
      </trkpt>
      <trkpt lat="44.36089" lon="7.21169">
        <ele>1544.98</ele>
        <time>2021-02-02T08:18:13Z</time>
      </trkpt>
      <trkpt lat="44.36093" lon="7.21169">
        <ele>1545.46</ele>
        <time>2021-02-02T08:18:17Z</time>
      </trkpt>
      <trkpt lat="44.36106" lon="7.21173">
        <ele>1547.86</ele>
        <time>2021-02-02T08:18:30Z</time>
      </trkpt>
      <trkpt lat="44.36112" lon="7.21174">
        <ele>1551.71</ele>
        <time>2021-02-02T08:18:39Z</time>
      </trkpt>
      <trkpt lat="44.36128" lon="7.21185">
        <ele>1554.11</ele>
        <time>2021-02-02T08:18:53Z</time>
      </trkpt>
      <trkpt lat="44.36136" lon="7.21188">
        <ele>1559.88</ele>
        <time>2021-02-02T08:19:04Z</time>
      </trkpt>
      <trkpt lat="44.36138" lon="7.21192">
        <ele>1560.84</ele>
        <time>2021-02-02T08:19:16Z</time>
      </trkpt>
      <trkpt lat="44.36142" lon="7.21191">
        <ele>1562.28</ele>
        <time>2021-02-02T08:19:28Z</time>
      </trkpt>
      <trkpt lat="44.36144" lon="7.21192">
        <ele>1561.8</ele>
        <time>2021-02-02T08:19:32Z</time>
      </trkpt>
      <trkpt lat="44.36159" lon="7.21201">
        <ele>1559.88</ele>
        <time>2021-02-02T08:19:46Z</time>
      </trkpt>
      <trkpt lat="44.36168" lon="7.21205">
        <ele>1560.84</ele>
        <time>2021-02-02T08:19:55Z</time>
      </trkpt>
      <trkpt lat="44.36178" lon="7.21212">
        <ele>1562.28</ele>
        <time>2021-02-02T08:20:07Z</time>
      </trkpt>
      <trkpt lat="44.36181" lon="7.21212">
        <ele>1563.24</ele>
        <time>2021-02-02T08:20:10Z</time>
      </trkpt>
      <trkpt lat="44.36185" lon="7.21213">
        <ele>1564.2</ele>
        <time>2021-02-02T08:20:15Z</time>
      </trkpt>
      <trkpt lat="44.36197" lon="7.21211">
        <ele>1566.61</ele>
        <time>2021-02-02T08:20:29Z</time>
      </trkpt>
      <trkpt lat="44.36196" lon="7.21207">
        <ele>1566.61</ele>
        <time>2021-02-02T08:20:40Z</time>
      </trkpt>
      <trkpt lat="44.36193" lon="7.21202">
        <ele>1565.64</ele>
        <time>2021-02-02T08:20:44Z</time>
      </trkpt>
      <trkpt lat="44.36189" lon="7.21194">
        <ele>1562.28</ele>
        <time>2021-02-02T08:20:50Z</time>
      </trkpt>
      <trkpt lat="44.36181" lon="7.21181">
        <ele>1559.4</ele>
        <time>2021-02-02T08:21:04Z</time>
      </trkpt>
      <trkpt lat="44.36177" lon="7.21176">
        <ele>1559.88</ele>
        <time>2021-02-02T08:21:10Z</time>
      </trkpt>
      <trkpt lat="44.36175" lon="7.21172">
        <ele>1559.88</ele>
        <time>2021-02-02T08:21:14Z</time>
      </trkpt>
      <trkpt lat="44.36172" lon="7.21163">
        <ele>1561.32</ele>
        <time>2021-02-02T08:21:22Z</time>
      </trkpt>
      <trkpt lat="44.36171" lon="7.21159">
        <ele>1561.8</ele>
        <time>2021-02-02T08:21:26Z</time>
      </trkpt>
      <trkpt lat="44.36173" lon="7.21141">
        <ele>1562.76</ele>
        <time>2021-02-02T08:21:40Z</time>
      </trkpt>
      <trkpt lat="44.36173" lon="7.2114">
        <ele>1562.76</ele>
        <time>2021-02-02T08:21:41Z</time>
      </trkpt>
      <trkpt lat="44.36174" lon="7.21135">
        <ele>1563.24</ele>
        <time>2021-02-02T08:21:45Z</time>
      </trkpt>
      <trkpt lat="44.36176" lon="7.21131">
        <ele>1563.24</ele>
        <time>2021-02-02T08:21:49Z</time>
      </trkpt>
      <trkpt lat="44.36182" lon="7.21119">
        <ele>1564.68</ele>
        <time>2021-02-02T08:22:03Z</time>
      </trkpt>
      <trkpt lat="44.36187" lon="7.21113">
        <ele>1565.16</ele>
        <time>2021-02-02T08:22:15Z</time>
      </trkpt>
      <trkpt lat="44.36187" lon="7.21115">
        <ele>1564.68</ele>
        <time>2021-02-02T08:22:38Z</time>
      </trkpt>
      <trkpt lat="44.36194" lon="7.21108">
        <ele>1564.68</ele>
        <time>2021-02-02T08:22:46Z</time>
      </trkpt>
      <trkpt lat="44.36201" lon="7.21109">
        <ele>1565.64</ele>
        <time>2021-02-02T08:22:54Z</time>
      </trkpt>
      <trkpt lat="44.36207" lon="7.21115">
        <ele>1566.61</ele>
        <time>2021-02-02T08:23:03Z</time>
      </trkpt>
      <trkpt lat="44.36209" lon="7.21119">
        <ele>1567.09</ele>
        <time>2021-02-02T08:23:06Z</time>
      </trkpt>
      <trkpt lat="44.36218" lon="7.21125">
        <ele>1568.53</ele>
        <time>2021-02-02T08:23:20Z</time>
      </trkpt>
      <trkpt lat="44.36226" lon="7.21128">
        <ele>1570.45</ele>
        <time>2021-02-02T08:23:33Z</time>
      </trkpt>
      <trkpt lat="44.36233" lon="7.21129">
        <ele>1571.89</ele>
        <time>2021-02-02T08:23:44Z</time>
      </trkpt>
      <trkpt lat="44.36242" lon="7.21133">
        <ele>1573.33</ele>
        <time>2021-02-02T08:23:56Z</time>
      </trkpt>
      <trkpt lat="44.36245" lon="7.21135">
        <ele>1573.82</ele>
        <time>2021-02-02T08:24:01Z</time>
      </trkpt>
      <trkpt lat="44.36252" lon="7.21141">
        <ele>1574.78</ele>
        <time>2021-02-02T08:24:11Z</time>
      </trkpt>
      <trkpt lat="44.36261" lon="7.21147">
        <ele>1576.22</ele>
        <time>2021-02-02T08:24:24Z</time>
      </trkpt>
      <trkpt lat="44.36269" lon="7.21156">
        <ele>1577.18</ele>
        <time>2021-02-02T08:24:37Z</time>
      </trkpt>
      <trkpt lat="44.36275" lon="7.21167">
        <ele>1578.62</ele>
        <time>2021-02-02T08:24:49Z</time>
      </trkpt>
      <trkpt lat="44.3628" lon="7.21179">
        <ele>1581.03</ele>
        <time>2021-02-02T08:25:02Z</time>
      </trkpt>
      <trkpt lat="44.36285" lon="7.21189">
        <ele>1581.99</ele>
        <time>2021-02-02T08:25:14Z</time>
      </trkpt>
      <trkpt lat="44.36288" lon="7.21198">
        <ele>1583.91</ele>
        <time>2021-02-02T08:25:25Z</time>
      </trkpt>
      <trkpt lat="44.36288" lon="7.212">
        <ele>1584.39</ele>
        <time>2021-02-02T08:25:28Z</time>
      </trkpt>
      <trkpt lat="44.36295" lon="7.21214">
        <ele>1585.35</ele>
        <time>2021-02-02T08:25:41Z</time>
      </trkpt>
      <trkpt lat="44.36296" lon="7.21212">
        <ele>1585.83</ele>
        <time>2021-02-02T08:25:43Z</time>
      </trkpt>
      <trkpt lat="44.36296" lon="7.21208">
        <ele>1585.83</ele>
        <time>2021-02-02T08:25:50Z</time>
      </trkpt>
      <trkpt lat="44.36295" lon="7.21197">
        <ele>1588.72</ele>
        <time>2021-02-02T08:26:02Z</time>
      </trkpt>
      <trkpt lat="44.36295" lon="7.2119">
        <ele>1590.16</ele>
        <time>2021-02-02T08:26:09Z</time>
      </trkpt>
      <trkpt lat="44.36295" lon="7.21184">
        <ele>1590.16</ele>
        <time>2021-02-02T08:26:15Z</time>
      </trkpt>
      <trkpt lat="44.36295" lon="7.21172">
        <ele>1592.08</ele>
        <time>2021-02-02T08:26:28Z</time>
      </trkpt>
      <trkpt lat="44.36295" lon="7.2117">
        <ele>1592.56</ele>
        <time>2021-02-02T08:26:29Z</time>
      </trkpt>
      <trkpt lat="44.36297" lon="7.21157">
        <ele>1594.48</ele>
        <time>2021-02-02T08:26:43Z</time>
      </trkpt>
      <trkpt lat="44.36298" lon="7.21144">
        <ele>1595.93</ele>
        <time>2021-02-02T08:26:55Z</time>
      </trkpt>
      <trkpt lat="44.36299" lon="7.21142">
        <ele>1595.93</ele>
        <time>2021-02-02T08:26:58Z</time>
      </trkpt>
      <trkpt lat="44.36303" lon="7.2113">
        <ele>1597.85</ele>
        <time>2021-02-02T08:27:11Z</time>
      </trkpt>
      <trkpt lat="44.36306" lon="7.21117">
        <ele>1597.85</ele>
        <time>2021-02-02T08:27:23Z</time>
      </trkpt>
      <trkpt lat="44.36309" lon="7.21105">
        <ele>1598.81</ele>
        <time>2021-02-02T08:27:35Z</time>
      </trkpt>
      <trkpt lat="44.36311" lon="7.21098">
        <ele>1599.77</ele>
        <time>2021-02-02T08:27:46Z</time>
      </trkpt>
      <trkpt lat="44.36314" lon="7.21087">
        <ele>1601.69</ele>
        <time>2021-02-02T08:27:57Z</time>
      </trkpt>
      <trkpt lat="44.36317" lon="7.21076">
        <ele>1603.14</ele>
        <time>2021-02-02T08:28:09Z</time>
      </trkpt>
      <trkpt lat="44.36318" lon="7.21073">
        <ele>1604.1</ele>
        <time>2021-02-02T08:28:13Z</time>
      </trkpt>
      <trkpt lat="44.36318" lon="7.21068">
        <ele>1604.58</ele>
        <time>2021-02-02T08:28:19Z</time>
      </trkpt>
      <trkpt lat="44.3632" lon="7.21056">
        <ele>1605.54</ele>
        <time>2021-02-02T08:28:30Z</time>
      </trkpt>
      <trkpt lat="44.3632" lon="7.21041">
        <ele>1607.94</ele>
        <time>2021-02-02T08:28:43Z</time>
      </trkpt>
      <trkpt lat="44.3632" lon="7.21038">
        <ele>1608.9</ele>
        <time>2021-02-02T08:28:46Z</time>
      </trkpt>
      <trkpt lat="44.3632" lon="7.21021">
        <ele>1609.86</ele>
        <time>2021-02-02T08:29:00Z</time>
      </trkpt>
      <trkpt lat="44.3632" lon="7.21007">
        <ele>1610.83</ele>
        <time>2021-02-02T08:29:12Z</time>
      </trkpt>
      <trkpt lat="44.36321" lon="7.21005">
        <ele>1610.83</ele>
        <time>2021-02-02T08:29:14Z</time>
      </trkpt>
      <trkpt lat="44.36321" lon="7.21">
        <ele>1611.31</ele>
        <time>2021-02-02T08:29:18Z</time>
      </trkpt>
      <trkpt lat="44.36322" lon="7.20987">
        <ele>1612.27</ele>
        <time>2021-02-02T08:29:30Z</time>
      </trkpt>
      <trkpt lat="44.36322" lon="7.20973">
        <ele>1613.71</ele>
        <time>2021-02-02T08:29:43Z</time>
      </trkpt>
      <trkpt lat="44.36321" lon="7.2096">
        <ele>1615.15</ele>
        <time>2021-02-02T08:29:56Z</time>
      </trkpt>
      <trkpt lat="44.36321" lon="7.20949">
        <ele>1616.11</ele>
        <time>2021-02-02T08:30:06Z</time>
      </trkpt>
      <trkpt lat="44.36319" lon="7.20936">
        <ele>1618.52</ele>
        <time>2021-02-02T08:30:20Z</time>
      </trkpt>
      <trkpt lat="44.36319" lon="7.20926">
        <ele>1619.96</ele>
        <time>2021-02-02T08:30:29Z</time>
      </trkpt>
      <trkpt lat="44.36318" lon="7.2092">
        <ele>1620.92</ele>
        <time>2021-02-02T08:30:36Z</time>
      </trkpt>
      <trkpt lat="44.36318" lon="7.20906">
        <ele>1623.32</ele>
        <time>2021-02-02T08:30:50Z</time>
      </trkpt>
      <trkpt lat="44.36318" lon="7.20905">
        <ele>1624.28</ele>
        <time>2021-02-02T08:31:02Z</time>
      </trkpt>
      <trkpt lat="44.36324" lon="7.20906">
        <ele>1624.28</ele>
        <time>2021-02-02T08:31:11Z</time>
      </trkpt>
      <trkpt lat="44.36327" lon="7.20907">
        <ele>1624.77</ele>
        <time>2021-02-02T08:31:14Z</time>
      </trkpt>
      <trkpt lat="44.36329" lon="7.20911">
        <ele>1624.28</ele>
        <time>2021-02-02T08:31:19Z</time>
      </trkpt>
      <trkpt lat="44.36336" lon="7.20921">
        <ele>1624.28</ele>
        <time>2021-02-02T08:31:33Z</time>
      </trkpt>
      <trkpt lat="44.36337" lon="7.20922">
        <ele>1624.77</ele>
        <time>2021-02-02T08:31:34Z</time>
      </trkpt>
      <trkpt lat="44.36341" lon="7.20927">
        <ele>1624.77</ele>
        <time>2021-02-02T08:31:40Z</time>
      </trkpt>
      <trkpt lat="44.36348" lon="7.20941">
        <ele>1626.21</ele>
        <time>2021-02-02T08:31:53Z</time>
      </trkpt>
      <trkpt lat="44.36349" lon="7.20944">
        <ele>1627.17</ele>
        <time>2021-02-02T08:31:57Z</time>
      </trkpt>
      <trkpt lat="44.36352" lon="7.20955">
        <ele>1629.09</ele>
        <time>2021-02-02T08:32:08Z</time>
      </trkpt>
      <trkpt lat="44.36354" lon="7.2096">
        <ele>1629.09</ele>
        <time>2021-02-02T08:32:14Z</time>
      </trkpt>
      <trkpt lat="44.36356" lon="7.20964">
        <ele>1629.09</ele>
        <time>2021-02-02T08:32:18Z</time>
      </trkpt>
      <trkpt lat="44.36361" lon="7.20981">
        <ele>1629.57</ele>
        <time>2021-02-02T08:32:32Z</time>
      </trkpt>
      <trkpt lat="44.36365" lon="7.20994">
        <ele>1631.01</ele>
        <time>2021-02-02T08:32:45Z</time>
      </trkpt>
      <trkpt lat="44.36368" lon="7.21008">
        <ele>1631.98</ele>
        <time>2021-02-02T08:32:58Z</time>
      </trkpt>
      <trkpt lat="44.36368" lon="7.21013">
        <ele>1632.46</ele>
        <time>2021-02-02T08:33:03Z</time>
      </trkpt>
      <trkpt lat="44.36369" lon="7.21021">
        <ele>1632.94</ele>
        <time>2021-02-02T08:33:10Z</time>
      </trkpt>
      <trkpt lat="44.36369" lon="7.21029">
        <ele>1634.38</ele>
        <time>2021-02-02T08:33:23Z</time>
      </trkpt>
      <trkpt lat="44.36371" lon="7.21029">
        <ele>1633.9</ele>
        <time>2021-02-02T08:33:28Z</time>
      </trkpt>
      <trkpt lat="44.36374" lon="7.2103">
        <ele>1630.53</ele>
        <time>2021-02-02T08:33:39Z</time>
      </trkpt>
      <trkpt lat="44.3637" lon="7.21031">
        <ele>1632.94</ele>
        <time>2021-02-02T08:34:05Z</time>
      </trkpt>
      <trkpt lat="44.36368" lon="7.2103">
        <ele>1631.01</ele>
        <time>2021-02-02T08:34:35Z</time>
      </trkpt>
      <trkpt lat="44.36369" lon="7.21031">
        <ele>1635.82</ele>
        <time>2021-02-02T08:34:57Z</time>
      </trkpt>
      <trkpt lat="44.3637" lon="7.21033">
        <ele>1633.9</ele>
        <time>2021-02-02T08:35:18Z</time>
      </trkpt>
      <trkpt lat="44.36374" lon="7.21035">
        <ele>1633.9</ele>
        <time>2021-02-02T08:35:32Z</time>
      </trkpt>
      <trkpt lat="44.36377" lon="7.21031">
        <ele>1634.38</ele>
        <time>2021-02-02T08:35:36Z</time>
      </trkpt>
      <trkpt lat="44.36382" lon="7.21015">
        <ele>1635.34</ele>
        <time>2021-02-02T08:35:48Z</time>
      </trkpt>
      <trkpt lat="44.36382" lon="7.21001">
        <ele>1637.26</ele>
        <time>2021-02-02T08:35:59Z</time>
      </trkpt>
      <trkpt lat="44.36383" lon="7.20997">
        <ele>1637.74</ele>
        <time>2021-02-02T08:36:02Z</time>
      </trkpt>
      <trkpt lat="44.36384" lon="7.20983">
        <ele>1639.67</ele>
        <time>2021-02-02T08:36:13Z</time>
      </trkpt>
      <trkpt lat="44.36385" lon="7.20981">
        <ele>1640.15</ele>
        <time>2021-02-02T08:36:15Z</time>
      </trkpt>
      <trkpt lat="44.36386" lon="7.20979">
        <ele>1640.63</ele>
        <time>2021-02-02T08:36:16Z</time>
      </trkpt>
      <trkpt lat="44.36383" lon="7.20969">
        <ele>1641.11</ele>
        <time>2021-02-02T08:36:27Z</time>
      </trkpt>
      <trkpt lat="44.36385" lon="7.20965">
        <ele>1642.07</ele>
        <time>2021-02-02T08:36:56Z</time>
      </trkpt>
      <trkpt lat="44.36384" lon="7.20951">
        <ele>1642.07</ele>
        <time>2021-02-02T08:37:13Z</time>
      </trkpt>
      <trkpt lat="44.36382" lon="7.20941">
        <ele>1643.03</ele>
        <time>2021-02-02T08:37:24Z</time>
      </trkpt>
      <trkpt lat="44.3638" lon="7.20923">
        <ele>1647.36</ele>
        <time>2021-02-02T08:37:39Z</time>
      </trkpt>
      <trkpt lat="44.36379" lon="7.20907">
        <ele>1649.28</ele>
        <time>2021-02-02T08:37:52Z</time>
      </trkpt>
      <trkpt lat="44.36379" lon="7.20892">
        <ele>1649.76</ele>
        <time>2021-02-02T08:38:05Z</time>
      </trkpt>
      <trkpt lat="44.36379" lon="7.20877">
        <ele>1649.76</ele>
        <time>2021-02-02T08:38:18Z</time>
      </trkpt>
      <trkpt lat="44.36377" lon="7.2086">
        <ele>1648.8</ele>
        <time>2021-02-02T08:38:32Z</time>
      </trkpt>
      <trkpt lat="44.36374" lon="7.20846">
        <ele>1650.72</ele>
        <time>2021-02-02T08:38:45Z</time>
      </trkpt>
      <trkpt lat="44.36375" lon="7.20843">
        <ele>1651.68</ele>
        <time>2021-02-02T08:38:56Z</time>
      </trkpt>
      <trkpt lat="44.36375" lon="7.20829">
        <ele>1653.6</ele>
        <time>2021-02-02T08:39:09Z</time>
      </trkpt>
      <trkpt lat="44.36378" lon="7.20813">
        <ele>1656.01</ele>
        <time>2021-02-02T08:39:23Z</time>
      </trkpt>
      <trkpt lat="44.3638" lon="7.20797">
        <ele>1656.49</ele>
        <time>2021-02-02T08:39:36Z</time>
      </trkpt>
      <trkpt lat="44.36378" lon="7.20784">
        <ele>1658.41</ele>
        <time>2021-02-02T08:39:49Z</time>
      </trkpt>
      <trkpt lat="44.36377" lon="7.20768">
        <ele>1659.85</ele>
        <time>2021-02-02T08:40:03Z</time>
      </trkpt>
      <trkpt lat="44.36374" lon="7.20754">
        <ele>1662.26</ele>
        <time>2021-02-02T08:40:17Z</time>
      </trkpt>
      <trkpt lat="44.36375" lon="7.20751">
        <ele>1662.74</ele>
        <time>2021-02-02T08:40:20Z</time>
      </trkpt>
      <trkpt lat="44.36375" lon="7.20736">
        <ele>1665.14</ele>
        <time>2021-02-02T08:40:33Z</time>
      </trkpt>
      <trkpt lat="44.36374" lon="7.20731">
        <ele>1664.66</ele>
        <time>2021-02-02T08:40:46Z</time>
      </trkpt>
      <trkpt lat="44.36376" lon="7.20729">
        <ele>1666.1</ele>
        <time>2021-02-02T08:40:58Z</time>
      </trkpt>
      <trkpt lat="44.36376" lon="7.20724">
        <ele>1666.58</ele>
        <time>2021-02-02T08:41:03Z</time>
      </trkpt>
      <trkpt lat="44.36376" lon="7.20722">
        <ele>1666.1</ele>
        <time>2021-02-02T08:41:04Z</time>
      </trkpt>
      <trkpt lat="44.36375" lon="7.20717">
        <ele>1666.1</ele>
        <time>2021-02-02T08:41:08Z</time>
      </trkpt>
      <trkpt lat="44.36375" lon="7.20715">
        <ele>1666.58</ele>
        <time>2021-02-02T08:41:10Z</time>
      </trkpt>
      <trkpt lat="44.36375" lon="7.20713">
        <ele>1666.58</ele>
        <time>2021-02-02T08:41:11Z</time>
      </trkpt>
      <trkpt lat="44.36375" lon="7.20697">
        <ele>1668.99</ele>
        <time>2021-02-02T08:41:23Z</time>
      </trkpt>
      <trkpt lat="44.36375" lon="7.20682">
        <ele>1671.39</ele>
        <time>2021-02-02T08:41:36Z</time>
      </trkpt>
      <trkpt lat="44.36375" lon="7.2068">
        <ele>1671.87</ele>
        <time>2021-02-02T08:41:37Z</time>
      </trkpt>
      <trkpt lat="44.36374" lon="7.20669">
        <ele>1673.31</ele>
        <time>2021-02-02T08:41:48Z</time>
      </trkpt>
      <trkpt lat="44.36373" lon="7.20655">
        <ele>1674.75</ele>
        <time>2021-02-02T08:42:01Z</time>
      </trkpt>
      <trkpt lat="44.36372" lon="7.20651">
        <ele>1675.23</ele>
        <time>2021-02-02T08:42:05Z</time>
      </trkpt>
      <trkpt lat="44.3637" lon="7.20637">
        <ele>1678.6</ele>
        <time>2021-02-02T08:42:17Z</time>
      </trkpt>
      <trkpt lat="44.3637" lon="7.20624">
        <ele>1679.08</ele>
        <time>2021-02-02T08:42:27Z</time>
      </trkpt>
      <trkpt lat="44.36369" lon="7.20623">
        <ele>1679.08</ele>
        <time>2021-02-02T08:42:28Z</time>
      </trkpt>
      <trkpt lat="44.3637" lon="7.20608">
        <ele>1680.52</ele>
        <time>2021-02-02T08:42:41Z</time>
      </trkpt>
      <trkpt lat="44.36371" lon="7.20594">
        <ele>1682.93</ele>
        <time>2021-02-02T08:42:54Z</time>
      </trkpt>
      <trkpt lat="44.36375" lon="7.20578">
        <ele>1685.81</ele>
        <time>2021-02-02T08:43:08Z</time>
      </trkpt>
      <trkpt lat="44.36377" lon="7.20562">
        <ele>1686.77</ele>
        <time>2021-02-02T08:43:21Z</time>
      </trkpt>
      <trkpt lat="44.36374" lon="7.20548">
        <ele>1688.21</ele>
        <time>2021-02-02T08:43:36Z</time>
      </trkpt>
      <trkpt lat="44.36374" lon="7.20546">
        <ele>1688.69</ele>
        <time>2021-02-02T08:43:37Z</time>
      </trkpt>
      <trkpt lat="44.36377" lon="7.20532">
        <ele>1689.17</ele>
        <time>2021-02-02T08:43:50Z</time>
      </trkpt>
      <trkpt lat="44.36378" lon="7.20519">
        <ele>1689.65</ele>
        <time>2021-02-02T08:44:03Z</time>
      </trkpt>
      <trkpt lat="44.36381" lon="7.20505">
        <ele>1693.02</ele>
        <time>2021-02-02T08:44:16Z</time>
      </trkpt>
      <trkpt lat="44.36383" lon="7.20492">
        <ele>1694.94</ele>
        <time>2021-02-02T08:44:29Z</time>
      </trkpt>
      <trkpt lat="44.36388" lon="7.20475">
        <ele>1696.38</ele>
        <time>2021-02-02T08:44:43Z</time>
      </trkpt>
      <trkpt lat="44.36391" lon="7.2046">
        <ele>1696.86</ele>
        <time>2021-02-02T08:44:57Z</time>
      </trkpt>
      <trkpt lat="44.36393" lon="7.20448">
        <ele>1700.23</ele>
        <time>2021-02-02T08:45:11Z</time>
      </trkpt>
      <trkpt lat="44.36395" lon="7.20445">
        <ele>1700.23</ele>
        <time>2021-02-02T08:45:16Z</time>
      </trkpt>
      <trkpt lat="44.36403" lon="7.20433">
        <ele>1701.19</ele>
        <time>2021-02-02T08:45:29Z</time>
      </trkpt>
      <trkpt lat="44.36405" lon="7.20431">
        <ele>1698.79</ele>
        <time>2021-02-02T08:45:49Z</time>
      </trkpt>
      <trkpt lat="44.36411" lon="7.20421">
        <ele>1700.71</ele>
        <time>2021-02-02T08:46:02Z</time>
      </trkpt>
      <trkpt lat="44.36417" lon="7.20406">
        <ele>1702.63</ele>
        <time>2021-02-02T08:46:15Z</time>
      </trkpt>
      <trkpt lat="44.36422" lon="7.20393">
        <ele>1704.07</ele>
        <time>2021-02-02T08:46:29Z</time>
      </trkpt>
      <trkpt lat="44.36428" lon="7.20378">
        <ele>1705.04</ele>
        <time>2021-02-02T08:46:43Z</time>
      </trkpt>
      <trkpt lat="44.36433" lon="7.20365">
        <ele>1705.04</ele>
        <time>2021-02-02T08:46:55Z</time>
      </trkpt>
      <trkpt lat="44.36436" lon="7.20347">
        <ele>1706.96</ele>
        <time>2021-02-02T08:47:10Z</time>
      </trkpt>
      <trkpt lat="44.36436" lon="7.20333">
        <ele>1709.36</ele>
        <time>2021-02-02T08:47:23Z</time>
      </trkpt>
      <trkpt lat="44.36436" lon="7.20324">
        <ele>1709.36</ele>
        <time>2021-02-02T08:47:31Z</time>
      </trkpt>
      <trkpt lat="44.36436" lon="7.20311">
        <ele>1711.28</ele>
        <time>2021-02-02T08:47:47Z</time>
      </trkpt>
      <trkpt lat="44.36439" lon="7.20309">
        <ele>1711.76</ele>
        <time>2021-02-02T08:48:01Z</time>
      </trkpt>
      <trkpt lat="44.36444" lon="7.20311">
        <ele>1713.21</ele>
        <time>2021-02-02T08:48:13Z</time>
      </trkpt>
      <trkpt lat="44.36444" lon="7.20315">
        <ele>1713.21</ele>
        <time>2021-02-02T08:48:16Z</time>
      </trkpt>
      <trkpt lat="44.36444" lon="7.2033">
        <ele>1714.17</ele>
        <time>2021-02-02T08:48:29Z</time>
      </trkpt>
      <trkpt lat="44.36446" lon="7.20342">
        <ele>1715.13</ele>
        <time>2021-02-02T08:48:40Z</time>
      </trkpt>
      <trkpt lat="44.36448" lon="7.20358">
        <ele>1716.57</ele>
        <time>2021-02-02T08:48:54Z</time>
      </trkpt>
      <trkpt lat="44.36449" lon="7.20373">
        <ele>1718.49</ele>
        <time>2021-02-02T08:49:07Z</time>
      </trkpt>
      <trkpt lat="44.3645" lon="7.20387">
        <ele>1719.46</ele>
        <time>2021-02-02T08:49:20Z</time>
      </trkpt>
      <trkpt lat="44.36451" lon="7.20407">
        <ele>1720.9</ele>
        <time>2021-02-02T08:49:34Z</time>
      </trkpt>
      <trkpt lat="44.36451" lon="7.20413">
        <ele>1721.38</ele>
        <time>2021-02-02T08:49:38Z</time>
      </trkpt>
      <trkpt lat="44.36453" lon="7.20429">
        <ele>1722.34</ele>
        <time>2021-02-02T08:49:52Z</time>
      </trkpt>
      <trkpt lat="44.36453" lon="7.20443">
        <ele>1722.82</ele>
        <time>2021-02-02T08:50:03Z</time>
      </trkpt>
      <trkpt lat="44.36453" lon="7.20448">
        <ele>1722.82</ele>
        <time>2021-02-02T08:50:07Z</time>
      </trkpt>
      <trkpt lat="44.36453" lon="7.20449">
        <ele>1722.82</ele>
        <time>2021-02-02T08:50:08Z</time>
      </trkpt>
      <trkpt lat="44.36453" lon="7.20467">
        <ele>1725.22</ele>
        <time>2021-02-02T08:50:22Z</time>
      </trkpt>
      <trkpt lat="44.36453" lon="7.20472">
        <ele>1726.67</ele>
        <time>2021-02-02T08:50:26Z</time>
      </trkpt>
      <trkpt lat="44.36453" lon="7.20473">
        <ele>1726.67</ele>
        <time>2021-02-02T08:50:27Z</time>
      </trkpt>
      <trkpt lat="44.36452" lon="7.20488">
        <ele>1728.59</ele>
        <time>2021-02-02T08:50:40Z</time>
      </trkpt>
      <trkpt lat="44.36453" lon="7.20499">
        <ele>1730.03</ele>
        <time>2021-02-02T08:50:49Z</time>
      </trkpt>
      <trkpt lat="44.36454" lon="7.20513">
        <ele>1729.55</ele>
        <time>2021-02-02T08:51:02Z</time>
      </trkpt>
      <trkpt lat="44.36457" lon="7.20528">
        <ele>1730.99</ele>
        <time>2021-02-02T08:51:15Z</time>
      </trkpt>
      <trkpt lat="44.36459" lon="7.20545">
        <ele>1732.91</ele>
        <time>2021-02-02T08:51:29Z</time>
      </trkpt>
      <trkpt lat="44.36464" lon="7.20549">
        <ele>1733.39</ele>
        <time>2021-02-02T08:51:41Z</time>
      </trkpt>
      <trkpt lat="44.36467" lon="7.20534">
        <ele>1734.36</ele>
        <time>2021-02-02T08:51:54Z</time>
      </trkpt>
      <trkpt lat="44.36467" lon="7.20522">
        <ele>1735.8</ele>
        <time>2021-02-02T08:52:06Z</time>
      </trkpt>
      <trkpt lat="44.36469" lon="7.20515">
        <ele>1736.28</ele>
        <time>2021-02-02T08:52:14Z</time>
      </trkpt>
      <trkpt lat="44.36473" lon="7.20507">
        <ele>1738.2</ele>
        <time>2021-02-02T08:52:23Z</time>
      </trkpt>
      <trkpt lat="44.36477" lon="7.20503">
        <ele>1739.64</ele>
        <time>2021-02-02T08:52:29Z</time>
      </trkpt>
      <trkpt lat="44.36484" lon="7.20493">
        <ele>1742.05</ele>
        <time>2021-02-02T08:52:42Z</time>
      </trkpt>
      <trkpt lat="44.36491" lon="7.20481">
        <ele>1744.93</ele>
        <time>2021-02-02T08:52:55Z</time>
      </trkpt>
      <trkpt lat="44.36496" lon="7.20466">
        <ele>1745.41</ele>
        <time>2021-02-02T08:53:07Z</time>
      </trkpt>
      <trkpt lat="44.36498" lon="7.20455">
        <ele>1744.45</ele>
        <time>2021-02-02T08:53:20Z</time>
      </trkpt>
      <trkpt lat="44.365" lon="7.20444">
        <ele>1745.89</ele>
        <time>2021-02-02T08:53:34Z</time>
      </trkpt>
      <trkpt lat="44.36502" lon="7.20436">
        <ele>1748.29</ele>
        <time>2021-02-02T08:53:47Z</time>
      </trkpt>
      <trkpt lat="44.36505" lon="7.20431">
        <ele>1748.29</ele>
        <time>2021-02-02T08:54:09Z</time>
      </trkpt>
      <trkpt lat="44.36511" lon="7.20417">
        <ele>1750.7</ele>
        <time>2021-02-02T08:54:22Z</time>
      </trkpt>
      <trkpt lat="44.36513" lon="7.20405">
        <ele>1752.14</ele>
        <time>2021-02-02T08:54:35Z</time>
      </trkpt>
      <trkpt lat="44.36518" lon="7.20389">
        <ele>1754.54</ele>
        <time>2021-02-02T08:54:49Z</time>
      </trkpt>
      <trkpt lat="44.36524" lon="7.20377">
        <ele>1755.5</ele>
        <time>2021-02-02T08:55:03Z</time>
      </trkpt>
      <trkpt lat="44.36527" lon="7.20367">
        <ele>1757.91</ele>
        <time>2021-02-02T08:55:17Z</time>
      </trkpt>
      <trkpt lat="44.36533" lon="7.20361">
        <ele>1758.39</ele>
        <time>2021-02-02T08:55:29Z</time>
      </trkpt>
      <trkpt lat="44.36534" lon="7.20365">
        <ele>1758.39</ele>
        <time>2021-02-02T08:55:35Z</time>
      </trkpt>
      <trkpt lat="44.36533" lon="7.20374">
        <ele>1758.87</ele>
        <time>2021-02-02T08:55:48Z</time>
      </trkpt>
      <trkpt lat="44.36533" lon="7.2038">
        <ele>1759.83</ele>
        <time>2021-02-02T08:56:03Z</time>
      </trkpt>
      <trkpt lat="44.36532" lon="7.20388">
        <ele>1760.31</ele>
        <time>2021-02-02T08:56:13Z</time>
      </trkpt>
      <trkpt lat="44.36532" lon="7.20391">
        <ele>1760.31</ele>
        <time>2021-02-02T08:56:16Z</time>
      </trkpt>
      <trkpt lat="44.36533" lon="7.20406">
        <ele>1762.23</ele>
        <time>2021-02-02T08:56:30Z</time>
      </trkpt>
      <trkpt lat="44.36533" lon="7.20417">
        <ele>1763.2</ele>
        <time>2021-02-02T08:56:40Z</time>
      </trkpt>
      <trkpt lat="44.36533" lon="7.20432">
        <ele>1764.64</ele>
        <time>2021-02-02T08:56:53Z</time>
      </trkpt>
      <trkpt lat="44.36533" lon="7.20448">
        <ele>1767.04</ele>
        <time>2021-02-02T08:57:06Z</time>
      </trkpt>
      <trkpt lat="44.36534" lon="7.20463">
        <ele>1768</ele>
        <time>2021-02-02T08:57:19Z</time>
      </trkpt>
      <trkpt lat="44.36537" lon="7.20476">
        <ele>1769.44</ele>
        <time>2021-02-02T08:57:33Z</time>
      </trkpt>
      <trkpt lat="44.3654" lon="7.20472">
        <ele>1769.44</ele>
        <time>2021-02-02T08:57:40Z</time>
      </trkpt>
      <trkpt lat="44.36542" lon="7.20457">
        <ele>1769.44</ele>
        <time>2021-02-02T08:57:54Z</time>
      </trkpt>
      <trkpt lat="44.36546" lon="7.20445">
        <ele>1770.41</ele>
        <time>2021-02-02T08:58:06Z</time>
      </trkpt>
      <trkpt lat="44.36551" lon="7.20433">
        <ele>1771.37</ele>
        <time>2021-02-02T08:58:20Z</time>
      </trkpt>
      <trkpt lat="44.36555" lon="7.20421">
        <ele>1772.33</ele>
        <time>2021-02-02T08:58:32Z</time>
      </trkpt>
      <trkpt lat="44.36556" lon="7.20418">
        <ele>1773.29</ele>
        <time>2021-02-02T08:58:37Z</time>
      </trkpt>
      <trkpt lat="44.36561" lon="7.20405">
        <ele>1774.73</ele>
        <time>2021-02-02T08:58:50Z</time>
      </trkpt>
      <trkpt lat="44.36566" lon="7.20391">
        <ele>1776.17</ele>
        <time>2021-02-02T08:59:05Z</time>
      </trkpt>
      <trkpt lat="44.3657" lon="7.2038">
        <ele>1778.1</ele>
        <time>2021-02-02T08:59:18Z</time>
      </trkpt>
      <trkpt lat="44.36575" lon="7.20367">
        <ele>1780.02</ele>
        <time>2021-02-02T08:59:32Z</time>
      </trkpt>
      <trkpt lat="44.3658" lon="7.20357">
        <ele>1781.46</ele>
        <time>2021-02-02T08:59:44Z</time>
      </trkpt>
      <trkpt lat="44.36588" lon="7.20341">
        <ele>1782.42</ele>
        <time>2021-02-02T09:00:00Z</time>
      </trkpt>
      <trkpt lat="44.36594" lon="7.20326">
        <ele>1784.34</ele>
        <time>2021-02-02T09:00:16Z</time>
      </trkpt>
      <trkpt lat="44.36599" lon="7.20318">
        <ele>1784.82</ele>
        <time>2021-02-02T09:00:28Z</time>
      </trkpt>
      <trkpt lat="44.36607" lon="7.20308">
        <ele>1786.27</ele>
        <time>2021-02-02T09:00:41Z</time>
      </trkpt>
      <trkpt lat="44.36613" lon="7.20299">
        <ele>1787.23</ele>
        <time>2021-02-02T09:00:51Z</time>
      </trkpt>
      <trkpt lat="44.36614" lon="7.20298">
        <ele>1787.71</ele>
        <time>2021-02-02T09:00:52Z</time>
      </trkpt>
      <trkpt lat="44.36624" lon="7.2029">
        <ele>1788.67</ele>
        <time>2021-02-02T09:01:05Z</time>
      </trkpt>
      <trkpt lat="44.36626" lon="7.20289">
        <ele>1788.67</ele>
        <time>2021-02-02T09:01:08Z</time>
      </trkpt>
      <trkpt lat="44.36637" lon="7.20287">
        <ele>1789.63</ele>
        <time>2021-02-02T09:01:21Z</time>
      </trkpt>
      <trkpt lat="44.36646" lon="7.20285">
        <ele>1790.59</ele>
        <time>2021-02-02T09:01:33Z</time>
      </trkpt>
      <trkpt lat="44.36657" lon="7.20282">
        <ele>1791.55</ele>
        <time>2021-02-02T09:01:47Z</time>
      </trkpt>
      <trkpt lat="44.36668" lon="7.20275">
        <ele>1793.96</ele>
        <time>2021-02-02T09:02:02Z</time>
      </trkpt>
      <trkpt lat="44.36671" lon="7.20272">
        <ele>1795.4</ele>
        <time>2021-02-02T09:02:07Z</time>
      </trkpt>
      <trkpt lat="44.3668" lon="7.2026">
        <ele>1798.28</ele>
        <time>2021-02-02T09:02:22Z</time>
      </trkpt>
      <trkpt lat="44.3669" lon="7.20254">
        <ele>1800.21</ele>
        <time>2021-02-02T09:02:37Z</time>
      </trkpt>
      <trkpt lat="44.36691" lon="7.20253">
        <ele>1801.65</ele>
        <time>2021-02-02T09:02:51Z</time>
      </trkpt>
      <trkpt lat="44.36691" lon="7.20254">
        <ele>1804.05</ele>
        <time>2021-02-02T09:03:10Z</time>
      </trkpt>
      <trkpt lat="44.36693" lon="7.20257">
        <ele>1805.49</ele>
        <time>2021-02-02T09:03:28Z</time>
      </trkpt>
      <trkpt lat="44.36694" lon="7.2025">
        <ele>1805.49</ele>
        <time>2021-02-02T09:03:41Z</time>
      </trkpt>
      <trkpt lat="44.36692" lon="7.20247">
        <ele>1805.01</ele>
        <time>2021-02-02T09:03:43Z</time>
      </trkpt>
      <trkpt lat="44.36691" lon="7.20246">
        <ele>1805.01</ele>
        <time>2021-02-02T09:03:44Z</time>
      </trkpt>
      <trkpt lat="44.36676" lon="7.20238">
        <ele>1806.45</ele>
        <time>2021-02-02T09:03:59Z</time>
      </trkpt>
      <trkpt lat="44.36664" lon="7.20229">
        <ele>1807.9</ele>
        <time>2021-02-02T09:04:13Z</time>
      </trkpt>
      <trkpt lat="44.36658" lon="7.20214">
        <ele>1807.9</ele>
        <time>2021-02-02T09:04:27Z</time>
      </trkpt>
      <trkpt lat="44.36653" lon="7.20199">
        <ele>1807.42</ele>
        <time>2021-02-02T09:04:38Z</time>
      </trkpt>
      <trkpt lat="44.36652" lon="7.20197">
        <ele>1807.42</ele>
        <time>2021-02-02T09:04:39Z</time>
      </trkpt>
      <trkpt lat="44.36651" lon="7.20196">
        <ele>1807.42</ele>
        <time>2021-02-02T09:04:40Z</time>
      </trkpt>
      <trkpt lat="44.3665" lon="7.20195">
        <ele>1806.94</ele>
        <time>2021-02-02T09:04:41Z</time>
      </trkpt>
      <trkpt lat="44.36648" lon="7.20192">
        <ele>1806.94</ele>
        <time>2021-02-02T09:04:45Z</time>
      </trkpt>
      <trkpt lat="44.36647" lon="7.20191">
        <ele>1807.42</ele>
        <time>2021-02-02T09:04:46Z</time>
      </trkpt>
      <trkpt lat="44.3664" lon="7.20174">
        <ele>1809.82</ele>
        <time>2021-02-02T09:05:01Z</time>
      </trkpt>
      <trkpt lat="44.36636" lon="7.20162">
        <ele>1809.82</ele>
        <time>2021-02-02T09:05:14Z</time>
      </trkpt>
      <trkpt lat="44.36628" lon="7.20143">
        <ele>1810.78</ele>
        <time>2021-02-02T09:05:29Z</time>
      </trkpt>
      <trkpt lat="44.36627" lon="7.20142">
        <ele>1810.78</ele>
        <time>2021-02-02T09:05:30Z</time>
      </trkpt>
      <trkpt lat="44.36623" lon="7.20126">
        <ele>1811.74</ele>
        <time>2021-02-02T09:05:42Z</time>
      </trkpt>
      <trkpt lat="44.36622" lon="7.20125">
        <ele>1811.74</ele>
        <time>2021-02-02T09:05:43Z</time>
      </trkpt>
      <trkpt lat="44.36621" lon="7.20122">
        <ele>1812.22</ele>
        <time>2021-02-02T09:05:46Z</time>
      </trkpt>
      <trkpt lat="44.3662" lon="7.2012">
        <ele>1811.74</ele>
        <time>2021-02-02T09:05:47Z</time>
      </trkpt>
      <trkpt lat="44.3662" lon="7.20119">
        <ele>1811.74</ele>
        <time>2021-02-02T09:05:48Z</time>
      </trkpt>
      <trkpt lat="44.36612" lon="7.20104">
        <ele>1814.15</ele>
        <time>2021-02-02T09:06:02Z</time>
      </trkpt>
      <trkpt lat="44.36608" lon="7.20087">
        <ele>1816.07</ele>
        <time>2021-02-02T09:06:16Z</time>
      </trkpt>
      <trkpt lat="44.36608" lon="7.20068">
        <ele>1817.51</ele>
        <time>2021-02-02T09:06:30Z</time>
      </trkpt>
      <trkpt lat="44.3661" lon="7.20052">
        <ele>1818.47</ele>
        <time>2021-02-02T09:06:43Z</time>
      </trkpt>
      <trkpt lat="44.36609" lon="7.20042">
        <ele>1817.51</ele>
        <time>2021-02-02T09:06:57Z</time>
      </trkpt>
      <trkpt lat="44.36609" lon="7.20025">
        <ele>1817.51</ele>
        <time>2021-02-02T09:07:11Z</time>
      </trkpt>
      <trkpt lat="44.3661" lon="7.20006">
        <ele>1816.55</ele>
        <time>2021-02-02T09:07:25Z</time>
      </trkpt>
      <trkpt lat="44.36611" lon="7.1999">
        <ele>1818.47</ele>
        <time>2021-02-02T09:07:39Z</time>
      </trkpt>
      <trkpt lat="44.36613" lon="7.19985">
        <ele>1818.47</ele>
        <time>2021-02-02T09:07:51Z</time>
      </trkpt>
      <trkpt lat="44.36613" lon="7.19984">
        <ele>1818.47</ele>
        <time>2021-02-02T09:07:55Z</time>
      </trkpt>
      <trkpt lat="44.36617" lon="7.19976">
        <ele>1819.91</ele>
        <time>2021-02-02T09:08:05Z</time>
      </trkpt>
      <trkpt lat="44.36613" lon="7.19963">
        <ele>1822.8</ele>
        <time>2021-02-02T09:08:18Z</time>
      </trkpt>
      <trkpt lat="44.36614" lon="7.1995">
        <ele>1825.68</ele>
        <time>2021-02-02T09:08:32Z</time>
      </trkpt>
      <trkpt lat="44.36618" lon="7.19938">
        <ele>1827.12</ele>
        <time>2021-02-02T09:08:46Z</time>
      </trkpt>
      <trkpt lat="44.36622" lon="7.19928">
        <ele>1829.53</ele>
        <time>2021-02-02T09:09:00Z</time>
      </trkpt>
      <trkpt lat="44.36619" lon="7.19916">
        <ele>1833.85</ele>
        <time>2021-02-02T09:09:15Z</time>
      </trkpt>
      <trkpt lat="44.36617" lon="7.19914">
        <ele>1833.85</ele>
        <time>2021-02-02T09:09:18Z</time>
      </trkpt>
      <trkpt lat="44.36613" lon="7.19912">
        <ele>1835.29</ele>
        <time>2021-02-02T09:09:24Z</time>
      </trkpt>
      <trkpt lat="44.36612" lon="7.19912">
        <ele>1835.77</ele>
        <time>2021-02-02T09:09:25Z</time>
      </trkpt>
      <trkpt lat="44.36603" lon="7.19908">
        <ele>1840.1</ele>
        <time>2021-02-02T09:09:38Z</time>
      </trkpt>
      <trkpt lat="44.36595" lon="7.19904">
        <ele>1844.91</ele>
        <time>2021-02-02T09:09:55Z</time>
      </trkpt>
      <trkpt lat="44.36594" lon="7.19895">
        <ele>1849.71</ele>
        <time>2021-02-02T09:10:11Z</time>
      </trkpt>
      <trkpt lat="44.36587" lon="7.19889">
        <ele>1852.12</ele>
        <time>2021-02-02T09:10:25Z</time>
      </trkpt>
      <trkpt lat="44.36586" lon="7.19879">
        <ele>1854.52</ele>
        <time>2021-02-02T09:10:42Z</time>
      </trkpt>
      <trkpt lat="44.3659" lon="7.19872">
        <ele>1857.4</ele>
        <time>2021-02-02T09:11:00Z</time>
      </trkpt>
      <trkpt lat="44.36595" lon="7.19871">
        <ele>1855.96</ele>
        <time>2021-02-02T09:11:13Z</time>
      </trkpt>
      <trkpt lat="44.36602" lon="7.1986">
        <ele>1857.89</ele>
        <time>2021-02-02T09:11:31Z</time>
      </trkpt>
      <trkpt lat="44.36608" lon="7.19849">
        <ele>1860.29</ele>
        <time>2021-02-02T09:11:47Z</time>
      </trkpt>
      <trkpt lat="44.36616" lon="7.19846">
        <ele>1863.17</ele>
        <time>2021-02-02T09:12:03Z</time>
      </trkpt>
      <trkpt lat="44.36627" lon="7.19838">
        <ele>1863.17</ele>
        <time>2021-02-02T09:12:20Z</time>
      </trkpt>
      <trkpt lat="44.36635" lon="7.1984">
        <ele>1864.13</ele>
        <time>2021-02-02T09:12:35Z</time>
      </trkpt>
      <trkpt lat="44.36644" lon="7.19844">
        <ele>1864.61</ele>
        <time>2021-02-02T09:12:51Z</time>
      </trkpt>
      <trkpt lat="44.3665" lon="7.19839">
        <ele>1865.09</ele>
        <time>2021-02-02T09:13:04Z</time>
      </trkpt>
      <trkpt lat="44.36648" lon="7.1984">
        <ele>1865.58</ele>
        <time>2021-02-02T09:13:14Z</time>
      </trkpt>
      <trkpt lat="44.36652" lon="7.19838">
        <ele>1867.5</ele>
        <time>2021-02-02T09:13:46Z</time>
      </trkpt>
      <trkpt lat="44.36652" lon="7.19842">
        <ele>1870.86</ele>
        <time>2021-02-02T09:14:29Z</time>
      </trkpt>
      <trkpt lat="44.36651" lon="7.1984">
        <ele>1874.23</ele>
        <time>2021-02-02T09:14:48Z</time>
      </trkpt>
      <trkpt lat="44.36654" lon="7.19835">
        <ele>1873.27</ele>
        <time>2021-02-02T09:14:55Z</time>
      </trkpt>
      <trkpt lat="44.3666" lon="7.19827">
        <ele>1876.15</ele>
        <time>2021-02-02T09:15:10Z</time>
      </trkpt>
      <trkpt lat="44.36667" lon="7.19825">
        <ele>1877.59</ele>
        <time>2021-02-02T09:15:22Z</time>
      </trkpt>
      <trkpt lat="44.36665" lon="7.19815">
        <ele>1883.36</ele>
        <time>2021-02-02T09:15:38Z</time>
      </trkpt>
      <trkpt lat="44.36664" lon="7.19806">
        <ele>1887.69</ele>
        <time>2021-02-02T09:15:53Z</time>
      </trkpt>
      <trkpt lat="44.36667" lon="7.19798">
        <ele>1889.13</ele>
        <time>2021-02-02T09:16:07Z</time>
      </trkpt>
      <trkpt lat="44.36662" lon="7.19789">
        <ele>1892.97</ele>
        <time>2021-02-02T09:16:21Z</time>
      </trkpt>
      <trkpt lat="44.36658" lon="7.1978">
        <ele>1897.3</ele>
        <time>2021-02-02T09:16:36Z</time>
      </trkpt>
      <trkpt lat="44.36657" lon="7.19771">
        <ele>1900.18</ele>
        <time>2021-02-02T09:16:52Z</time>
      </trkpt>
      <trkpt lat="44.36652" lon="7.19759">
        <ele>1903.55</ele>
        <time>2021-02-02T09:17:07Z</time>
      </trkpt>
      <trkpt lat="44.3665" lon="7.19752">
        <ele>1907.39</ele>
        <time>2021-02-02T09:17:20Z</time>
      </trkpt>
      <trkpt lat="44.36656" lon="7.1975">
        <ele>1907.39</ele>
        <time>2021-02-02T09:17:36Z</time>
      </trkpt>
      <trkpt lat="44.36663" lon="7.19746">
        <ele>1909.8</ele>
        <time>2021-02-02T09:17:50Z</time>
      </trkpt>
      <trkpt lat="44.36669" lon="7.19744">
        <ele>1909.32</ele>
        <time>2021-02-02T09:18:04Z</time>
      </trkpt>
      <trkpt lat="44.36678" lon="7.19744">
        <ele>1911.72</ele>
        <time>2021-02-02T09:18:19Z</time>
      </trkpt>
      <trkpt lat="44.36682" lon="7.19737">
        <ele>1913.64</ele>
        <time>2021-02-02T09:18:32Z</time>
      </trkpt>
      <trkpt lat="44.36688" lon="7.19737">
        <ele>1916.04</ele>
        <time>2021-02-02T09:18:46Z</time>
      </trkpt>
      <trkpt lat="44.36697" lon="7.19736">
        <ele>1917.97</ele>
        <time>2021-02-02T09:19:00Z</time>
      </trkpt>
      <trkpt lat="44.36705" lon="7.19732">
        <ele>1916.53</ele>
        <time>2021-02-02T09:19:18Z</time>
      </trkpt>
      <trkpt lat="44.36713" lon="7.19729">
        <ele>1922.77</ele>
        <time>2021-02-02T09:19:35Z</time>
      </trkpt>
      <trkpt lat="44.3672" lon="7.19725">
        <ele>1926.14</ele>
        <time>2021-02-02T09:19:49Z</time>
      </trkpt>
      <trkpt lat="44.36722" lon="7.19727">
        <ele>1926.14</ele>
        <time>2021-02-02T09:19:52Z</time>
      </trkpt>
      <trkpt lat="44.3673" lon="7.19729">
        <ele>1925.18</ele>
        <time>2021-02-02T09:20:06Z</time>
      </trkpt>
      <trkpt lat="44.36732" lon="7.19732">
        <ele>1925.18</ele>
        <time>2021-02-02T09:20:10Z</time>
      </trkpt>
      <trkpt lat="44.36737" lon="7.19734">
        <ele>1925.66</ele>
        <time>2021-02-02T09:20:23Z</time>
      </trkpt>
      <trkpt lat="44.36744" lon="7.1973">
        <ele>1927.58</ele>
        <time>2021-02-02T09:20:41Z</time>
      </trkpt>
      <trkpt lat="44.36752" lon="7.19725">
        <ele>1930.95</ele>
        <time>2021-02-02T09:20:58Z</time>
      </trkpt>
      <trkpt lat="44.36759" lon="7.19724">
        <ele>1930.95</ele>
        <time>2021-02-02T09:21:13Z</time>
      </trkpt>
      <trkpt lat="44.36767" lon="7.19721">
        <ele>1932.39</ele>
        <time>2021-02-02T09:21:29Z</time>
      </trkpt>
      <trkpt lat="44.36775" lon="7.1972">
        <ele>1933.83</ele>
        <time>2021-02-02T09:21:45Z</time>
      </trkpt>
      <trkpt lat="44.36783" lon="7.1972">
        <ele>1935.75</ele>
        <time>2021-02-02T09:22:01Z</time>
      </trkpt>
      <trkpt lat="44.36789" lon="7.19718">
        <ele>1938.64</ele>
        <time>2021-02-02T09:22:16Z</time>
      </trkpt>
      <trkpt lat="44.36791" lon="7.19715">
        <ele>1943.44</ele>
        <time>2021-02-02T09:22:29Z</time>
      </trkpt>
      <trkpt lat="44.36782" lon="7.19705">
        <ele>1949.21</ele>
        <time>2021-02-02T09:22:44Z</time>
      </trkpt>
      <trkpt lat="44.36777" lon="7.19697">
        <ele>1954.02</ele>
        <time>2021-02-02T09:23:00Z</time>
      </trkpt>
      <trkpt lat="44.36775" lon="7.19688">
        <ele>1957.38</ele>
        <time>2021-02-02T09:23:17Z</time>
      </trkpt>
      <trkpt lat="44.36778" lon="7.19682">
        <ele>1956.9</ele>
        <time>2021-02-02T09:23:33Z</time>
      </trkpt>
      <trkpt lat="44.36783" lon="7.19682">
        <ele>1954.02</ele>
        <time>2021-02-02T09:23:45Z</time>
      </trkpt>
      <trkpt lat="44.36789" lon="7.19683">
        <ele>1953.54</ele>
        <time>2021-02-02T09:23:58Z</time>
      </trkpt>
      <trkpt lat="44.368" lon="7.19682">
        <ele>1955.46</ele>
        <time>2021-02-02T09:24:15Z</time>
      </trkpt>
      <trkpt lat="44.36803" lon="7.1968">
        <ele>1955.94</ele>
        <time>2021-02-02T09:24:31Z</time>
      </trkpt>
      <trkpt lat="44.36798" lon="7.1967">
        <ele>1957.38</ele>
        <time>2021-02-02T09:24:46Z</time>
      </trkpt>
      <trkpt lat="44.36792" lon="7.19659">
        <ele>1959.78</ele>
        <time>2021-02-02T09:25:02Z</time>
      </trkpt>
      <trkpt lat="44.36792" lon="7.1965">
        <ele>1961.23</ele>
        <time>2021-02-02T09:25:14Z</time>
      </trkpt>
      <trkpt lat="44.36793" lon="7.19636">
        <ele>1965.07</ele>
        <time>2021-02-02T09:25:34Z</time>
      </trkpt>
      <trkpt lat="44.36794" lon="7.19637">
        <ele>1966.51</ele>
        <time>2021-02-02T09:25:46Z</time>
      </trkpt>
      <trkpt lat="44.368" lon="7.19643">
        <ele>1966.51</ele>
        <time>2021-02-02T09:26:01Z</time>
      </trkpt>
      <trkpt lat="44.36806" lon="7.19646">
        <ele>1969.88</ele>
        <time>2021-02-02T09:26:15Z</time>
      </trkpt>
      <trkpt lat="44.36814" lon="7.19648">
        <ele>1972.76</ele>
        <time>2021-02-02T09:26:28Z</time>
      </trkpt>
      <trkpt lat="44.3682" lon="7.19645">
        <ele>1973.72</ele>
        <time>2021-02-02T09:26:40Z</time>
      </trkpt>
      <trkpt lat="44.36814" lon="7.19636">
        <ele>1976.13</ele>
        <time>2021-02-02T09:26:56Z</time>
      </trkpt>
      <trkpt lat="44.36814" lon="7.19623">
        <ele>1977.57</ele>
        <time>2021-02-02T09:27:13Z</time>
      </trkpt>
      <trkpt lat="44.36817" lon="7.19613">
        <ele>1979.97</ele>
        <time>2021-02-02T09:27:30Z</time>
      </trkpt>
      <trkpt lat="44.36821" lon="7.19619">
        <ele>1982.86</ele>
        <time>2021-02-02T09:27:42Z</time>
      </trkpt>
      <trkpt lat="44.36827" lon="7.19623">
        <ele>1988.14</ele>
        <time>2021-02-02T09:27:58Z</time>
      </trkpt>
      <trkpt lat="44.36831" lon="7.19622">
        <ele>1990.07</ele>
        <time>2021-02-02T09:28:10Z</time>
      </trkpt>
      <trkpt lat="44.36833" lon="7.19611">
        <ele>1991.51</ele>
        <time>2021-02-02T09:28:27Z</time>
      </trkpt>
      <trkpt lat="44.36835" lon="7.19599">
        <ele>1994.39</ele>
        <time>2021-02-02T09:28:41Z</time>
      </trkpt>
      <trkpt lat="44.36839" lon="7.19588">
        <ele>1994.39</ele>
        <time>2021-02-02T09:28:57Z</time>
      </trkpt>
      <trkpt lat="44.36841" lon="7.19594">
        <ele>1995.83</ele>
        <time>2021-02-02T09:29:09Z</time>
      </trkpt>
      <trkpt lat="44.36844" lon="7.19591">
        <ele>1998.72</ele>
        <time>2021-02-02T09:29:23Z</time>
      </trkpt>
      <trkpt lat="44.36848" lon="7.19579">
        <ele>2001.12</ele>
        <time>2021-02-02T09:29:40Z</time>
      </trkpt>
      <trkpt lat="44.3685" lon="7.19574">
        <ele>2003.52</ele>
        <time>2021-02-02T09:29:56Z</time>
      </trkpt>
      <trkpt lat="44.36854" lon="7.1958">
        <ele>2004.97</ele>
        <time>2021-02-02T09:30:12Z</time>
      </trkpt>
      <trkpt lat="44.3686" lon="7.19584">
        <ele>2007.85</ele>
        <time>2021-02-02T09:30:25Z</time>
      </trkpt>
      <trkpt lat="44.36865" lon="7.19586">
        <ele>2009.29</ele>
        <time>2021-02-02T09:30:37Z</time>
      </trkpt>
      <trkpt lat="44.36868" lon="7.19585">
        <ele>2010.73</ele>
        <time>2021-02-02T09:30:51Z</time>
      </trkpt>
      <trkpt lat="44.36867" lon="7.19572">
        <ele>2011.7</ele>
        <time>2021-02-02T09:31:05Z</time>
      </trkpt>
      <trkpt lat="44.3687" lon="7.19561">
        <ele>2012.66</ele>
        <time>2021-02-02T09:31:22Z</time>
      </trkpt>
      <trkpt lat="44.36872" lon="7.19553">
        <ele>2017.94</ele>
        <time>2021-02-02T09:31:40Z</time>
      </trkpt>
      <trkpt lat="44.36875" lon="7.19558">
        <ele>2017.94</ele>
        <time>2021-02-02T09:31:50Z</time>
      </trkpt>
      <trkpt lat="44.36881" lon="7.19562">
        <ele>2019.87</ele>
        <time>2021-02-02T09:32:04Z</time>
      </trkpt>
      <trkpt lat="44.36888" lon="7.19563">
        <ele>2019.87</ele>
        <time>2021-02-02T09:32:18Z</time>
      </trkpt>
      <trkpt lat="44.36891" lon="7.19555">
        <ele>2022.75</ele>
        <time>2021-02-02T09:32:32Z</time>
      </trkpt>
      <trkpt lat="44.36893" lon="7.19547">
        <ele>2025.15</ele>
        <time>2021-02-02T09:32:45Z</time>
      </trkpt>
      <trkpt lat="44.36898" lon="7.1954">
        <ele>2029.48</ele>
        <time>2021-02-02T09:33:02Z</time>
      </trkpt>
      <trkpt lat="44.36904" lon="7.19533">
        <ele>2029.96</ele>
        <time>2021-02-02T09:33:16Z</time>
      </trkpt>
      <trkpt lat="44.36911" lon="7.19526">
        <ele>2032.84</ele>
        <time>2021-02-02T09:33:36Z</time>
      </trkpt>
      <trkpt lat="44.36916" lon="7.19521">
        <ele>2034.77</ele>
        <time>2021-02-02T09:33:51Z</time>
      </trkpt>
      <trkpt lat="44.3692" lon="7.19515">
        <ele>2036.21</ele>
        <time>2021-02-02T09:34:03Z</time>
      </trkpt>
      <trkpt lat="44.36925" lon="7.19514">
        <ele>2038.13</ele>
        <time>2021-02-02T09:34:17Z</time>
      </trkpt>
      <trkpt lat="44.36928" lon="7.19521">
        <ele>2039.09</ele>
        <time>2021-02-02T09:34:32Z</time>
      </trkpt>
      <trkpt lat="44.36937" lon="7.19527">
        <ele>2042.46</ele>
        <time>2021-02-02T09:34:48Z</time>
      </trkpt>
      <trkpt lat="44.36941" lon="7.19529">
        <ele>2044.38</ele>
        <time>2021-02-02T09:35:04Z</time>
      </trkpt>
      <trkpt lat="44.36947" lon="7.19525">
        <ele>2048.23</ele>
        <time>2021-02-02T09:35:20Z</time>
      </trkpt>
      <trkpt lat="44.36952" lon="7.19517">
        <ele>2050.15</ele>
        <time>2021-02-02T09:35:35Z</time>
      </trkpt>
      <trkpt lat="44.36955" lon="7.1951">
        <ele>2051.59</ele>
        <time>2021-02-02T09:35:49Z</time>
      </trkpt>
      <trkpt lat="44.36957" lon="7.19501">
        <ele>2053.99</ele>
        <time>2021-02-02T09:36:04Z</time>
      </trkpt>
      <trkpt lat="44.36958" lon="7.19496">
        <ele>2053.99</ele>
        <time>2021-02-02T09:36:09Z</time>
      </trkpt>
      <trkpt lat="44.3696" lon="7.19485">
        <ele>2052.07</ele>
        <time>2021-02-02T09:36:23Z</time>
      </trkpt>
      <trkpt lat="44.36961" lon="7.19482">
        <ele>2053.51</ele>
        <time>2021-02-02T09:36:30Z</time>
      </trkpt>
      <trkpt lat="44.36961" lon="7.19472">
        <ele>2056.4</ele>
        <time>2021-02-02T09:36:43Z</time>
      </trkpt>
      <trkpt lat="44.36961" lon="7.19467">
        <ele>2058.32</ele>
        <time>2021-02-02T09:36:58Z</time>
      </trkpt>
      <trkpt lat="44.36961" lon="7.1946">
        <ele>2060.72</ele>
        <time>2021-02-02T09:37:11Z</time>
      </trkpt>
      <trkpt lat="44.36963" lon="7.19458">
        <ele>2062.17</ele>
        <time>2021-02-02T09:37:25Z</time>
      </trkpt>
      <trkpt lat="44.3697" lon="7.19457">
        <ele>2064.57</ele>
        <time>2021-02-02T09:37:39Z</time>
      </trkpt>
      <trkpt lat="44.36978" lon="7.19457">
        <ele>2066.49</ele>
        <time>2021-02-02T09:37:53Z</time>
      </trkpt>
      <trkpt lat="44.36984" lon="7.19455">
        <ele>2067.93</ele>
        <time>2021-02-02T09:38:08Z</time>
      </trkpt>
      <trkpt lat="44.3699" lon="7.19452">
        <ele>2071.3</ele>
        <time>2021-02-02T09:38:23Z</time>
      </trkpt>
      <trkpt lat="44.36992" lon="7.19452">
        <ele>2072.74</ele>
        <time>2021-02-02T09:38:50Z</time>
      </trkpt>
      <trkpt lat="44.36999" lon="7.19447">
        <ele>2075.62</ele>
        <time>2021-02-02T09:39:03Z</time>
      </trkpt>
      <trkpt lat="44.37005" lon="7.19439">
        <ele>2077.55</ele>
        <time>2021-02-02T09:39:20Z</time>
      </trkpt>
      <trkpt lat="44.3701" lon="7.19426">
        <ele>2082.83</ele>
        <time>2021-02-02T09:39:42Z</time>
      </trkpt>
      <trkpt lat="44.37013" lon="7.19417">
        <ele>2083.31</ele>
        <time>2021-02-02T09:39:55Z</time>
      </trkpt>
      <trkpt lat="44.37016" lon="7.19409">
        <ele>2085.72</ele>
        <time>2021-02-02T09:40:10Z</time>
      </trkpt>
      <trkpt lat="44.37018" lon="7.19399">
        <ele>2087.16</ele>
        <time>2021-02-02T09:40:23Z</time>
      </trkpt>
      <trkpt lat="44.37019" lon="7.1939">
        <ele>2089.56</ele>
        <time>2021-02-02T09:40:37Z</time>
      </trkpt>
      <trkpt lat="44.37021" lon="7.19377">
        <ele>2092.93</ele>
        <time>2021-02-02T09:40:57Z</time>
      </trkpt>
      <trkpt lat="44.37021" lon="7.19366">
        <ele>2094.37</ele>
        <time>2021-02-02T09:41:13Z</time>
      </trkpt>
      <trkpt lat="44.37022" lon="7.19355">
        <ele>2093.41</ele>
        <time>2021-02-02T09:41:28Z</time>
      </trkpt>
      <trkpt lat="44.37022" lon="7.19349">
        <ele>2097.25</ele>
        <time>2021-02-02T09:41:41Z</time>
      </trkpt>
      <trkpt lat="44.37021" lon="7.19341">
        <ele>2097.73</ele>
        <time>2021-02-02T09:41:54Z</time>
      </trkpt>
      <trkpt lat="44.37022" lon="7.19332">
        <ele>2099.66</ele>
        <time>2021-02-02T09:42:08Z</time>
      </trkpt>
      <trkpt lat="44.37027" lon="7.19329">
        <ele>2101.58</ele>
        <time>2021-02-02T09:42:22Z</time>
      </trkpt>
      <trkpt lat="44.37032" lon="7.19327">
        <ele>2102.54</ele>
        <time>2021-02-02T09:42:36Z</time>
      </trkpt>
      <trkpt lat="44.37037" lon="7.19326">
        <ele>2105.42</ele>
        <time>2021-02-02T09:42:50Z</time>
      </trkpt>
      <trkpt lat="44.37046" lon="7.19319">
        <ele>2108.79</ele>
        <time>2021-02-02T09:43:05Z</time>
      </trkpt>
      <trkpt lat="44.3705" lon="7.19313">
        <ele>2110.71</ele>
        <time>2021-02-02T09:43:22Z</time>
      </trkpt>
      <trkpt lat="44.37055" lon="7.19308">
        <ele>2112.15</ele>
        <time>2021-02-02T09:43:35Z</time>
      </trkpt>
      <trkpt lat="44.37059" lon="7.19302">
        <ele>2112.63</ele>
        <time>2021-02-02T09:43:48Z</time>
      </trkpt>
      <trkpt lat="44.37063" lon="7.19295">
        <ele>2115.04</ele>
        <time>2021-02-02T09:44:02Z</time>
      </trkpt>
      <trkpt lat="44.37066" lon="7.1929">
        <ele>2115.04</ele>
        <time>2021-02-02T09:44:16Z</time>
      </trkpt>
      <trkpt lat="44.37068" lon="7.19283">
        <ele>2116.48</ele>
        <time>2021-02-02T09:44:29Z</time>
      </trkpt>
      <trkpt lat="44.37069" lon="7.19276">
        <ele>2117.44</ele>
        <time>2021-02-02T09:44:41Z</time>
      </trkpt>
      <trkpt lat="44.37067" lon="7.19269">
        <ele>2118.4</ele>
        <time>2021-02-02T09:44:54Z</time>
      </trkpt>
      <trkpt lat="44.37068" lon="7.19263">
        <ele>2120.32</ele>
        <time>2021-02-02T09:45:07Z</time>
      </trkpt>
      <trkpt lat="44.37067" lon="7.19259">
        <ele>2121.29</ele>
        <time>2021-02-02T09:45:20Z</time>
      </trkpt>
      <trkpt lat="44.37067" lon="7.1925">
        <ele>2123.69</ele>
        <time>2021-02-02T09:45:33Z</time>
      </trkpt>
      <trkpt lat="44.37068" lon="7.19245">
        <ele>2125.13</ele>
        <time>2021-02-02T09:45:45Z</time>
      </trkpt>
      <trkpt lat="44.37068" lon="7.19239">
        <ele>2127.53</ele>
        <time>2021-02-02T09:45:57Z</time>
      </trkpt>
      <trkpt lat="44.37069" lon="7.19235">
        <ele>2128.02</ele>
        <time>2021-02-02T09:46:11Z</time>
      </trkpt>
      <trkpt lat="44.37071" lon="7.19231">
        <ele>2129.94</ele>
        <time>2021-02-02T09:46:25Z</time>
      </trkpt>
      <trkpt lat="44.37073" lon="7.1922">
        <ele>2131.86</ele>
        <time>2021-02-02T09:46:42Z</time>
      </trkpt>
      <trkpt lat="44.37075" lon="7.1921">
        <ele>2135.71</ele>
        <time>2021-02-02T09:46:57Z</time>
      </trkpt>
      <trkpt lat="44.37076" lon="7.19203">
        <ele>2137.15</ele>
        <time>2021-02-02T09:47:09Z</time>
      </trkpt>
      <trkpt lat="44.37079" lon="7.19195">
        <ele>2139.07</ele>
        <time>2021-02-02T09:47:22Z</time>
      </trkpt>
      <trkpt lat="44.37079" lon="7.1919">
        <ele>2139.07</ele>
        <time>2021-02-02T09:47:37Z</time>
      </trkpt>
      <trkpt lat="44.3708" lon="7.19183">
        <ele>2140.03</ele>
        <time>2021-02-02T09:47:50Z</time>
      </trkpt>
      <trkpt lat="44.37082" lon="7.19176">
        <ele>2141.95</ele>
        <time>2021-02-02T09:48:02Z</time>
      </trkpt>
      <trkpt lat="44.37084" lon="7.1917">
        <ele>2144.36</ele>
        <time>2021-02-02T09:48:15Z</time>
      </trkpt>
      <trkpt lat="44.37085" lon="7.19168">
        <ele>2145.8</ele>
        <time>2021-02-02T09:48:32Z</time>
      </trkpt>
      <trkpt lat="44.37088" lon="7.19161">
        <ele>2148.68</ele>
        <time>2021-02-02T09:48:45Z</time>
      </trkpt>
      <trkpt lat="44.3709" lon="7.19154">
        <ele>2151.09</ele>
        <time>2021-02-02T09:48:58Z</time>
      </trkpt>
      <trkpt lat="44.3709" lon="7.19148">
        <ele>2151.09</ele>
        <time>2021-02-02T09:49:12Z</time>
      </trkpt>
      <trkpt lat="44.37091" lon="7.19142">
        <ele>2151.57</ele>
        <time>2021-02-02T09:49:29Z</time>
      </trkpt>
      <trkpt lat="44.37092" lon="7.19136">
        <ele>2153.49</ele>
        <time>2021-02-02T09:49:42Z</time>
      </trkpt>
      <trkpt lat="44.37094" lon="7.1913">
        <ele>2155.41</ele>
        <time>2021-02-02T09:49:54Z</time>
      </trkpt>
      <trkpt lat="44.37095" lon="7.19124">
        <ele>2156.86</ele>
        <time>2021-02-02T09:50:07Z</time>
      </trkpt>
      <trkpt lat="44.37098" lon="7.19119">
        <ele>2157.82</ele>
        <time>2021-02-02T09:50:21Z</time>
      </trkpt>
      <trkpt lat="44.371" lon="7.19115">
        <ele>2158.3</ele>
        <time>2021-02-02T09:50:34Z</time>
      </trkpt>
      <trkpt lat="44.37101" lon="7.1911">
        <ele>2159.74</ele>
        <time>2021-02-02T09:50:53Z</time>
      </trkpt>
      <trkpt lat="44.37103" lon="7.19103">
        <ele>2161.66</ele>
        <time>2021-02-02T09:51:06Z</time>
      </trkpt>
      <trkpt lat="44.37108" lon="7.191">
        <ele>2163.58</ele>
        <time>2021-02-02T09:51:20Z</time>
      </trkpt>
      <trkpt lat="44.37111" lon="7.19094">
        <ele>2165.99</ele>
        <time>2021-02-02T09:51:34Z</time>
      </trkpt>
      <trkpt lat="44.3711" lon="7.19091">
        <ele>2166.47</ele>
        <time>2021-02-02T09:51:46Z</time>
      </trkpt>
      <trkpt lat="44.37113" lon="7.19089">
        <ele>2167.43</ele>
        <time>2021-02-02T09:52:03Z</time>
      </trkpt>
      <trkpt lat="44.37114" lon="7.19084">
        <ele>2167.91</ele>
        <time>2021-02-02T09:52:16Z</time>
      </trkpt>
      <trkpt lat="44.37114" lon="7.19081">
        <ele>2169.35</ele>
        <time>2021-02-02T09:52:28Z</time>
      </trkpt>
      <trkpt lat="44.37112" lon="7.19076">
        <ele>2171.27</ele>
        <time>2021-02-02T09:52:44Z</time>
      </trkpt>
      <trkpt lat="44.37112" lon="7.19071">
        <ele>2172.72</ele>
        <time>2021-02-02T09:52:57Z</time>
      </trkpt>
      <trkpt lat="44.37111" lon="7.19067">
        <ele>2171.27</ele>
        <time>2021-02-02T09:53:11Z</time>
      </trkpt>
      <trkpt lat="44.37113" lon="7.19064">
        <ele>2169.83</ele>
        <time>2021-02-02T09:53:29Z</time>
      </trkpt>
      <trkpt lat="44.37112" lon="7.19061">
        <ele>2172.24</ele>
        <time>2021-02-02T09:53:42Z</time>
      </trkpt>
      <trkpt lat="44.37108" lon="7.19059">
        <ele>2174.16</ele>
        <time>2021-02-02T09:53:54Z</time>
      </trkpt>
      <trkpt lat="44.37105" lon="7.19058">
        <ele>2175.6</ele>
        <time>2021-02-02T09:54:11Z</time>
      </trkpt>
      <trkpt lat="44.37099" lon="7.19056">
        <ele>2178.48</ele>
        <time>2021-02-02T09:54:24Z</time>
      </trkpt>
      <trkpt lat="44.37099" lon="7.19054">
        <ele>2179.45</ele>
        <time>2021-02-02T09:54:38Z</time>
      </trkpt>
      <trkpt lat="44.371" lon="7.19053">
        <ele>2182.81</ele>
        <time>2021-02-02T09:54:54Z</time>
      </trkpt>
      <trkpt lat="44.37103" lon="7.19049">
        <ele>2182.81</ele>
        <time>2021-02-02T09:55:11Z</time>
      </trkpt>
      <trkpt lat="44.37108" lon="7.19047">
        <ele>2184.25</ele>
        <time>2021-02-02T09:55:24Z</time>
      </trkpt>
      <trkpt lat="44.37111" lon="7.19047">
        <ele>2184.73</ele>
        <time>2021-02-02T09:55:38Z</time>
      </trkpt>
      <trkpt lat="44.37116" lon="7.19045">
        <ele>2184.73</ele>
        <time>2021-02-02T09:55:56Z</time>
      </trkpt>
      <trkpt lat="44.37118" lon="7.19046">
        <ele>2183.77</ele>
        <time>2021-02-02T09:56:11Z</time>
      </trkpt>
      <trkpt lat="44.37122" lon="7.19045">
        <ele>2184.25</ele>
        <time>2021-02-02T09:56:26Z</time>
      </trkpt>
      <trkpt lat="44.37127" lon="7.19047">
        <ele>2184.25</ele>
        <time>2021-02-02T09:56:40Z</time>
      </trkpt>
      <trkpt lat="44.3713" lon="7.19046">
        <ele>2185.21</ele>
        <time>2021-02-02T09:56:53Z</time>
      </trkpt>
      <trkpt lat="44.37132" lon="7.19043">
        <ele>2189.06</ele>
        <time>2021-02-02T09:57:09Z</time>
      </trkpt>
      <trkpt lat="44.37132" lon="7.19041">
        <ele>2190.5</ele>
        <time>2021-02-02T09:57:25Z</time>
      </trkpt>
      <trkpt lat="44.37133" lon="7.19042">
        <ele>2190.02</ele>
        <time>2021-02-02T09:57:45Z</time>
      </trkpt>
      <trkpt lat="44.37132" lon="7.19041">
        <ele>2189.54</ele>
        <time>2021-02-02T09:58:06Z</time>
      </trkpt>
      <trkpt lat="44.37133" lon="7.19045">
        <ele>2185.21</ele>
        <time>2021-02-02T09:58:29Z</time>
      </trkpt>
      <trkpt lat="44.37132" lon="7.19038">
        <ele>2185.21</ele>
        <time>2021-02-02T09:58:46Z</time>
      </trkpt>
      <trkpt lat="44.37132" lon="7.19036">
        <ele>2187.62</ele>
        <time>2021-02-02T09:58:59Z</time>
      </trkpt>
      <trkpt lat="44.37133" lon="7.19033">
        <ele>2189.06</ele>
        <time>2021-02-02T09:59:12Z</time>
      </trkpt>
      <trkpt lat="44.37133" lon="7.19025">
        <ele>2191.46</ele>
        <time>2021-02-02T09:59:25Z</time>
      </trkpt>
      <trkpt lat="44.37133" lon="7.19024">
        <ele>2188.1</ele>
        <time>2021-02-02T09:59:45Z</time>
      </trkpt>
      <trkpt lat="44.37132" lon="7.19024">
        <ele>2188.1</ele>
        <time>2021-02-02T09:59:55Z</time>
      </trkpt>
      <trkpt lat="44.37133" lon="7.19023">
        <ele>2187.62</ele>
        <time>2021-02-02T10:00:27Z</time>
      </trkpt>
      <trkpt lat="44.37134" lon="7.19027">
        <ele>2188.1</ele>
        <time>2021-02-02T10:01:04Z</time>
      </trkpt>
      <trkpt lat="44.37134" lon="7.19025">
        <ele>2188.58</ele>
        <time>2021-02-02T10:01:44Z</time>
      </trkpt>
      <trkpt lat="44.37135" lon="7.19024">
        <ele>2192.42</ele>
        <time>2021-02-02T10:02:08Z</time>
      </trkpt>
      <trkpt lat="44.37135" lon="7.19025">
        <ele>2191.94</ele>
        <time>2021-02-02T10:02:41Z</time>
      </trkpt>
      <trkpt lat="44.37135" lon="7.19024">
        <ele>2192.9</ele>
        <time>2021-02-02T10:03:12Z</time>
      </trkpt>
      <trkpt lat="44.37137" lon="7.19024">
        <ele>2190.5</ele>
        <time>2021-02-02T10:03:38Z</time>
      </trkpt>
      <trkpt lat="44.37137" lon="7.19025">
        <ele>2188.58</ele>
        <time>2021-02-02T10:04:10Z</time>
      </trkpt>
      <trkpt lat="44.37136" lon="7.19027">
        <ele>2187.62</ele>
        <time>2021-02-02T10:04:42Z</time>
      </trkpt>
      <trkpt lat="44.37137" lon="7.19025">
        <ele>2187.62</ele>
        <time>2021-02-02T10:05:13Z</time>
      </trkpt>
      <trkpt lat="44.37135" lon="7.19025">
        <ele>2189.06</ele>
        <time>2021-02-02T10:05:48Z</time>
      </trkpt>
      <trkpt lat="44.37135" lon="7.19029">
        <ele>2187.14</ele>
        <time>2021-02-02T10:06:45Z</time>
      </trkpt>
      <trkpt lat="44.37135" lon="7.19026">
        <ele>2186.18</ele>
        <time>2021-02-02T10:07:28Z</time>
      </trkpt>
      <trkpt lat="44.37137" lon="7.19028">
        <ele>2186.18</ele>
        <time>2021-02-02T10:08:06Z</time>
      </trkpt>
      <trkpt lat="44.37136" lon="7.19025">
        <ele>2183.29</ele>
        <time>2021-02-02T10:08:47Z</time>
      </trkpt>
      <trkpt lat="44.37134" lon="7.19025">
        <ele>2183.77</ele>
        <time>2021-02-02T10:09:26Z</time>
      </trkpt>
      <trkpt lat="44.37135" lon="7.19027">
        <ele>2182.81</ele>
        <time>2021-02-02T10:09:51Z</time>
      </trkpt>
      <trkpt lat="44.37136" lon="7.19026">
        <ele>2184.25</ele>
        <time>2021-02-02T10:10:26Z</time>
      </trkpt>
      <trkpt lat="44.37133" lon="7.19025">
        <ele>2182.81</ele>
        <time>2021-02-02T10:11:13Z</time>
      </trkpt>
      <trkpt lat="44.37133" lon="7.19026">
        <ele>2183.77</ele>
        <time>2021-02-02T10:11:44Z</time>
      </trkpt>
      <trkpt lat="44.37133" lon="7.19025">
        <ele>2186.18</ele>
        <time>2021-02-02T10:12:00Z</time>
      </trkpt>
      <trkpt lat="44.37133" lon="7.19024">
        <ele>2187.62</ele>
        <time>2021-02-02T10:12:17Z</time>
      </trkpt>
      <trkpt lat="44.37133" lon="7.19023">
        <ele>2186.66</ele>
        <time>2021-02-02T10:12:33Z</time>
      </trkpt>
      <trkpt lat="44.37133" lon="7.19023">
        <ele>2186.18</ele>
        <time>2021-02-02T10:12:49Z</time>
      </trkpt>
      <trkpt lat="44.37135" lon="7.19025">
        <ele>2185.69</ele>
        <time>2021-02-02T10:13:06Z</time>
      </trkpt>
      <trkpt lat="44.37136" lon="7.19021">
        <ele>2188.1</ele>
        <time>2021-02-02T10:13:28Z</time>
      </trkpt>
      <trkpt lat="44.37131" lon="7.19025">
        <ele>2188.1</ele>
        <time>2021-02-02T10:13:44Z</time>
      </trkpt>
      <trkpt lat="44.37133" lon="7.19031">
        <ele>2184.73</ele>
        <time>2021-02-02T10:13:54Z</time>
      </trkpt>
      <trkpt lat="44.37133" lon="7.19034">
        <ele>2182.33</ele>
        <time>2021-02-02T10:14:08Z</time>
      </trkpt>
      <trkpt lat="44.37132" lon="7.19035">
        <ele>2181.85</ele>
        <time>2021-02-02T10:14:23Z</time>
      </trkpt>
      <trkpt lat="44.37132" lon="7.19037">
        <ele>2180.89</ele>
        <time>2021-02-02T10:14:41Z</time>
      </trkpt>
      <trkpt lat="44.37131" lon="7.19043">
        <ele>2178.97</ele>
        <time>2021-02-02T10:14:56Z</time>
      </trkpt>
      <trkpt lat="44.3713" lon="7.19044">
        <ele>2179.93</ele>
        <time>2021-02-02T10:15:07Z</time>
      </trkpt>
      <trkpt lat="44.37125" lon="7.1905">
        <ele>2177.52</ele>
        <time>2021-02-02T10:15:13Z</time>
      </trkpt>
      <trkpt lat="44.3712" lon="7.19065">
        <ele>2170.79</ele>
        <time>2021-02-02T10:15:20Z</time>
      </trkpt>
      <trkpt lat="44.37114" lon="7.19079">
        <ele>2164.06</ele>
        <time>2021-02-02T10:15:26Z</time>
      </trkpt>
      <trkpt lat="44.37113" lon="7.19076">
        <ele>2161.18</ele>
        <time>2021-02-02T10:15:34Z</time>
      </trkpt>
      <trkpt lat="44.37113" lon="7.19078">
        <ele>2163.58</ele>
        <time>2021-02-02T10:15:59Z</time>
      </trkpt>
      <trkpt lat="44.37112" lon="7.19079">
        <ele>2164.06</ele>
        <time>2021-02-02T10:16:06Z</time>
      </trkpt>
      <trkpt lat="44.37107" lon="7.19092">
        <ele>2160.7</ele>
        <time>2021-02-02T10:16:12Z</time>
      </trkpt>
      <trkpt lat="44.37091" lon="7.19118">
        <ele>2154.45</ele>
        <time>2021-02-02T10:16:20Z</time>
      </trkpt>
      <trkpt lat="44.37094" lon="7.19128">
        <ele>2149.65</ele>
        <time>2021-02-02T10:16:25Z</time>
      </trkpt>
      <trkpt lat="44.37082" lon="7.19151">
        <ele>2144.36</ele>
        <time>2021-02-02T10:16:33Z</time>
      </trkpt>
      <trkpt lat="44.3708" lon="7.19161">
        <ele>2142.92</ele>
        <time>2021-02-02T10:16:37Z</time>
      </trkpt>
      <trkpt lat="44.37072" lon="7.19182">
        <ele>2136.67</ele>
        <time>2021-02-02T10:16:46Z</time>
      </trkpt>
      <trkpt lat="44.3707" lon="7.19183">
        <ele>2136.19</ele>
        <time>2021-02-02T10:16:47Z</time>
      </trkpt>
      <trkpt lat="44.37062" lon="7.19189">
        <ele>2135.23</ele>
        <time>2021-02-02T10:16:50Z</time>
      </trkpt>
      <trkpt lat="44.37062" lon="7.192">
        <ele>2134.26</ele>
        <time>2021-02-02T10:16:53Z</time>
      </trkpt>
      <trkpt lat="44.37071" lon="7.19208">
        <ele>2130.42</ele>
        <time>2021-02-02T10:17:00Z</time>
      </trkpt>
      <trkpt lat="44.37074" lon="7.19209">
        <ele>2129.94</ele>
        <time>2021-02-02T10:17:09Z</time>
      </trkpt>
      <trkpt lat="44.3708" lon="7.19213">
        <ele>2130.42</ele>
        <time>2021-02-02T10:17:15Z</time>
      </trkpt>
      <trkpt lat="44.37061" lon="7.1923">
        <ele>2126.57</ele>
        <time>2021-02-02T10:17:23Z</time>
      </trkpt>
      <trkpt lat="44.37047" lon="7.19246">
        <ele>2125.13</ele>
        <time>2021-02-02T10:17:30Z</time>
      </trkpt>
      <trkpt lat="44.37039" lon="7.19255">
        <ele>2123.21</ele>
        <time>2021-02-02T10:17:33Z</time>
      </trkpt>
      <trkpt lat="44.3703" lon="7.19261">
        <ele>2121.77</ele>
        <time>2021-02-02T10:17:40Z</time>
      </trkpt>
      <trkpt lat="44.37022" lon="7.19266">
        <ele>2119.36</ele>
        <time>2021-02-02T10:17:47Z</time>
      </trkpt>
      <trkpt lat="44.37022" lon="7.19267">
        <ele>2119.36</ele>
        <time>2021-02-02T10:17:48Z</time>
      </trkpt>
      <trkpt lat="44.3702" lon="7.19274">
        <ele>2117.44</ele>
        <time>2021-02-02T10:17:52Z</time>
      </trkpt>
      <trkpt lat="44.37013" lon="7.19285">
        <ele>2111.67</ele>
        <time>2021-02-02T10:17:57Z</time>
      </trkpt>
      <trkpt lat="44.36995" lon="7.19299">
        <ele>2103.5</ele>
        <time>2021-02-02T10:18:07Z</time>
      </trkpt>
      <trkpt lat="44.36992" lon="7.19306">
        <ele>2103.02</ele>
        <time>2021-02-02T10:18:09Z</time>
      </trkpt>
      <trkpt lat="44.36984" lon="7.19312">
        <ele>2098.21</ele>
        <time>2021-02-02T10:18:16Z</time>
      </trkpt>
      <trkpt lat="44.3697" lon="7.19327">
        <ele>2093.89</ele>
        <time>2021-02-02T10:18:25Z</time>
      </trkpt>
      <trkpt lat="44.3697" lon="7.19335">
        <ele>2091.49</ele>
        <time>2021-02-02T10:18:28Z</time>
      </trkpt>
      <trkpt lat="44.36981" lon="7.19339">
        <ele>2090.04</ele>
        <time>2021-02-02T10:18:34Z</time>
      </trkpt>
      <trkpt lat="44.36977" lon="7.19345">
        <ele>2089.56</ele>
        <time>2021-02-02T10:18:39Z</time>
      </trkpt>
      <trkpt lat="44.3697" lon="7.19348">
        <ele>2088.12</ele>
        <time>2021-02-02T10:18:41Z</time>
      </trkpt>
      <trkpt lat="44.36955" lon="7.19345">
        <ele>2086.68</ele>
        <time>2021-02-02T10:18:48Z</time>
      </trkpt>
      <trkpt lat="44.36955" lon="7.19346">
        <ele>2086.2</ele>
        <time>2021-02-02T10:18:51Z</time>
      </trkpt>
      <trkpt lat="44.36947" lon="7.19349">
        <ele>2084.28</ele>
        <time>2021-02-02T10:18:58Z</time>
      </trkpt>
      <trkpt lat="44.36948" lon="7.19358">
        <ele>2082.83</ele>
        <time>2021-02-02T10:19:02Z</time>
      </trkpt>
      <trkpt lat="44.3696" lon="7.19376">
        <ele>2080.43</ele>
        <time>2021-02-02T10:19:09Z</time>
      </trkpt>
      <trkpt lat="44.36952" lon="7.19372">
        <ele>2077.07</ele>
        <time>2021-02-02T10:19:13Z</time>
      </trkpt>
      <trkpt lat="44.36947" lon="7.19377">
        <ele>2075.62</ele>
        <time>2021-02-02T10:19:16Z</time>
      </trkpt>
      <trkpt lat="44.36948" lon="7.19386">
        <ele>2074.66</ele>
        <time>2021-02-02T10:19:18Z</time>
      </trkpt>
      <trkpt lat="44.36937" lon="7.19385">
        <ele>2069.86</ele>
        <time>2021-02-02T10:19:25Z</time>
      </trkpt>
      <trkpt lat="44.36939" lon="7.19399">
        <ele>2066.49</ele>
        <time>2021-02-02T10:19:30Z</time>
      </trkpt>
      <trkpt lat="44.36939" lon="7.1941">
        <ele>2066.01</ele>
        <time>2021-02-02T10:19:34Z</time>
      </trkpt>
      <trkpt lat="44.36929" lon="7.19423">
        <ele>2061.2</ele>
        <time>2021-02-02T10:19:40Z</time>
      </trkpt>
      <trkpt lat="44.36924" lon="7.1943">
        <ele>2055.92</ele>
        <time>2021-02-02T10:19:46Z</time>
      </trkpt>
      <trkpt lat="44.36923" lon="7.19429">
        <ele>2054.96</ele>
        <time>2021-02-02T10:19:47Z</time>
      </trkpt>
      <trkpt lat="44.36917" lon="7.19439">
        <ele>2049.19</ele>
        <time>2021-02-02T10:19:53Z</time>
      </trkpt>
      <trkpt lat="44.36912" lon="7.19449">
        <ele>2043.42</ele>
        <time>2021-02-02T10:19:59Z</time>
      </trkpt>
      <trkpt lat="44.36903" lon="7.19449">
        <ele>2041.02</ele>
        <time>2021-02-02T10:20:02Z</time>
      </trkpt>
      <trkpt lat="44.36893" lon="7.19463">
        <ele>2036.21</ele>
        <time>2021-02-02T10:20:08Z</time>
      </trkpt>
      <trkpt lat="44.36894" lon="7.19478">
        <ele>2030.44</ele>
        <time>2021-02-02T10:20:14Z</time>
      </trkpt>
      <trkpt lat="44.36891" lon="7.19481">
        <ele>2029.48</ele>
        <time>2021-02-02T10:20:15Z</time>
      </trkpt>
      <trkpt lat="44.36886" lon="7.19489">
        <ele>2021.31</ele>
        <time>2021-02-02T10:20:24Z</time>
      </trkpt>
      <trkpt lat="44.36887" lon="7.19491">
        <ele>2027.08</ele>
        <time>2021-02-02T10:20:42Z</time>
      </trkpt>
      <trkpt lat="44.36888" lon="7.19493">
        <ele>2026.6</ele>
        <time>2021-02-02T10:20:47Z</time>
      </trkpt>
      <trkpt lat="44.36879" lon="7.19506">
        <ele>2022.75</ele>
        <time>2021-02-02T10:20:55Z</time>
      </trkpt>
      <trkpt lat="44.36866" lon="7.19517">
        <ele>2016.98</ele>
        <time>2021-02-02T10:21:00Z</time>
      </trkpt>
      <trkpt lat="44.3686" lon="7.19536">
        <ele>2008.81</ele>
        <time>2021-02-02T10:21:06Z</time>
      </trkpt>
      <trkpt lat="44.36863" lon="7.19544">
        <ele>2006.89</ele>
        <time>2021-02-02T10:21:08Z</time>
      </trkpt>
      <trkpt lat="44.36854" lon="7.19558">
        <ele>2000.64</ele>
        <time>2021-02-02T10:21:16Z</time>
      </trkpt>
      <trkpt lat="44.36847" lon="7.19567">
        <ele>1997.28</ele>
        <time>2021-02-02T10:21:19Z</time>
      </trkpt>
      <trkpt lat="44.36845" lon="7.19577">
        <ele>1994.39</ele>
        <time>2021-02-02T10:21:23Z</time>
      </trkpt>
      <trkpt lat="44.36838" lon="7.19573">
        <ele>1991.03</ele>
        <time>2021-02-02T10:21:27Z</time>
      </trkpt>
      <trkpt lat="44.36833" lon="7.19588">
        <ele>1985.26</ele>
        <time>2021-02-02T10:21:32Z</time>
      </trkpt>
      <trkpt lat="44.36833" lon="7.19593">
        <ele>1984.3</ele>
        <time>2021-02-02T10:21:34Z</time>
      </trkpt>
      <trkpt lat="44.36821" lon="7.19601">
        <ele>1980.45</ele>
        <time>2021-02-02T10:21:41Z</time>
      </trkpt>
      <trkpt lat="44.36818" lon="7.19612">
        <ele>1978.53</ele>
        <time>2021-02-02T10:21:44Z</time>
      </trkpt>
      <trkpt lat="44.36818" lon="7.19623">
        <ele>1977.57</ele>
        <time>2021-02-02T10:21:47Z</time>
      </trkpt>
      <trkpt lat="44.36809" lon="7.19637">
        <ele>1974.2</ele>
        <time>2021-02-02T10:21:53Z</time>
      </trkpt>
      <trkpt lat="44.3681" lon="7.19642">
        <ele>1973.24</ele>
        <time>2021-02-02T10:21:59Z</time>
      </trkpt>
      <trkpt lat="44.36802" lon="7.19645">
        <ele>1969.4</ele>
        <time>2021-02-02T10:22:03Z</time>
      </trkpt>
      <trkpt lat="44.36796" lon="7.19636">
        <ele>1966.51</ele>
        <time>2021-02-02T10:22:07Z</time>
      </trkpt>
      <trkpt lat="44.3679" lon="7.19645">
        <ele>1963.63</ele>
        <time>2021-02-02T10:22:11Z</time>
      </trkpt>
      <trkpt lat="44.36791" lon="7.1965">
        <ele>1962.67</ele>
        <time>2021-02-02T10:22:13Z</time>
      </trkpt>
      <trkpt lat="44.3679" lon="7.19665">
        <ele>1955.94</ele>
        <time>2021-02-02T10:22:19Z</time>
      </trkpt>
      <trkpt lat="44.3679" lon="7.19665">
        <ele>1955.46</ele>
        <time>2021-02-02T10:22:20Z</time>
      </trkpt>
      <trkpt lat="44.36783" lon="7.19667">
        <ele>1949.69</ele>
        <time>2021-02-02T10:22:27Z</time>
      </trkpt>
      <trkpt lat="44.36783" lon="7.19666">
        <ele>1948.73</ele>
        <time>2021-02-02T10:22:28Z</time>
      </trkpt>
      <trkpt lat="44.36781" lon="7.19666">
        <ele>1947.77</ele>
        <time>2021-02-02T10:22:30Z</time>
      </trkpt>
      <trkpt lat="44.36782" lon="7.19683">
        <ele>1943.44</ele>
        <time>2021-02-02T10:22:37Z</time>
      </trkpt>
      <trkpt lat="44.36781" lon="7.19682">
        <ele>1944.88</ele>
        <time>2021-02-02T10:22:44Z</time>
      </trkpt>
      <trkpt lat="44.36778" lon="7.19687">
        <ele>1943.44</ele>
        <time>2021-02-02T10:22:51Z</time>
      </trkpt>
      <trkpt lat="44.36772" lon="7.19691">
        <ele>1941.04</ele>
        <time>2021-02-02T10:23:04Z</time>
      </trkpt>
      <trkpt lat="44.3677" lon="7.19708">
        <ele>1938.16</ele>
        <time>2021-02-02T10:23:08Z</time>
      </trkpt>
      <trkpt lat="44.36773" lon="7.19712">
        <ele>1934.79</ele>
        <time>2021-02-02T10:23:11Z</time>
      </trkpt>
      <trkpt lat="44.36776" lon="7.1972">
        <ele>1931.43</ele>
        <time>2021-02-02T10:23:16Z</time>
      </trkpt>
      <trkpt lat="44.36761" lon="7.19718">
        <ele>1922.77</ele>
        <time>2021-02-02T10:23:22Z</time>
      </trkpt>
      <trkpt lat="44.36756" lon="7.19714">
        <ele>1920.37</ele>
        <time>2021-02-02T10:23:28Z</time>
      </trkpt>
      <trkpt lat="44.36757" lon="7.1973">
        <ele>1915.56</ele>
        <time>2021-02-02T10:23:34Z</time>
      </trkpt>
      <trkpt lat="44.36748" lon="7.19741">
        <ele>1910.28</ele>
        <time>2021-02-02T10:23:40Z</time>
      </trkpt>
      <trkpt lat="44.36728" lon="7.19733">
        <ele>1905.95</ele>
        <time>2021-02-02T10:23:47Z</time>
      </trkpt>
      <trkpt lat="44.36728" lon="7.19732">
        <ele>1905.47</ele>
        <time>2021-02-02T10:23:48Z</time>
      </trkpt>
      <trkpt lat="44.36715" lon="7.19729">
        <ele>1902.59</ele>
        <time>2021-02-02T10:23:54Z</time>
      </trkpt>
      <trkpt lat="44.36711" lon="7.19733">
        <ele>1897.78</ele>
        <time>2021-02-02T10:24:00Z</time>
      </trkpt>
      <trkpt lat="44.36713" lon="7.19729">
        <ele>1900.18</ele>
        <time>2021-02-02T10:24:13Z</time>
      </trkpt>
      <trkpt lat="44.36708" lon="7.19743">
        <ele>1898.74</ele>
        <time>2021-02-02T10:24:19Z</time>
      </trkpt>
      <trkpt lat="44.36699" lon="7.19747">
        <ele>1895.86</ele>
        <time>2021-02-02T10:24:25Z</time>
      </trkpt>
      <trkpt lat="44.36692" lon="7.1975">
        <ele>1894.42</ele>
        <time>2021-02-02T10:24:28Z</time>
      </trkpt>
      <trkpt lat="44.36691" lon="7.1975">
        <ele>1892.97</ele>
        <time>2021-02-02T10:24:42Z</time>
      </trkpt>
      <trkpt lat="44.36691" lon="7.1975">
        <ele>1892.97</ele>
        <time>2021-02-02T10:24:43Z</time>
      </trkpt>
      <trkpt lat="44.36687" lon="7.19767">
        <ele>1888.65</ele>
        <time>2021-02-02T10:24:50Z</time>
      </trkpt>
      <trkpt lat="44.36679" lon="7.19768">
        <ele>1886.24</ele>
        <time>2021-02-02T10:24:52Z</time>
      </trkpt>
      <trkpt lat="44.36673" lon="7.19766">
        <ele>1883.36</ele>
        <time>2021-02-02T10:25:06Z</time>
      </trkpt>
      <trkpt lat="44.36673" lon="7.19767">
        <ele>1883.84</ele>
        <time>2021-02-02T10:25:08Z</time>
      </trkpt>
      <trkpt lat="44.36661" lon="7.1977">
        <ele>1882.4</ele>
        <time>2021-02-02T10:25:15Z</time>
      </trkpt>
      <trkpt lat="44.36661" lon="7.1977">
        <ele>1883.36</ele>
        <time>2021-02-02T10:25:29Z</time>
      </trkpt>
      <trkpt lat="44.36661" lon="7.19769">
        <ele>1884.32</ele>
        <time>2021-02-02T10:25:44Z</time>
      </trkpt>
      <trkpt lat="44.36654" lon="7.19769">
        <ele>1882.88</ele>
        <time>2021-02-02T10:25:49Z</time>
      </trkpt>
      <trkpt lat="44.36653" lon="7.19785">
        <ele>1880.48</ele>
        <time>2021-02-02T10:25:54Z</time>
      </trkpt>
      <trkpt lat="44.36656" lon="7.1979">
        <ele>1879.51</ele>
        <time>2021-02-02T10:25:56Z</time>
      </trkpt>
      <trkpt lat="44.36644" lon="7.19795">
        <ele>1871.82</ele>
        <time>2021-02-02T10:26:02Z</time>
      </trkpt>
      <trkpt lat="44.36637" lon="7.19805">
        <ele>1866.54</ele>
        <time>2021-02-02T10:26:08Z</time>
      </trkpt>
      <trkpt lat="44.36616" lon="7.19803">
        <ele>1859.81</ele>
        <time>2021-02-02T10:26:13Z</time>
      </trkpt>
      <trkpt lat="44.36606" lon="7.198">
        <ele>1857.89</ele>
        <time>2021-02-02T10:26:16Z</time>
      </trkpt>
      <trkpt lat="44.36579" lon="7.19804">
        <ele>1853.08</ele>
        <time>2021-02-02T10:26:22Z</time>
      </trkpt>
      <trkpt lat="44.36568" lon="7.19806">
        <ele>1851.64</ele>
        <time>2021-02-02T10:26:25Z</time>
      </trkpt>
      <trkpt lat="44.36566" lon="7.19806">
        <ele>1851.64</ele>
        <time>2021-02-02T10:26:35Z</time>
      </trkpt>
      <trkpt lat="44.36562" lon="7.19805">
        <ele>1852.6</ele>
        <time>2021-02-02T10:26:55Z</time>
      </trkpt>
      <trkpt lat="44.36559" lon="7.19806">
        <ele>1853.08</ele>
        <time>2021-02-02T10:27:10Z</time>
      </trkpt>
      <trkpt lat="44.36559" lon="7.19807">
        <ele>1853.08</ele>
        <time>2021-02-02T10:27:13Z</time>
      </trkpt>
      <trkpt lat="44.36551" lon="7.19815">
        <ele>1850.68</ele>
        <time>2021-02-02T10:27:21Z</time>
      </trkpt>
      <trkpt lat="44.36553" lon="7.19819">
        <ele>1849.71</ele>
        <time>2021-02-02T10:27:22Z</time>
      </trkpt>
      <trkpt lat="44.36558" lon="7.19834">
        <ele>1848.27</ele>
        <time>2021-02-02T10:27:27Z</time>
      </trkpt>
      <trkpt lat="44.36556" lon="7.19839">
        <ele>1842.98</ele>
        <time>2021-02-02T10:27:34Z</time>
      </trkpt>
      <trkpt lat="44.3656" lon="7.19842">
        <ele>1840.58</ele>
        <time>2021-02-02T10:27:44Z</time>
      </trkpt>
      <trkpt lat="44.36569" lon="7.1986">
        <ele>1837.22</ele>
        <time>2021-02-02T10:27:52Z</time>
      </trkpt>
      <trkpt lat="44.3657" lon="7.19861">
        <ele>1836.74</ele>
        <time>2021-02-02T10:27:53Z</time>
      </trkpt>
      <trkpt lat="44.36566" lon="7.1988">
        <ele>1830.01</ele>
        <time>2021-02-02T10:28:00Z</time>
      </trkpt>
      <trkpt lat="44.3657" lon="7.19896">
        <ele>1827.12</ele>
        <time>2021-02-02T10:28:04Z</time>
      </trkpt>
      <trkpt lat="44.3659" lon="7.19915">
        <ele>1823.28</ele>
        <time>2021-02-02T10:28:13Z</time>
      </trkpt>
      <trkpt lat="44.366" lon="7.19925">
        <ele>1820.39</ele>
        <time>2021-02-02T10:28:19Z</time>
      </trkpt>
      <trkpt lat="44.36598" lon="7.19939">
        <ele>1813.18</ele>
        <time>2021-02-02T10:28:26Z</time>
      </trkpt>
      <trkpt lat="44.36601" lon="7.19943">
        <ele>1811.74</ele>
        <time>2021-02-02T10:28:27Z</time>
      </trkpt>
      <trkpt lat="44.36608" lon="7.19951">
        <ele>1809.82</ele>
        <time>2021-02-02T10:28:30Z</time>
      </trkpt>
      <trkpt lat="44.36613" lon="7.19963">
        <ele>1807.42</ele>
        <time>2021-02-02T10:28:38Z</time>
      </trkpt>
      <trkpt lat="44.36615" lon="7.1997">
        <ele>1809.34</ele>
        <time>2021-02-02T10:28:51Z</time>
      </trkpt>
      <trkpt lat="44.36614" lon="7.19973">
        <ele>1809.82</ele>
        <time>2021-02-02T10:28:58Z</time>
      </trkpt>
      <trkpt lat="44.36611" lon="7.19981">
        <ele>1809.34</ele>
        <time>2021-02-02T10:29:00Z</time>
      </trkpt>
      <trkpt lat="44.36608" lon="7.19992">
        <ele>1808.38</ele>
        <time>2021-02-02T10:29:02Z</time>
      </trkpt>
      <trkpt lat="44.36607" lon="7.19996">
        <ele>1807.9</ele>
        <time>2021-02-02T10:29:03Z</time>
      </trkpt>
      <trkpt lat="44.36606" lon="7.2">
        <ele>1807.42</ele>
        <time>2021-02-02T10:29:04Z</time>
      </trkpt>
      <trkpt lat="44.36606" lon="7.20003">
        <ele>1807.42</ele>
        <time>2021-02-02T10:29:05Z</time>
      </trkpt>
      <trkpt lat="44.36607" lon="7.20007">
        <ele>1807.42</ele>
        <time>2021-02-02T10:29:06Z</time>
      </trkpt>
      <trkpt lat="44.36607" lon="7.20012">
        <ele>1806.94</ele>
        <time>2021-02-02T10:29:07Z</time>
      </trkpt>
      <trkpt lat="44.36607" lon="7.20016">
        <ele>1806.94</ele>
        <time>2021-02-02T10:29:08Z</time>
      </trkpt>
      <trkpt lat="44.36606" lon="7.20027">
        <ele>1805.97</ele>
        <time>2021-02-02T10:29:10Z</time>
      </trkpt>
      <trkpt lat="44.36607" lon="7.20032">
        <ele>1805.49</ele>
        <time>2021-02-02T10:29:11Z</time>
      </trkpt>
      <trkpt lat="44.36607" lon="7.20035">
        <ele>1805.01</ele>
        <time>2021-02-02T10:29:12Z</time>
      </trkpt>
      <trkpt lat="44.36606" lon="7.20039">
        <ele>1804.53</ele>
        <time>2021-02-02T10:29:13Z</time>
      </trkpt>
      <trkpt lat="44.36605" lon="7.20044">
        <ele>1804.05</ele>
        <time>2021-02-02T10:29:14Z</time>
      </trkpt>
      <trkpt lat="44.36604" lon="7.20055">
        <ele>1803.09</ele>
        <time>2021-02-02T10:29:17Z</time>
      </trkpt>
      <trkpt lat="44.36605" lon="7.20058">
        <ele>1803.09</ele>
        <time>2021-02-02T10:29:18Z</time>
      </trkpt>
      <trkpt lat="44.36607" lon="7.20062">
        <ele>1803.09</ele>
        <time>2021-02-02T10:29:22Z</time>
      </trkpt>
      <trkpt lat="44.36607" lon="7.20064">
        <ele>1802.61</ele>
        <time>2021-02-02T10:29:23Z</time>
      </trkpt>
      <trkpt lat="44.36606" lon="7.20067">
        <ele>1802.61</ele>
        <time>2021-02-02T10:29:24Z</time>
      </trkpt>
      <trkpt lat="44.36605" lon="7.20071">
        <ele>1802.13</ele>
        <time>2021-02-02T10:29:25Z</time>
      </trkpt>
      <trkpt lat="44.36605" lon="7.20075">
        <ele>1801.65</ele>
        <time>2021-02-02T10:29:26Z</time>
      </trkpt>
      <trkpt lat="44.36605" lon="7.20079">
        <ele>1801.65</ele>
        <time>2021-02-02T10:29:27Z</time>
      </trkpt>
      <trkpt lat="44.36605" lon="7.20092">
        <ele>1801.17</ele>
        <time>2021-02-02T10:29:30Z</time>
      </trkpt>
      <trkpt lat="44.36606" lon="7.20096">
        <ele>1801.17</ele>
        <time>2021-02-02T10:29:31Z</time>
      </trkpt>
      <trkpt lat="44.36607" lon="7.20099">
        <ele>1801.17</ele>
        <time>2021-02-02T10:29:32Z</time>
      </trkpt>
      <trkpt lat="44.36608" lon="7.20101">
        <ele>1800.69</ele>
        <time>2021-02-02T10:29:33Z</time>
      </trkpt>
      <trkpt lat="44.36609" lon="7.20103">
        <ele>1800.69</ele>
        <time>2021-02-02T10:29:34Z</time>
      </trkpt>
      <trkpt lat="44.36611" lon="7.20105">
        <ele>1800.21</ele>
        <time>2021-02-02T10:29:35Z</time>
      </trkpt>
      <trkpt lat="44.36612" lon="7.20107">
        <ele>1800.21</ele>
        <time>2021-02-02T10:29:36Z</time>
      </trkpt>
      <trkpt lat="44.36624" lon="7.20139">
        <ele>1798.28</ele>
        <time>2021-02-02T10:29:46Z</time>
      </trkpt>
      <trkpt lat="44.36636" lon="7.20163">
        <ele>1795.88</ele>
        <time>2021-02-02T10:29:58Z</time>
      </trkpt>
      <trkpt lat="44.36639" lon="7.20169">
        <ele>1795.4</ele>
        <time>2021-02-02T10:30:10Z</time>
      </trkpt>
      <trkpt lat="44.36641" lon="7.20176">
        <ele>1794.92</ele>
        <time>2021-02-02T10:30:24Z</time>
      </trkpt>
      <trkpt lat="44.36646" lon="7.20185">
        <ele>1795.4</ele>
        <time>2021-02-02T10:30:35Z</time>
      </trkpt>
      <trkpt lat="44.36647" lon="7.20186">
        <ele>1795.4</ele>
        <time>2021-02-02T10:30:36Z</time>
      </trkpt>
      <trkpt lat="44.3666" lon="7.20216">
        <ele>1793.48</ele>
        <time>2021-02-02T10:30:50Z</time>
      </trkpt>
      <trkpt lat="44.36677" lon="7.20242">
        <ele>1791.55</ele>
        <time>2021-02-02T10:31:03Z</time>
      </trkpt>
      <trkpt lat="44.36694" lon="7.20251">
        <ele>1790.59</ele>
        <time>2021-02-02T10:31:12Z</time>
      </trkpt>
      <trkpt lat="44.36696" lon="7.20253">
        <ele>1791.07</ele>
        <time>2021-02-02T10:31:25Z</time>
      </trkpt>
      <trkpt lat="44.36693" lon="7.20253">
        <ele>1792.52</ele>
        <time>2021-02-02T10:31:38Z</time>
      </trkpt>
      <trkpt lat="44.3669" lon="7.20251">
        <ele>1793.48</ele>
        <time>2021-02-02T10:31:54Z</time>
      </trkpt>
      <trkpt lat="44.36689" lon="7.20255">
        <ele>1791.55</ele>
        <time>2021-02-02T10:32:06Z</time>
      </trkpt>
      <trkpt lat="44.36689" lon="7.20256">
        <ele>1790.59</ele>
        <time>2021-02-02T10:32:21Z</time>
      </trkpt>
      <trkpt lat="44.36687" lon="7.20258">
        <ele>1790.59</ele>
        <time>2021-02-02T10:32:26Z</time>
      </trkpt>
      <trkpt lat="44.36685" lon="7.20259">
        <ele>1790.59</ele>
        <time>2021-02-02T10:32:27Z</time>
      </trkpt>
      <trkpt lat="44.36683" lon="7.20261">
        <ele>1790.59</ele>
        <time>2021-02-02T10:32:28Z</time>
      </trkpt>
      <trkpt lat="44.36681" lon="7.20262">
        <ele>1790.11</ele>
        <time>2021-02-02T10:32:29Z</time>
      </trkpt>
      <trkpt lat="44.36678" lon="7.20264">
        <ele>1790.11</ele>
        <time>2021-02-02T10:32:30Z</time>
      </trkpt>
      <trkpt lat="44.36676" lon="7.20266">
        <ele>1790.11</ele>
        <time>2021-02-02T10:32:31Z</time>
      </trkpt>
      <trkpt lat="44.36674" lon="7.20268">
        <ele>1789.63</ele>
        <time>2021-02-02T10:32:32Z</time>
      </trkpt>
      <trkpt lat="44.3665" lon="7.20283">
        <ele>1787.23</ele>
        <time>2021-02-02T10:32:40Z</time>
      </trkpt>
      <trkpt lat="44.36621" lon="7.2029">
        <ele>1780.5</ele>
        <time>2021-02-02T10:32:48Z</time>
      </trkpt>
      <trkpt lat="44.36617" lon="7.20294">
        <ele>1779.54</ele>
        <time>2021-02-02T10:32:49Z</time>
      </trkpt>
      <trkpt lat="44.3661" lon="7.20299">
        <ele>1778.1</ele>
        <time>2021-02-02T10:32:51Z</time>
      </trkpt>
      <trkpt lat="44.36608" lon="7.20301">
        <ele>1777.61</ele>
        <time>2021-02-02T10:32:52Z</time>
      </trkpt>
      <trkpt lat="44.36606" lon="7.20304">
        <ele>1777.13</ele>
        <time>2021-02-02T10:32:53Z</time>
      </trkpt>
      <trkpt lat="44.36605" lon="7.20306">
        <ele>1776.65</ele>
        <time>2021-02-02T10:32:54Z</time>
      </trkpt>
      <trkpt lat="44.36603" lon="7.20308">
        <ele>1776.17</ele>
        <time>2021-02-02T10:32:55Z</time>
      </trkpt>
      <trkpt lat="44.36584" lon="7.20344">
        <ele>1772.81</ele>
        <time>2021-02-02T10:33:06Z</time>
      </trkpt>
      <trkpt lat="44.36569" lon="7.20373">
        <ele>1768.48</ele>
        <time>2021-02-02T10:33:14Z</time>
      </trkpt>
      <trkpt lat="44.36568" lon="7.20374">
        <ele>1768</ele>
        <time>2021-02-02T10:33:21Z</time>
      </trkpt>
      <trkpt lat="44.36558" lon="7.20407">
        <ele>1766.08</ele>
        <time>2021-02-02T10:33:30Z</time>
      </trkpt>
      <trkpt lat="44.3655" lon="7.2043">
        <ele>1763.2</ele>
        <time>2021-02-02T10:33:35Z</time>
      </trkpt>
      <trkpt lat="44.36548" lon="7.20435">
        <ele>1762.71</ele>
        <time>2021-02-02T10:33:36Z</time>
      </trkpt>
      <trkpt lat="44.36538" lon="7.20477">
        <ele>1758.39</ele>
        <time>2021-02-02T10:33:45Z</time>
      </trkpt>
      <trkpt lat="44.36536" lon="7.20477">
        <ele>1757.91</ele>
        <time>2021-02-02T10:33:46Z</time>
      </trkpt>
      <trkpt lat="44.36535" lon="7.20474">
        <ele>1756.95</ele>
        <time>2021-02-02T10:33:47Z</time>
      </trkpt>
      <trkpt lat="44.36535" lon="7.20471">
        <ele>1756.47</ele>
        <time>2021-02-02T10:33:48Z</time>
      </trkpt>
      <trkpt lat="44.36535" lon="7.20469">
        <ele>1755.5</ele>
        <time>2021-02-02T10:33:49Z</time>
      </trkpt>
      <trkpt lat="44.36536" lon="7.20465">
        <ele>1755.02</ele>
        <time>2021-02-02T10:33:50Z</time>
      </trkpt>
      <trkpt lat="44.36534" lon="7.20411">
        <ele>1752.14</ele>
        <time>2021-02-02T10:34:03Z</time>
      </trkpt>
      <trkpt lat="44.36535" lon="7.20358">
        <ele>1750.7</ele>
        <time>2021-02-02T10:34:15Z</time>
      </trkpt>
      <trkpt lat="44.36533" lon="7.20353">
        <ele>1750.22</ele>
        <time>2021-02-02T10:34:16Z</time>
      </trkpt>
      <trkpt lat="44.3653" lon="7.20353">
        <ele>1750.22</ele>
        <time>2021-02-02T10:34:17Z</time>
      </trkpt>
      <trkpt lat="44.36527" lon="7.20356">
        <ele>1748.78</ele>
        <time>2021-02-02T10:34:18Z</time>
      </trkpt>
      <trkpt lat="44.36526" lon="7.20359">
        <ele>1748.29</ele>
        <time>2021-02-02T10:34:19Z</time>
      </trkpt>
      <trkpt lat="44.36525" lon="7.20363">
        <ele>1747.33</ele>
        <time>2021-02-02T10:34:20Z</time>
      </trkpt>
      <trkpt lat="44.36514" lon="7.204">
        <ele>1742.05</ele>
        <time>2021-02-02T10:34:29Z</time>
      </trkpt>
      <trkpt lat="44.36501" lon="7.20441">
        <ele>1737.72</ele>
        <time>2021-02-02T10:34:40Z</time>
      </trkpt>
      <trkpt lat="44.36487" lon="7.20483">
        <ele>1731.95</ele>
        <time>2021-02-02T10:34:51Z</time>
      </trkpt>
      <trkpt lat="44.36477" lon="7.205">
        <ele>1729.55</ele>
        <time>2021-02-02T10:34:55Z</time>
      </trkpt>
      <trkpt lat="44.36475" lon="7.20503">
        <ele>1729.07</ele>
        <time>2021-02-02T10:34:56Z</time>
      </trkpt>
      <trkpt lat="44.36472" lon="7.20506">
        <ele>1728.59</ele>
        <time>2021-02-02T10:34:57Z</time>
      </trkpt>
      <trkpt lat="44.3647" lon="7.2051">
        <ele>1728.11</ele>
        <time>2021-02-02T10:34:58Z</time>
      </trkpt>
      <trkpt lat="44.36468" lon="7.20514">
        <ele>1727.63</ele>
        <time>2021-02-02T10:34:59Z</time>
      </trkpt>
      <trkpt lat="44.36467" lon="7.20518">
        <ele>1727.15</ele>
        <time>2021-02-02T10:35:00Z</time>
      </trkpt>
      <trkpt lat="44.36466" lon="7.20522">
        <ele>1727.15</ele>
        <time>2021-02-02T10:35:01Z</time>
      </trkpt>
      <trkpt lat="44.36466" lon="7.20525">
        <ele>1727.15</ele>
        <time>2021-02-02T10:35:02Z</time>
      </trkpt>
      <trkpt lat="44.36466" lon="7.20528">
        <ele>1727.15</ele>
        <time>2021-02-02T10:35:03Z</time>
      </trkpt>
      <trkpt lat="44.36466" lon="7.20532">
        <ele>1726.67</ele>
        <time>2021-02-02T10:35:04Z</time>
      </trkpt>
      <trkpt lat="44.36466" lon="7.20535">
        <ele>1726.18</ele>
        <time>2021-02-02T10:35:05Z</time>
      </trkpt>
      <trkpt lat="44.36466" lon="7.20539">
        <ele>1725.7</ele>
        <time>2021-02-02T10:35:06Z</time>
      </trkpt>
      <trkpt lat="44.36463" lon="7.20552">
        <ele>1724.26</ele>
        <time>2021-02-02T10:35:10Z</time>
      </trkpt>
      <trkpt lat="44.36461" lon="7.20552">
        <ele>1723.3</ele>
        <time>2021-02-02T10:35:11Z</time>
      </trkpt>
      <trkpt lat="44.3646" lon="7.20549">
        <ele>1721.86</ele>
        <time>2021-02-02T10:35:12Z</time>
      </trkpt>
      <trkpt lat="44.3646" lon="7.20547">
        <ele>1721.38</ele>
        <time>2021-02-02T10:35:13Z</time>
      </trkpt>
      <trkpt lat="44.3646" lon="7.20544">
        <ele>1720.42</ele>
        <time>2021-02-02T10:35:14Z</time>
      </trkpt>
      <trkpt lat="44.36461" lon="7.2054">
        <ele>1719.94</ele>
        <time>2021-02-02T10:35:15Z</time>
      </trkpt>
      <trkpt lat="44.36461" lon="7.20537">
        <ele>1719.46</ele>
        <time>2021-02-02T10:35:16Z</time>
      </trkpt>
      <trkpt lat="44.36461" lon="7.20534">
        <ele>1718.97</ele>
        <time>2021-02-02T10:35:17Z</time>
      </trkpt>
      <trkpt lat="44.36455" lon="7.20495">
        <ele>1717.53</ele>
        <time>2021-02-02T10:35:27Z</time>
      </trkpt>
      <trkpt lat="44.36454" lon="7.20435">
        <ele>1715.13</ele>
        <time>2021-02-02T10:35:39Z</time>
      </trkpt>
      <trkpt lat="44.36451" lon="7.20374">
        <ele>1713.21</ele>
        <time>2021-02-02T10:35:51Z</time>
      </trkpt>
      <trkpt lat="44.36444" lon="7.20331">
        <ele>1709.84</ele>
        <time>2021-02-02T10:36:01Z</time>
      </trkpt>
      <trkpt lat="44.36438" lon="7.20308">
        <ele>1708.88</ele>
        <time>2021-02-02T10:36:06Z</time>
      </trkpt>
      <trkpt lat="44.36435" lon="7.2031">
        <ele>1707.44</ele>
        <time>2021-02-02T10:36:07Z</time>
      </trkpt>
      <trkpt lat="44.36433" lon="7.20315">
        <ele>1705.52</ele>
        <time>2021-02-02T10:36:08Z</time>
      </trkpt>
      <trkpt lat="44.36432" lon="7.20321">
        <ele>1704.07</ele>
        <time>2021-02-02T10:36:09Z</time>
      </trkpt>
      <trkpt lat="44.36432" lon="7.20326">
        <ele>1703.11</ele>
        <time>2021-02-02T10:36:10Z</time>
      </trkpt>
      <trkpt lat="44.36432" lon="7.20329">
        <ele>1702.63</ele>
        <time>2021-02-02T10:36:11Z</time>
      </trkpt>
      <trkpt lat="44.36432" lon="7.20332">
        <ele>1701.67</ele>
        <time>2021-02-02T10:36:12Z</time>
      </trkpt>
      <trkpt lat="44.36432" lon="7.20349">
        <ele>1699.75</ele>
        <time>2021-02-02T10:36:17Z</time>
      </trkpt>
      <trkpt lat="44.36433" lon="7.20353">
        <ele>1698.79</ele>
        <time>2021-02-02T10:36:18Z</time>
      </trkpt>
      <trkpt lat="44.36433" lon="7.20357">
        <ele>1698.31</ele>
        <time>2021-02-02T10:36:19Z</time>
      </trkpt>
      <trkpt lat="44.36432" lon="7.20361">
        <ele>1697.83</ele>
        <time>2021-02-02T10:36:20Z</time>
      </trkpt>
      <trkpt lat="44.36431" lon="7.20364">
        <ele>1697.34</ele>
        <time>2021-02-02T10:36:21Z</time>
      </trkpt>
      <trkpt lat="44.3643" lon="7.20368">
        <ele>1696.86</ele>
        <time>2021-02-02T10:36:22Z</time>
      </trkpt>
      <trkpt lat="44.36429" lon="7.20372">
        <ele>1696.38</ele>
        <time>2021-02-02T10:36:23Z</time>
      </trkpt>
      <trkpt lat="44.36415" lon="7.204">
        <ele>1692.54</ele>
        <time>2021-02-02T10:36:33Z</time>
      </trkpt>
      <trkpt lat="44.36406" lon="7.20421">
        <ele>1689.65</ele>
        <time>2021-02-02T10:36:41Z</time>
      </trkpt>
      <trkpt lat="44.36392" lon="7.20445">
        <ele>1686.29</ele>
        <time>2021-02-02T10:36:48Z</time>
      </trkpt>
      <trkpt lat="44.36391" lon="7.20447">
        <ele>1685.33</ele>
        <time>2021-02-02T10:36:52Z</time>
      </trkpt>
      <trkpt lat="44.3639" lon="7.20449">
        <ele>1684.85</ele>
        <time>2021-02-02T10:36:53Z</time>
      </trkpt>
      <trkpt lat="44.36384" lon="7.20475">
        <ele>1682.44</ele>
        <time>2021-02-02T10:37:01Z</time>
      </trkpt>
      <trkpt lat="44.36383" lon="7.20483">
        <ele>1681.96</ele>
        <time>2021-02-02T10:37:03Z</time>
      </trkpt>
      <trkpt lat="44.36381" lon="7.20491">
        <ele>1681.48</ele>
        <time>2021-02-02T10:37:05Z</time>
      </trkpt>
      <trkpt lat="44.36381" lon="7.20494">
        <ele>1681</ele>
        <time>2021-02-02T10:37:06Z</time>
      </trkpt>
      <trkpt lat="44.36381" lon="7.20498">
        <ele>1680.52</ele>
        <time>2021-02-02T10:37:07Z</time>
      </trkpt>
      <trkpt lat="44.3638" lon="7.20503">
        <ele>1680.04</ele>
        <time>2021-02-02T10:37:08Z</time>
      </trkpt>
      <trkpt lat="44.36379" lon="7.20507">
        <ele>1679.56</ele>
        <time>2021-02-02T10:37:09Z</time>
      </trkpt>
      <trkpt lat="44.36372" lon="7.20552">
        <ele>1675.72</ele>
        <time>2021-02-02T10:37:21Z</time>
      </trkpt>
      <trkpt lat="44.36371" lon="7.2055">
        <ele>1675.23</ele>
        <time>2021-02-02T10:37:35Z</time>
      </trkpt>
      <trkpt lat="44.36373" lon="7.20553">
        <ele>1675.23</ele>
        <time>2021-02-02T10:37:39Z</time>
      </trkpt>
      <trkpt lat="44.36373" lon="7.20555">
        <ele>1674.75</ele>
        <time>2021-02-02T10:37:40Z</time>
      </trkpt>
      <trkpt lat="44.36373" lon="7.20557">
        <ele>1674.75</ele>
        <time>2021-02-02T10:37:41Z</time>
      </trkpt>
      <trkpt lat="44.36373" lon="7.20566">
        <ele>1674.75</ele>
        <time>2021-02-02T10:37:55Z</time>
      </trkpt>
      <trkpt lat="44.36372" lon="7.20568">
        <ele>1674.75</ele>
        <time>2021-02-02T10:37:59Z</time>
      </trkpt>
      <trkpt lat="44.36366" lon="7.20602">
        <ele>1672.83</ele>
        <time>2021-02-02T10:38:09Z</time>
      </trkpt>
      <trkpt lat="44.36368" lon="7.20629">
        <ele>1670.91</ele>
        <time>2021-02-02T10:38:17Z</time>
      </trkpt>
      <trkpt lat="44.36368" lon="7.20632">
        <ele>1670.43</ele>
        <time>2021-02-02T10:38:18Z</time>
      </trkpt>
      <trkpt lat="44.3637" lon="7.20635">
        <ele>1670.43</ele>
        <time>2021-02-02T10:38:19Z</time>
      </trkpt>
      <trkpt lat="44.3637" lon="7.20637">
        <ele>1670.43</ele>
        <time>2021-02-02T10:38:20Z</time>
      </trkpt>
      <trkpt lat="44.3637" lon="7.20639">
        <ele>1669.95</ele>
        <time>2021-02-02T10:38:21Z</time>
      </trkpt>
      <trkpt lat="44.36369" lon="7.2064">
        <ele>1669.47</ele>
        <time>2021-02-02T10:38:22Z</time>
      </trkpt>
      <trkpt lat="44.36366" lon="7.20641">
        <ele>1668.51</ele>
        <time>2021-02-02T10:38:34Z</time>
      </trkpt>
      <trkpt lat="44.3637" lon="7.20639">
        <ele>1666.58</ele>
        <time>2021-02-02T10:38:50Z</time>
      </trkpt>
      <trkpt lat="44.3637" lon="7.20642">
        <ele>1666.58</ele>
        <time>2021-02-02T10:39:08Z</time>
      </trkpt>
      <trkpt lat="44.36369" lon="7.20639">
        <ele>1668.99</ele>
        <time>2021-02-02T10:39:29Z</time>
      </trkpt>
      <trkpt lat="44.36371" lon="7.20642">
        <ele>1668.99</ele>
        <time>2021-02-02T10:39:46Z</time>
      </trkpt>
      <trkpt lat="44.36371" lon="7.20644">
        <ele>1668.51</ele>
        <time>2021-02-02T10:39:47Z</time>
      </trkpt>
      <trkpt lat="44.36372" lon="7.20647">
        <ele>1668.02</ele>
        <time>2021-02-02T10:39:48Z</time>
      </trkpt>
      <trkpt lat="44.36372" lon="7.20651">
        <ele>1668.02</ele>
        <time>2021-02-02T10:39:49Z</time>
      </trkpt>
      <trkpt lat="44.36372" lon="7.20655">
        <ele>1667.54</ele>
        <time>2021-02-02T10:39:50Z</time>
      </trkpt>
      <trkpt lat="44.36372" lon="7.20659">
        <ele>1667.06</ele>
        <time>2021-02-02T10:39:51Z</time>
      </trkpt>
      <trkpt lat="44.36373" lon="7.20703">
        <ele>1660.81</ele>
        <time>2021-02-02T10:40:04Z</time>
      </trkpt>
      <trkpt lat="44.36371" lon="7.20725">
        <ele>1657.45</ele>
        <time>2021-02-02T10:40:17Z</time>
      </trkpt>
      <trkpt lat="44.36374" lon="7.20728">
        <ele>1656.97</ele>
        <time>2021-02-02T10:40:29Z</time>
      </trkpt>
      <trkpt lat="44.36374" lon="7.20736">
        <ele>1656.97</ele>
        <time>2021-02-02T10:40:40Z</time>
      </trkpt>
      <trkpt lat="44.36376" lon="7.20781">
        <ele>1651.68</ele>
        <time>2021-02-02T10:40:54Z</time>
      </trkpt>
      <trkpt lat="44.36374" lon="7.20829">
        <ele>1646.4</ele>
        <time>2021-02-02T10:41:08Z</time>
      </trkpt>
      <trkpt lat="44.36374" lon="7.20834">
        <ele>1643.99</ele>
        <time>2021-02-02T10:41:16Z</time>
      </trkpt>
      <trkpt lat="44.36376" lon="7.20839">
        <ele>1645.43</ele>
        <time>2021-02-02T10:41:32Z</time>
      </trkpt>
      <trkpt lat="44.36376" lon="7.20846">
        <ele>1646.4</ele>
        <time>2021-02-02T10:41:45Z</time>
      </trkpt>
      <trkpt lat="44.36379" lon="7.20879">
        <ele>1643.51</ele>
        <time>2021-02-02T10:41:57Z</time>
      </trkpt>
      <trkpt lat="44.36383" lon="7.20924">
        <ele>1637.74</ele>
        <time>2021-02-02T10:42:09Z</time>
      </trkpt>
      <trkpt lat="44.36385" lon="7.20966">
        <ele>1633.42</ele>
        <time>2021-02-02T10:42:20Z</time>
      </trkpt>
      <trkpt lat="44.36379" lon="7.21022">
        <ele>1628.13</ele>
        <time>2021-02-02T10:42:34Z</time>
      </trkpt>
      <trkpt lat="44.36376" lon="7.21031">
        <ele>1627.17</ele>
        <time>2021-02-02T10:42:36Z</time>
      </trkpt>
      <trkpt lat="44.36373" lon="7.21033">
        <ele>1626.21</ele>
        <time>2021-02-02T10:42:37Z</time>
      </trkpt>
      <trkpt lat="44.36371" lon="7.2103">
        <ele>1624.77</ele>
        <time>2021-02-02T10:42:38Z</time>
      </trkpt>
      <trkpt lat="44.3637" lon="7.21025">
        <ele>1623.32</ele>
        <time>2021-02-02T10:42:39Z</time>
      </trkpt>
      <trkpt lat="44.3637" lon="7.21018">
        <ele>1622.36</ele>
        <time>2021-02-02T10:42:40Z</time>
      </trkpt>
      <trkpt lat="44.3636" lon="7.20972">
        <ele>1616.59</ele>
        <time>2021-02-02T10:42:52Z</time>
      </trkpt>
      <trkpt lat="44.36338" lon="7.20919">
        <ele>1613.23</ele>
        <time>2021-02-02T10:43:07Z</time>
      </trkpt>
      <trkpt lat="44.36323" lon="7.20898">
        <ele>1611.31</ele>
        <time>2021-02-02T10:43:14Z</time>
      </trkpt>
      <trkpt lat="44.36319" lon="7.20896">
        <ele>1611.31</ele>
        <time>2021-02-02T10:43:15Z</time>
      </trkpt>
      <trkpt lat="44.36317" lon="7.20895">
        <ele>1610.83</ele>
        <time>2021-02-02T10:43:16Z</time>
      </trkpt>
      <trkpt lat="44.36317" lon="7.20897">
        <ele>1609.86</ele>
        <time>2021-02-02T10:43:17Z</time>
      </trkpt>
      <trkpt lat="44.36318" lon="7.20899">
        <ele>1608.9</ele>
        <time>2021-02-02T10:43:18Z</time>
      </trkpt>
      <trkpt lat="44.36325" lon="7.20927">
        <ele>1607.46</ele>
        <time>2021-02-02T10:43:27Z</time>
      </trkpt>
      <trkpt lat="44.36322" lon="7.20942">
        <ele>1605.54</ele>
        <time>2021-02-02T10:43:34Z</time>
      </trkpt>
      <trkpt lat="44.36322" lon="7.20955">
        <ele>1604.1</ele>
        <time>2021-02-02T10:43:40Z</time>
      </trkpt>
      <trkpt lat="44.36321" lon="7.20957">
        <ele>1603.62</ele>
        <time>2021-02-02T10:43:41Z</time>
      </trkpt>
      <trkpt lat="44.3632" lon="7.2096">
        <ele>1603.14</ele>
        <time>2021-02-02T10:43:42Z</time>
      </trkpt>
      <trkpt lat="44.3632" lon="7.20962">
        <ele>1602.66</ele>
        <time>2021-02-02T10:43:43Z</time>
      </trkpt>
      <trkpt lat="44.3632" lon="7.20965">
        <ele>1601.69</ele>
        <time>2021-02-02T10:43:44Z</time>
      </trkpt>
      <trkpt lat="44.36319" lon="7.20971">
        <ele>1600.73</ele>
        <time>2021-02-02T10:43:45Z</time>
      </trkpt>
      <trkpt lat="44.36319" lon="7.20979">
        <ele>1599.29</ele>
        <time>2021-02-02T10:43:47Z</time>
      </trkpt>
      <trkpt lat="44.36317" lon="7.2098">
        <ele>1598.81</ele>
        <time>2021-02-02T10:43:51Z</time>
      </trkpt>
      <trkpt lat="44.36315" lon="7.20982">
        <ele>1598.33</ele>
        <time>2021-02-02T10:43:52Z</time>
      </trkpt>
      <trkpt lat="44.36313" lon="7.20987">
        <ele>1597.37</ele>
        <time>2021-02-02T10:43:53Z</time>
      </trkpt>
      <trkpt lat="44.36312" lon="7.20992">
        <ele>1596.89</ele>
        <time>2021-02-02T10:43:54Z</time>
      </trkpt>
      <trkpt lat="44.36312" lon="7.20996">
        <ele>1596.41</ele>
        <time>2021-02-02T10:43:55Z</time>
      </trkpt>
      <trkpt lat="44.36311" lon="7.20998">
        <ele>1595.45</ele>
        <time>2021-02-02T10:43:56Z</time>
      </trkpt>
      <trkpt lat="44.3631" lon="7.21">
        <ele>1594.96</ele>
        <time>2021-02-02T10:43:57Z</time>
      </trkpt>
      <trkpt lat="44.36308" lon="7.21005">
        <ele>1594</ele>
        <time>2021-02-02T10:43:58Z</time>
      </trkpt>
      <trkpt lat="44.36308" lon="7.21009">
        <ele>1593.52</ele>
        <time>2021-02-02T10:43:59Z</time>
      </trkpt>
      <trkpt lat="44.36308" lon="7.21011">
        <ele>1593.04</ele>
        <time>2021-02-02T10:44:00Z</time>
      </trkpt>
      <trkpt lat="44.36309" lon="7.21013">
        <ele>1593.04</ele>
        <time>2021-02-02T10:44:01Z</time>
      </trkpt>
      <trkpt lat="44.36309" lon="7.21015">
        <ele>1592.56</ele>
        <time>2021-02-02T10:44:02Z</time>
      </trkpt>
      <trkpt lat="44.36309" lon="7.21018">
        <ele>1592.08</ele>
        <time>2021-02-02T10:44:03Z</time>
      </trkpt>
      <trkpt lat="44.36309" lon="7.21022">
        <ele>1591.6</ele>
        <time>2021-02-02T10:44:04Z</time>
      </trkpt>
      <trkpt lat="44.36307" lon="7.21025">
        <ele>1590.64</ele>
        <time>2021-02-02T10:44:05Z</time>
      </trkpt>
      <trkpt lat="44.36301" lon="7.21019">
        <ele>1586.31</ele>
        <time>2021-02-02T10:44:11Z</time>
      </trkpt>
      <trkpt lat="44.36301" lon="7.2102">
        <ele>1585.35</ele>
        <time>2021-02-02T10:44:12Z</time>
      </trkpt>
      <trkpt lat="44.36298" lon="7.21035">
        <ele>1581.99</ele>
        <time>2021-02-02T10:44:17Z</time>
      </trkpt>
      <trkpt lat="44.36297" lon="7.21055">
        <ele>1580.06</ele>
        <time>2021-02-02T10:44:21Z</time>
      </trkpt>
      <trkpt lat="44.36295" lon="7.21067">
        <ele>1579.58</ele>
        <time>2021-02-02T10:44:23Z</time>
      </trkpt>
      <trkpt lat="44.36293" lon="7.21082">
        <ele>1579.1</ele>
        <time>2021-02-02T10:44:26Z</time>
      </trkpt>
      <trkpt lat="44.36288" lon="7.21091">
        <ele>1579.58</ele>
        <time>2021-02-02T10:44:31Z</time>
      </trkpt>
      <trkpt lat="44.36278" lon="7.21076">
        <ele>1577.66</ele>
        <time>2021-02-02T10:44:38Z</time>
      </trkpt>
      <trkpt lat="44.3627" lon="7.21087">
        <ele>1576.22</ele>
        <time>2021-02-02T10:44:41Z</time>
      </trkpt>
      <trkpt lat="44.36262" lon="7.21107">
        <ele>1573.33</ele>
        <time>2021-02-02T10:44:46Z</time>
      </trkpt>
      <trkpt lat="44.36244" lon="7.21113">
        <ele>1569.01</ele>
        <time>2021-02-02T10:44:53Z</time>
      </trkpt>
      <trkpt lat="44.36244" lon="7.21118">
        <ele>1568.05</ele>
        <time>2021-02-02T10:44:54Z</time>
      </trkpt>
      <trkpt lat="44.36245" lon="7.21123">
        <ele>1567.57</ele>
        <time>2021-02-02T10:44:55Z</time>
      </trkpt>
      <trkpt lat="44.36246" lon="7.21127">
        <ele>1567.09</ele>
        <time>2021-02-02T10:44:56Z</time>
      </trkpt>
      <trkpt lat="44.36247" lon="7.2113">
        <ele>1566.61</ele>
        <time>2021-02-02T10:44:57Z</time>
      </trkpt>
      <trkpt lat="44.36247" lon="7.21134">
        <ele>1566.12</ele>
        <time>2021-02-02T10:44:58Z</time>
      </trkpt>
      <trkpt lat="44.36244" lon="7.2114">
        <ele>1565.64</ele>
        <time>2021-02-02T10:45:00Z</time>
      </trkpt>
      <trkpt lat="44.36241" lon="7.2114">
        <ele>1565.16</ele>
        <time>2021-02-02T10:45:01Z</time>
      </trkpt>
      <trkpt lat="44.36238" lon="7.21138">
        <ele>1564.68</ele>
        <time>2021-02-02T10:45:02Z</time>
      </trkpt>
      <trkpt lat="44.36235" lon="7.21137">
        <ele>1563.72</ele>
        <time>2021-02-02T10:45:03Z</time>
      </trkpt>
      <trkpt lat="44.3623" lon="7.21135">
        <ele>1563.24</ele>
        <time>2021-02-02T10:45:04Z</time>
      </trkpt>
      <trkpt lat="44.36225" lon="7.21135">
        <ele>1562.76</ele>
        <time>2021-02-02T10:45:05Z</time>
      </trkpt>
      <trkpt lat="44.36221" lon="7.21136">
        <ele>1562.28</ele>
        <time>2021-02-02T10:45:06Z</time>
      </trkpt>
      <trkpt lat="44.36219" lon="7.21141">
        <ele>1561.32</ele>
        <time>2021-02-02T10:45:07Z</time>
      </trkpt>
      <trkpt lat="44.36217" lon="7.21151">
        <ele>1560.36</ele>
        <time>2021-02-02T10:45:09Z</time>
      </trkpt>
      <trkpt lat="44.3621" lon="7.21169">
        <ele>1556.03</ele>
        <time>2021-02-02T10:45:17Z</time>
      </trkpt>
      <trkpt lat="44.36211" lon="7.21169">
        <ele>1555.07</ele>
        <time>2021-02-02T10:45:20Z</time>
      </trkpt>
      <trkpt lat="44.36205" lon="7.21168">
        <ele>1553.15</ele>
        <time>2021-02-02T10:45:23Z</time>
      </trkpt>
      <trkpt lat="44.36197" lon="7.21173">
        <ele>1550.26</ele>
        <time>2021-02-02T10:45:27Z</time>
      </trkpt>
      <trkpt lat="44.36198" lon="7.21177">
        <ele>1549.3</ele>
        <time>2021-02-02T10:45:28Z</time>
      </trkpt>
      <trkpt lat="44.36199" lon="7.2118">
        <ele>1548.82</ele>
        <time>2021-02-02T10:45:29Z</time>
      </trkpt>
      <trkpt lat="44.36201" lon="7.21182">
        <ele>1548.82</ele>
        <time>2021-02-02T10:45:30Z</time>
      </trkpt>
      <trkpt lat="44.36205" lon="7.21189">
        <ele>1549.3</ele>
        <time>2021-02-02T10:45:35Z</time>
      </trkpt>
      <trkpt lat="44.36206" lon="7.21193">
        <ele>1548.82</ele>
        <time>2021-02-02T10:45:36Z</time>
      </trkpt>
      <trkpt lat="44.36208" lon="7.21197">
        <ele>1548.34</ele>
        <time>2021-02-02T10:45:37Z</time>
      </trkpt>
      <trkpt lat="44.3621" lon="7.21202">
        <ele>1547.86</ele>
        <time>2021-02-02T10:45:38Z</time>
      </trkpt>
      <trkpt lat="44.36212" lon="7.21206">
        <ele>1547.86</ele>
        <time>2021-02-02T10:45:39Z</time>
      </trkpt>
      <trkpt lat="44.36212" lon="7.2121">
        <ele>1547.38</ele>
        <time>2021-02-02T10:45:40Z</time>
      </trkpt>
      <trkpt lat="44.3621" lon="7.21211">
        <ele>1545.46</ele>
        <time>2021-02-02T10:45:42Z</time>
      </trkpt>
      <trkpt lat="44.36207" lon="7.2121">
        <ele>1544.5</ele>
        <time>2021-02-02T10:45:43Z</time>
      </trkpt>
      <trkpt lat="44.36204" lon="7.21209">
        <ele>1543.05</ele>
        <time>2021-02-02T10:45:44Z</time>
      </trkpt>
      <trkpt lat="44.362" lon="7.21208">
        <ele>1543.05</ele>
        <time>2021-02-02T10:45:45Z</time>
      </trkpt>
      <trkpt lat="44.36198" lon="7.21208">
        <ele>1542.57</ele>
        <time>2021-02-02T10:45:46Z</time>
      </trkpt>
      <trkpt lat="44.36192" lon="7.2121">
        <ele>1542.57</ele>
        <time>2021-02-02T10:45:47Z</time>
      </trkpt>
      <trkpt lat="44.36187" lon="7.21212">
        <ele>1542.09</ele>
        <time>2021-02-02T10:45:48Z</time>
      </trkpt>
      <trkpt lat="44.36182" lon="7.21214">
        <ele>1542.09</ele>
        <time>2021-02-02T10:45:49Z</time>
      </trkpt>
      <trkpt lat="44.36177" lon="7.21213">
        <ele>1542.09</ele>
        <time>2021-02-02T10:45:50Z</time>
      </trkpt>
      <trkpt lat="44.36172" lon="7.21212">
        <ele>1542.09</ele>
        <time>2021-02-02T10:45:51Z</time>
      </trkpt>
      <trkpt lat="44.36163" lon="7.21208">
        <ele>1541.61</ele>
        <time>2021-02-02T10:45:53Z</time>
      </trkpt>
      <trkpt lat="44.36159" lon="7.21205">
        <ele>1541.61</ele>
        <time>2021-02-02T10:45:54Z</time>
      </trkpt>
      <trkpt lat="44.36154" lon="7.21203">
        <ele>1541.13</ele>
        <time>2021-02-02T10:45:55Z</time>
      </trkpt>
      <trkpt lat="44.36151" lon="7.21201">
        <ele>1541.13</ele>
        <time>2021-02-02T10:45:56Z</time>
      </trkpt>
      <trkpt lat="44.36147" lon="7.21198">
        <ele>1540.65</ele>
        <time>2021-02-02T10:45:57Z</time>
      </trkpt>
      <trkpt lat="44.36143" lon="7.21197">
        <ele>1540.17</ele>
        <time>2021-02-02T10:45:58Z</time>
      </trkpt>
      <trkpt lat="44.3614" lon="7.21196">
        <ele>1540.17</ele>
        <time>2021-02-02T10:45:59Z</time>
      </trkpt>
      <trkpt lat="44.36133" lon="7.2119">
        <ele>1540.17</ele>
        <time>2021-02-02T10:46:01Z</time>
      </trkpt>
      <trkpt lat="44.36101" lon="7.21169">
        <ele>1540.65</ele>
        <time>2021-02-02T10:46:10Z</time>
      </trkpt>
      <trkpt lat="44.3609" lon="7.21163">
        <ele>1540.65</ele>
        <time>2021-02-02T10:46:12Z</time>
      </trkpt>
      <trkpt lat="44.36085" lon="7.21161">
        <ele>1540.65</ele>
        <time>2021-02-02T10:46:13Z</time>
      </trkpt>
      <trkpt lat="44.36081" lon="7.21159">
        <ele>1541.13</ele>
        <time>2021-02-02T10:46:14Z</time>
      </trkpt>
      <trkpt lat="44.36077" lon="7.21159">
        <ele>1541.13</ele>
        <time>2021-02-02T10:46:15Z</time>
      </trkpt>
      <trkpt lat="44.36074" lon="7.21159">
        <ele>1541.13</ele>
        <time>2021-02-02T10:46:16Z</time>
      </trkpt>
      <trkpt lat="44.36073" lon="7.21157">
        <ele>1541.13</ele>
        <time>2021-02-02T10:46:17Z</time>
      </trkpt>
      <trkpt lat="44.36072" lon="7.21163">
        <ele>1541.13</ele>
        <time>2021-02-02T10:46:26Z</time>
      </trkpt>
      <trkpt lat="44.36074" lon="7.21164">
        <ele>1542.09</ele>
        <time>2021-02-02T10:46:42Z</time>
      </trkpt>
      <trkpt lat="44.36074" lon="7.21164">
        <ele>1543.53</ele>
        <time>2021-02-02T10:46:58Z</time>
      </trkpt>
      <trkpt lat="44.36073" lon="7.21167">
        <ele>1543.05</ele>
        <time>2021-02-02T10:47:18Z</time>
      </trkpt>
      <trkpt lat="44.36074" lon="7.21166">
        <ele>1542.57</ele>
        <time>2021-02-02T10:47:31Z</time>
      </trkpt>
      <trkpt lat="44.36073" lon="7.21166">
        <ele>1541.61</ele>
        <time>2021-02-02T10:47:48Z</time>
      </trkpt>
      <trkpt lat="44.36073" lon="7.21167">
        <ele>1540.65</ele>
        <time>2021-02-02T10:48:04Z</time>
      </trkpt>
      <trkpt lat="44.36075" lon="7.21164">
        <ele>1541.61</ele>
        <time>2021-02-02T10:48:19Z</time>
      </trkpt>
      <trkpt lat="44.36077" lon="7.21167">
        <ele>1544.5</ele>
        <time>2021-02-02T10:48:38Z</time>
      </trkpt>
      <trkpt lat="44.36076" lon="7.21166">
        <ele>1542.57</ele>
        <time>2021-02-02T10:48:54Z</time>
      </trkpt>
      <trkpt lat="44.36076" lon="7.21167">
        <ele>1543.05</ele>
        <time>2021-02-02T10:48:59Z</time>
      </trkpt>
      <trkpt lat="44.36073" lon="7.2117">
        <ele>1542.57</ele>
        <time>2021-02-02T10:49:13Z</time>
      </trkpt>
      <trkpt lat="44.36073" lon="7.21168">
        <ele>1541.61</ele>
        <time>2021-02-02T10:49:32Z</time>
      </trkpt>
      <trkpt lat="44.36076" lon="7.21166">
        <ele>1542.57</ele>
        <time>2021-02-02T10:49:51Z</time>
      </trkpt>
      <trkpt lat="44.36076" lon="7.21166">
        <ele>1543.05</ele>
        <time>2021-02-02T10:50:09Z</time>
      </trkpt>
      <trkpt lat="44.36075" lon="7.21166">
        <ele>1540.65</ele>
        <time>2021-02-02T10:50:30Z</time>
      </trkpt>
      <trkpt lat="44.36075" lon="7.21163">
        <ele>1541.61</ele>
        <time>2021-02-02T10:50:51Z</time>
      </trkpt>
      <trkpt lat="44.36074" lon="7.21165">
        <ele>1544.01</ele>
        <time>2021-02-02T10:51:10Z</time>
      </trkpt>
      <trkpt lat="44.36073" lon="7.21165">
        <ele>1543.05</ele>
        <time>2021-02-02T10:51:29Z</time>
      </trkpt>
      <trkpt lat="44.36073" lon="7.21165">
        <ele>1542.57</ele>
        <time>2021-02-02T10:51:51Z</time>
      </trkpt>
      <trkpt lat="44.36069" lon="7.21168">
        <ele>1544.01</ele>
        <time>2021-02-02T10:52:17Z</time>
      </trkpt>
      <trkpt lat="44.3607" lon="7.21169">
        <ele>1546.42</ele>
        <time>2021-02-02T10:52:40Z</time>
      </trkpt>
      <trkpt lat="44.36074" lon="7.21168">
        <ele>1547.86</ele>
        <time>2021-02-02T10:53:02Z</time>
      </trkpt>
      <trkpt lat="44.36075" lon="7.21168">
        <ele>1548.34</ele>
        <time>2021-02-02T10:53:22Z</time>
      </trkpt>
      <trkpt lat="44.36071" lon="7.21174">
        <ele>1547.86</ele>
        <time>2021-02-02T10:53:40Z</time>
      </trkpt>
      <trkpt lat="44.36068" lon="7.21173">
        <ele>1546.42</ele>
        <time>2021-02-02T10:53:51Z</time>
      </trkpt>
      <trkpt lat="44.36055" lon="7.21167">
        <ele>1543.05</ele>
        <time>2021-02-02T10:54:00Z</time>
      </trkpt>
      <trkpt lat="44.36036" lon="7.21163">
        <ele>1538.73</ele>
        <time>2021-02-02T10:54:16Z</time>
      </trkpt>
      <trkpt lat="44.36027" lon="7.21167">
        <ele>1538.25</ele>
        <time>2021-02-02T10:54:20Z</time>
      </trkpt>
      <trkpt lat="44.36022" lon="7.21172">
        <ele>1537.77</ele>
        <time>2021-02-02T10:54:22Z</time>
      </trkpt>
      <trkpt lat="44.36018" lon="7.21172">
        <ele>1537.77</ele>
        <time>2021-02-02T10:54:23Z</time>
      </trkpt>
      <trkpt lat="44.36015" lon="7.21174">
        <ele>1537.77</ele>
        <time>2021-02-02T10:54:24Z</time>
      </trkpt>
      <trkpt lat="44.36011" lon="7.21174">
        <ele>1537.29</ele>
        <time>2021-02-02T10:54:25Z</time>
      </trkpt>
      <trkpt lat="44.36007" lon="7.21173">
        <ele>1537.29</ele>
        <time>2021-02-02T10:54:26Z</time>
      </trkpt>
      <trkpt lat="44.36004" lon="7.21171">
        <ele>1537.29</ele>
        <time>2021-02-02T10:54:27Z</time>
      </trkpt>
      <trkpt lat="44.35991" lon="7.21157">
        <ele>1535.84</ele>
        <time>2021-02-02T10:54:32Z</time>
      </trkpt>
      <trkpt lat="44.35978" lon="7.21149">
        <ele>1535.84</ele>
        <time>2021-02-02T10:54:37Z</time>
      </trkpt>
      <trkpt lat="44.35967" lon="7.21141">
        <ele>1535.36</ele>
        <time>2021-02-02T10:54:41Z</time>
      </trkpt>
      <trkpt lat="44.35962" lon="7.21141">
        <ele>1535.36</ele>
        <time>2021-02-02T10:54:50Z</time>
      </trkpt>
      <trkpt lat="44.35952" lon="7.21139">
        <ele>1534.88</ele>
        <time>2021-02-02T10:54:56Z</time>
      </trkpt>
      <trkpt lat="44.35948" lon="7.21137">
        <ele>1534.4</ele>
        <time>2021-02-02T10:54:57Z</time>
      </trkpt>
      <trkpt lat="44.35944" lon="7.21136">
        <ele>1533.92</ele>
        <time>2021-02-02T10:54:58Z</time>
      </trkpt>
      <trkpt lat="44.35925" lon="7.21137">
        <ele>1532.96</ele>
        <time>2021-02-02T10:55:02Z</time>
      </trkpt>
      <trkpt lat="44.3592" lon="7.21141">
        <ele>1532.48</ele>
        <time>2021-02-02T10:55:03Z</time>
      </trkpt>
      <trkpt lat="44.359" lon="7.21165">
        <ele>1532</ele>
        <time>2021-02-02T10:55:10Z</time>
      </trkpt>
      <trkpt lat="44.35897" lon="7.21167">
        <ele>1531.52</ele>
        <time>2021-02-02T10:55:11Z</time>
      </trkpt>
      <trkpt lat="44.35894" lon="7.21168">
        <ele>1531.04</ele>
        <time>2021-02-02T10:55:12Z</time>
      </trkpt>
      <trkpt lat="44.35891" lon="7.2117">
        <ele>1531.04</ele>
        <time>2021-02-02T10:55:13Z</time>
      </trkpt>
      <trkpt lat="44.35888" lon="7.21173">
        <ele>1530.56</ele>
        <time>2021-02-02T10:55:14Z</time>
      </trkpt>
      <trkpt lat="44.35886" lon="7.21177">
        <ele>1530.56</ele>
        <time>2021-02-02T10:55:15Z</time>
      </trkpt>
      <trkpt lat="44.35884" lon="7.21179">
        <ele>1530.08</ele>
        <time>2021-02-02T10:55:16Z</time>
      </trkpt>
      <trkpt lat="44.35881" lon="7.21182">
        <ele>1530.08</ele>
        <time>2021-02-02T10:55:17Z</time>
      </trkpt>
      <trkpt lat="44.35878" lon="7.21185">
        <ele>1530.08</ele>
        <time>2021-02-02T10:55:18Z</time>
      </trkpt>
      <trkpt lat="44.35875" lon="7.21189">
        <ele>1530.08</ele>
        <time>2021-02-02T10:55:19Z</time>
      </trkpt>
      <trkpt lat="44.35868" lon="7.21194">
        <ele>1530.08</ele>
        <time>2021-02-02T10:55:21Z</time>
      </trkpt>
      <trkpt lat="44.35834" lon="7.21178">
        <ele>1529.11</ele>
        <time>2021-02-02T10:55:33Z</time>
      </trkpt>
      <trkpt lat="44.35815" lon="7.2116">
        <ele>1529.11</ele>
        <time>2021-02-02T10:55:39Z</time>
      </trkpt>
      <trkpt lat="44.35783" lon="7.21163">
        <ele>1528.63</ele>
        <time>2021-02-02T10:55:48Z</time>
      </trkpt>
      <trkpt lat="44.3575" lon="7.212">
        <ele>1521.9</ele>
        <time>2021-02-02T10:56:01Z</time>
      </trkpt>
      <trkpt lat="44.35725" lon="7.2121">
        <ele>1518.06</ele>
        <time>2021-02-02T10:56:10Z</time>
      </trkpt>
      <trkpt lat="44.35701" lon="7.21214">
        <ele>1515.18</ele>
        <time>2021-02-02T10:56:19Z</time>
      </trkpt>
      <trkpt lat="44.35694" lon="7.21213">
        <ele>1514.69</ele>
        <time>2021-02-02T10:56:21Z</time>
      </trkpt>
      <trkpt lat="44.35692" lon="7.21208">
        <ele>1514.69</ele>
        <time>2021-02-02T10:56:22Z</time>
      </trkpt>
      <trkpt lat="44.35692" lon="7.21202">
        <ele>1514.69</ele>
        <time>2021-02-02T10:56:23Z</time>
      </trkpt>
      <trkpt lat="44.35694" lon="7.21197">
        <ele>1513.73</ele>
        <time>2021-02-02T10:56:24Z</time>
      </trkpt>
      <trkpt lat="44.35696" lon="7.21195">
        <ele>1513.25</ele>
        <time>2021-02-02T10:56:25Z</time>
      </trkpt>
      <trkpt lat="44.35714" lon="7.21184">
        <ele>1509.41</ele>
        <time>2021-02-02T10:56:30Z</time>
      </trkpt>
      <trkpt lat="44.35718" lon="7.2118">
        <ele>1508.45</ele>
        <time>2021-02-02T10:56:31Z</time>
      </trkpt>
      <trkpt lat="44.35721" lon="7.21176">
        <ele>1507.97</ele>
        <time>2021-02-02T10:56:32Z</time>
      </trkpt>
      <trkpt lat="44.35727" lon="7.21164">
        <ele>1507.97</ele>
        <time>2021-02-02T10:56:34Z</time>
      </trkpt>
      <trkpt lat="44.35726" lon="7.21154">
        <ele>1507.97</ele>
        <time>2021-02-02T10:56:36Z</time>
      </trkpt>
      <trkpt lat="44.35724" lon="7.21151">
        <ele>1507.48</ele>
        <time>2021-02-02T10:56:37Z</time>
      </trkpt>
      <trkpt lat="44.35722" lon="7.2115">
        <ele>1507.48</ele>
        <time>2021-02-02T10:56:38Z</time>
      </trkpt>
      <trkpt lat="44.35719" lon="7.21148">
        <ele>1507.48</ele>
        <time>2021-02-02T10:56:39Z</time>
      </trkpt>
      <trkpt lat="44.35716" lon="7.21148">
        <ele>1507.48</ele>
        <time>2021-02-02T10:56:40Z</time>
      </trkpt>
      <trkpt lat="44.35709" lon="7.21155">
        <ele>1506.52</ele>
        <time>2021-02-02T10:56:44Z</time>
      </trkpt>
      <trkpt lat="44.35709" lon="7.21157">
        <ele>1506.04</ele>
        <time>2021-02-02T10:56:49Z</time>
      </trkpt>
      <trkpt lat="44.35708" lon="7.21158">
        <ele>1506.04</ele>
        <time>2021-02-02T10:56:50Z</time>
      </trkpt>
      <trkpt lat="44.35703" lon="7.21161">
        <ele>1505.56</ele>
        <time>2021-02-02T10:56:54Z</time>
      </trkpt>
      <trkpt lat="44.35698" lon="7.21162">
        <ele>1504.6</ele>
        <time>2021-02-02T10:56:55Z</time>
      </trkpt>
      <trkpt lat="44.35693" lon="7.21162">
        <ele>1504.6</ele>
        <time>2021-02-02T10:56:56Z</time>
      </trkpt>
      <trkpt lat="44.35688" lon="7.21165">
        <ele>1504.12</ele>
        <time>2021-02-02T10:56:57Z</time>
      </trkpt>
      <trkpt lat="44.3568" lon="7.21168">
        <ele>1503.16</ele>
        <time>2021-02-02T10:56:58Z</time>
      </trkpt>
      <trkpt lat="44.35673" lon="7.21171">
        <ele>1502.2</ele>
        <time>2021-02-02T10:56:59Z</time>
      </trkpt>
      <trkpt lat="44.35667" lon="7.21173">
        <ele>1501.72</ele>
        <time>2021-02-02T10:57:00Z</time>
      </trkpt>
      <trkpt lat="44.35661" lon="7.21176">
        <ele>1501.24</ele>
        <time>2021-02-02T10:57:01Z</time>
      </trkpt>
      <trkpt lat="44.35656" lon="7.21178">
        <ele>1500.76</ele>
        <time>2021-02-02T10:57:02Z</time>
      </trkpt>
      <trkpt lat="44.35642" lon="7.21174">
        <ele>1499.31</ele>
        <time>2021-02-02T10:57:05Z</time>
      </trkpt>
      <trkpt lat="44.35639" lon="7.21172">
        <ele>1498.83</ele>
        <time>2021-02-02T10:57:06Z</time>
      </trkpt>
      <trkpt lat="44.35613" lon="7.21138">
        <ele>1496.43</ele>
        <time>2021-02-02T10:57:17Z</time>
      </trkpt>
      <trkpt lat="44.35584" lon="7.211">
        <ele>1494.51</ele>
        <time>2021-02-02T10:57:29Z</time>
      </trkpt>
      <trkpt lat="44.35555" lon="7.21074">
        <ele>1493.55</ele>
        <time>2021-02-02T10:57:38Z</time>
      </trkpt>
      <trkpt lat="44.35551" lon="7.21072">
        <ele>1493.55</ele>
        <time>2021-02-02T10:57:39Z</time>
      </trkpt>
      <trkpt lat="44.35549" lon="7.21069">
        <ele>1493.55</ele>
        <time>2021-02-02T10:57:40Z</time>
      </trkpt>
      <trkpt lat="44.35545" lon="7.21066">
        <ele>1493.55</ele>
        <time>2021-02-02T10:57:41Z</time>
      </trkpt>
      <trkpt lat="44.35543" lon="7.21063">
        <ele>1493.06</ele>
        <time>2021-02-02T10:57:42Z</time>
      </trkpt>
      <trkpt lat="44.3554" lon="7.2106">
        <ele>1493.06</ele>
        <time>2021-02-02T10:57:43Z</time>
      </trkpt>
      <trkpt lat="44.35537" lon="7.21057">
        <ele>1493.06</ele>
        <time>2021-02-02T10:57:44Z</time>
      </trkpt>
      <trkpt lat="44.35515" lon="7.21036">
        <ele>1491.14</ele>
        <time>2021-02-02T10:57:54Z</time>
      </trkpt>
      <trkpt lat="44.35519" lon="7.21045">
        <ele>1476.24</ele>
        <time>2021-02-02T10:58:11Z</time>
      </trkpt>
      <trkpt lat="44.35514" lon="7.21035">
        <ele>1474.8</ele>
        <time>2021-02-02T10:58:22Z</time>
      </trkpt>
      <trkpt lat="44.35512" lon="7.21033">
        <ele>1474.32</ele>
        <time>2021-02-02T10:58:23Z</time>
      </trkpt>
      <trkpt lat="44.35508" lon="7.21028">
        <ele>1473.36</ele>
        <time>2021-02-02T10:58:25Z</time>
      </trkpt>
      <trkpt lat="44.35506" lon="7.21025">
        <ele>1472.4</ele>
        <time>2021-02-02T10:58:26Z</time>
      </trkpt>
      <trkpt lat="44.35504" lon="7.21023">
        <ele>1471.92</ele>
        <time>2021-02-02T10:58:27Z</time>
      </trkpt>
      <trkpt lat="44.35501" lon="7.21021">
        <ele>1470.95</ele>
        <time>2021-02-02T10:58:28Z</time>
      </trkpt>
      <trkpt lat="44.35499" lon="7.21019">
        <ele>1470.47</ele>
        <time>2021-02-02T10:58:29Z</time>
      </trkpt>
      <trkpt lat="44.35495" lon="7.21018">
        <ele>1469.99</ele>
        <time>2021-02-02T10:58:30Z</time>
      </trkpt>
      <trkpt lat="44.35487" lon="7.21012">
        <ele>1469.99</ele>
        <time>2021-02-02T10:58:32Z</time>
      </trkpt>
      <trkpt lat="44.35475" lon="7.21002">
        <ele>1469.99</ele>
        <time>2021-02-02T10:58:35Z</time>
      </trkpt>
      <trkpt lat="44.35459" lon="7.2099">
        <ele>1469.51</ele>
        <time>2021-02-02T10:58:39Z</time>
      </trkpt>
      <trkpt lat="44.35455" lon="7.20989">
        <ele>1469.51</ele>
        <time>2021-02-02T10:58:40Z</time>
      </trkpt>
      <trkpt lat="44.35451" lon="7.20988">
        <ele>1469.51</ele>
        <time>2021-02-02T10:58:41Z</time>
      </trkpt>
      <trkpt lat="44.35447" lon="7.20987">
        <ele>1469.03</ele>
        <time>2021-02-02T10:58:42Z</time>
      </trkpt>
      <trkpt lat="44.35442" lon="7.20986">
        <ele>1469.03</ele>
        <time>2021-02-02T10:58:43Z</time>
      </trkpt>
      <trkpt lat="44.35437" lon="7.20985">
        <ele>1469.03</ele>
        <time>2021-02-02T10:58:44Z</time>
      </trkpt>
      <trkpt lat="44.35433" lon="7.20984">
        <ele>1469.03</ele>
        <time>2021-02-02T10:58:45Z</time>
      </trkpt>
      <trkpt lat="44.35429" lon="7.20983">
        <ele>1468.55</ele>
        <time>2021-02-02T10:58:46Z</time>
      </trkpt>
      <trkpt lat="44.35425" lon="7.20983">
        <ele>1468.55</ele>
        <time>2021-02-02T10:58:47Z</time>
      </trkpt>
      <trkpt lat="44.35422" lon="7.20985">
        <ele>1468.07</ele>
        <time>2021-02-02T10:58:48Z</time>
      </trkpt>
      <trkpt lat="44.35418" lon="7.20984">
        <ele>1467.59</ele>
        <time>2021-02-02T10:58:49Z</time>
      </trkpt>
      <trkpt lat="44.35415" lon="7.20982">
        <ele>1468.07</ele>
        <time>2021-02-02T10:58:50Z</time>
      </trkpt>
      <trkpt lat="44.35408" lon="7.20976">
        <ele>1466.63</ele>
        <time>2021-02-02T10:58:52Z</time>
      </trkpt>
      <trkpt lat="44.35365" lon="7.2092">
        <ele>1457.98</ele>
        <time>2021-02-02T10:59:07Z</time>
      </trkpt>
      <trkpt lat="44.35355" lon="7.20903">
        <ele>1457.98</ele>
        <time>2021-02-02T10:59:12Z</time>
      </trkpt>
      <trkpt lat="44.35354" lon="7.20899">
        <ele>1457.98</ele>
        <time>2021-02-02T10:59:13Z</time>
      </trkpt>
      <trkpt lat="44.35352" lon="7.20895">
        <ele>1457.98</ele>
        <time>2021-02-02T10:59:14Z</time>
      </trkpt>
      <trkpt lat="44.35341" lon="7.20876">
        <ele>1457.5</ele>
        <time>2021-02-02T10:59:19Z</time>
      </trkpt>
      <trkpt lat="44.35336" lon="7.20868">
        <ele>1457.5</ele>
        <time>2021-02-02T10:59:21Z</time>
      </trkpt>
      <trkpt lat="44.35315" lon="7.20842">
        <ele>1457.98</ele>
        <time>2021-02-02T10:59:29Z</time>
      </trkpt>
      <trkpt lat="44.35308" lon="7.20835">
        <ele>1457.98</ele>
        <time>2021-02-02T10:59:31Z</time>
      </trkpt>
      <trkpt lat="44.35305" lon="7.2083">
        <ele>1457.98</ele>
        <time>2021-02-02T10:59:32Z</time>
      </trkpt>
      <trkpt lat="44.35302" lon="7.20827">
        <ele>1457.98</ele>
        <time>2021-02-02T10:59:33Z</time>
      </trkpt>
      <trkpt lat="44.35299" lon="7.20823">
        <ele>1457.98</ele>
        <time>2021-02-02T10:59:34Z</time>
      </trkpt>
      <trkpt lat="44.35292" lon="7.20814">
        <ele>1457.98</ele>
        <time>2021-02-02T10:59:36Z</time>
      </trkpt>
      <trkpt lat="44.35288" lon="7.2081">
        <ele>1457.98</ele>
        <time>2021-02-02T10:59:37Z</time>
      </trkpt>
      <trkpt lat="44.35285" lon="7.20804">
        <ele>1457.98</ele>
        <time>2021-02-02T10:59:38Z</time>
      </trkpt>
      <trkpt lat="44.35283" lon="7.208">
        <ele>1457.98</ele>
        <time>2021-02-02T10:59:39Z</time>
      </trkpt>
      <trkpt lat="44.35278" lon="7.20792">
        <ele>1457.98</ele>
        <time>2021-02-02T10:59:41Z</time>
      </trkpt>
      <trkpt lat="44.35276" lon="7.20786">
        <ele>1457.98</ele>
        <time>2021-02-02T10:59:42Z</time>
      </trkpt>
      <trkpt lat="44.35271" lon="7.20778">
        <ele>1457.98</ele>
        <time>2021-02-02T10:59:44Z</time>
      </trkpt>
      <trkpt lat="44.35262" lon="7.20759">
        <ele>1457.98</ele>
        <time>2021-02-02T10:59:48Z</time>
      </trkpt>
      <trkpt lat="44.3526" lon="7.20755">
        <ele>1457.98</ele>
        <time>2021-02-02T10:59:49Z</time>
      </trkpt>
      <trkpt lat="44.35253" lon="7.20744">
        <ele>1457.98</ele>
        <time>2021-02-02T10:59:52Z</time>
      </trkpt>
      <trkpt lat="44.35247" lon="7.20738">
        <ele>1457.98</ele>
        <time>2021-02-02T10:59:54Z</time>
      </trkpt>
      <trkpt lat="44.35243" lon="7.2073">
        <ele>1457.98</ele>
        <time>2021-02-02T10:59:56Z</time>
      </trkpt>
      <trkpt lat="44.3524" lon="7.20727">
        <ele>1457.98</ele>
        <time>2021-02-02T10:59:57Z</time>
      </trkpt>
      <trkpt lat="44.35238" lon="7.20724">
        <ele>1457.98</ele>
        <time>2021-02-02T10:59:58Z</time>
      </trkpt>
      <trkpt lat="44.35235" lon="7.20721">
        <ele>1457.98</ele>
        <time>2021-02-02T10:59:59Z</time>
      </trkpt>
      <trkpt lat="44.35231" lon="7.20716">
        <ele>1457.98</ele>
        <time>2021-02-02T11:00:01Z</time>
      </trkpt>
      <trkpt lat="44.35229" lon="7.20713">
        <ele>1457.98</ele>
        <time>2021-02-02T11:00:02Z</time>
      </trkpt>
      <trkpt lat="44.35207" lon="7.20697">
        <ele>1458.46</ele>
        <time>2021-02-02T11:00:12Z</time>
      </trkpt>
      <trkpt lat="44.352" lon="7.20693">
        <ele>1458.46</ele>
        <time>2021-02-02T11:00:15Z</time>
      </trkpt>
      <trkpt lat="44.3519" lon="7.20683">
        <ele>1458.94</ele>
        <time>2021-02-02T11:00:19Z</time>
      </trkpt>
      <trkpt lat="44.35172" lon="7.20679">
        <ele>1458.94</ele>
        <time>2021-02-02T11:00:26Z</time>
      </trkpt>
      <trkpt lat="44.35169" lon="7.20677">
        <ele>1458.94</ele>
        <time>2021-02-02T11:00:27Z</time>
      </trkpt>
      <trkpt lat="44.35164" lon="7.20674">
        <ele>1458.46</ele>
        <time>2021-02-02T11:00:29Z</time>
      </trkpt>
      <trkpt lat="44.35157" lon="7.20673">
        <ele>1458.94</ele>
        <time>2021-02-02T11:00:31Z</time>
      </trkpt>
      <trkpt lat="44.35146" lon="7.20668">
        <ele>1458.94</ele>
        <time>2021-02-02T11:00:34Z</time>
      </trkpt>
      <trkpt lat="44.3513" lon="7.20656">
        <ele>1458.46</ele>
        <time>2021-02-02T11:00:39Z</time>
      </trkpt>
      <trkpt lat="44.35127" lon="7.20653">
        <ele>1458.46</ele>
        <time>2021-02-02T11:00:40Z</time>
      </trkpt>
      <trkpt lat="44.35124" lon="7.20651">
        <ele>1458.46</ele>
        <time>2021-02-02T11:00:41Z</time>
      </trkpt>
      <trkpt lat="44.35118" lon="7.20645">
        <ele>1458.46</ele>
        <time>2021-02-02T11:00:43Z</time>
      </trkpt>
      <trkpt lat="44.35117" lon="7.20641">
        <ele>1458.46</ele>
        <time>2021-02-02T11:00:44Z</time>
      </trkpt>
      <trkpt lat="44.35112" lon="7.20633">
        <ele>1458.46</ele>
        <time>2021-02-02T11:00:46Z</time>
      </trkpt>
      <trkpt lat="44.35102" lon="7.20585">
        <ele>1457.98</ele>
        <time>2021-02-02T11:00:57Z</time>
      </trkpt>
      <trkpt lat="44.35099" lon="7.20578">
        <ele>1457.98</ele>
        <time>2021-02-02T11:00:59Z</time>
      </trkpt>
      <trkpt lat="44.35095" lon="7.2057">
        <ele>1457.98</ele>
        <time>2021-02-02T11:01:01Z</time>
      </trkpt>
      <trkpt lat="44.35092" lon="7.20567">
        <ele>1457.98</ele>
        <time>2021-02-02T11:01:02Z</time>
      </trkpt>
      <trkpt lat="44.35067" lon="7.20551">
        <ele>1457.98</ele>
        <time>2021-02-02T11:01:11Z</time>
      </trkpt>
      <trkpt lat="44.35035" lon="7.20536">
        <ele>1457.98</ele>
        <time>2021-02-02T11:01:21Z</time>
      </trkpt>
      <trkpt lat="44.35029" lon="7.20532">
        <ele>1457.5</ele>
        <time>2021-02-02T11:01:22Z</time>
      </trkpt>
      <trkpt lat="44.35007" lon="7.20483">
        <ele>1457.5</ele>
        <time>2021-02-02T11:01:33Z</time>
      </trkpt>
      <trkpt lat="44.35007" lon="7.20512">
        <ele>1387.8</ele>
        <time>2021-02-02T11:01:44Z</time>
      </trkpt>
      <trkpt lat="44.34986" lon="7.20484">
        <ele>1370.5</ele>
        <time>2021-02-02T11:01:56Z</time>
      </trkpt>
      <trkpt lat="44.34974" lon="7.20467">
        <ele>1365.21</ele>
        <time>2021-02-02T11:02:02Z</time>
      </trkpt>
      <trkpt lat="44.34936" lon="7.20434">
        <ele>1362.33</ele>
        <time>2021-02-02T11:02:15Z</time>
      </trkpt>
      <trkpt lat="44.34901" lon="7.20411">
        <ele>1360.88</ele>
        <time>2021-02-02T11:02:28Z</time>
      </trkpt>
      <trkpt lat="44.34876" lon="7.20414">
        <ele>1359.44</ele>
        <time>2021-02-02T11:02:36Z</time>
      </trkpt>
      <trkpt lat="44.34873" lon="7.20413">
        <ele>1358.96</ele>
        <time>2021-02-02T11:02:37Z</time>
      </trkpt>
      <trkpt lat="44.34847" lon="7.20404">
        <ele>1352.23</ele>
        <time>2021-02-02T11:02:46Z</time>
      </trkpt>
      <trkpt lat="44.34832" lon="7.20398">
        <ele>1349.35</ele>
        <time>2021-02-02T11:02:51Z</time>
      </trkpt>
      <trkpt lat="44.34828" lon="7.20397">
        <ele>1347.91</ele>
        <time>2021-02-02T11:02:52Z</time>
      </trkpt>
      <trkpt lat="44.34825" lon="7.20396">
        <ele>1346.94</ele>
        <time>2021-02-02T11:02:53Z</time>
      </trkpt>
      <trkpt lat="44.3482" lon="7.20395">
        <ele>1346.46</ele>
        <time>2021-02-02T11:02:54Z</time>
      </trkpt>
      <trkpt lat="44.34816" lon="7.20395">
        <ele>1346.46</ele>
        <time>2021-02-02T11:02:55Z</time>
      </trkpt>
      <trkpt lat="44.34777" lon="7.20405">
        <ele>1338.29</ele>
        <time>2021-02-02T11:03:07Z</time>
      </trkpt>
      <trkpt lat="44.3475" lon="7.20398">
        <ele>1334.93</ele>
        <time>2021-02-02T11:03:20Z</time>
      </trkpt>
      <trkpt lat="44.34728" lon="7.20398">
        <ele>1333.49</ele>
        <time>2021-02-02T11:03:29Z</time>
      </trkpt>
      <trkpt lat="44.34719" lon="7.20393">
        <ele>1333.49</ele>
        <time>2021-02-02T11:03:38Z</time>
      </trkpt>
      <trkpt lat="44.34718" lon="7.20391">
        <ele>1333.97</ele>
        <time>2021-02-02T11:03:39Z</time>
      </trkpt>
      <trkpt lat="44.34716" lon="7.2039">
        <ele>1333.97</ele>
        <time>2021-02-02T11:03:40Z</time>
      </trkpt>
      <trkpt lat="44.34714" lon="7.2039">
        <ele>1333.49</ele>
        <time>2021-02-02T11:03:41Z</time>
      </trkpt>
      <trkpt lat="44.34712" lon="7.2039">
        <ele>1333.01</ele>
        <time>2021-02-02T11:03:42Z</time>
      </trkpt>
      <trkpt lat="44.3471" lon="7.2039">
        <ele>1332.52</ele>
        <time>2021-02-02T11:03:43Z</time>
      </trkpt>
      <trkpt lat="44.34689" lon="7.20392">
        <ele>1329.16</ele>
        <time>2021-02-02T11:03:52Z</time>
      </trkpt>
      <trkpt lat="44.34673" lon="7.20403">
        <ele>1328.68</ele>
        <time>2021-02-02T11:04:03Z</time>
      </trkpt>
      <trkpt lat="44.34655" lon="7.20396">
        <ele>1325.31</ele>
        <time>2021-02-02T11:04:18Z</time>
      </trkpt>
      <trkpt lat="44.34651" lon="7.20397">
        <ele>1320.03</ele>
        <time>2021-02-02T11:04:33Z</time>
      </trkpt>
      <trkpt lat="44.34648" lon="7.20398">
        <ele>1321.95</ele>
        <time>2021-02-02T11:04:49Z</time>
      </trkpt>
      <trkpt lat="44.3465" lon="7.204">
        <ele>1321.95</ele>
        <time>2021-02-02T11:05:03Z</time>
      </trkpt>
      <trkpt lat="44.3465" lon="7.20398">
        <ele>1321.47</ele>
        <time>2021-02-02T11:05:12Z</time>
      </trkpt>
      <trkpt lat="44.3465" lon="7.20398">
        <ele>1320.51</ele>
        <time>2021-02-02T11:05:25Z</time>
      </trkpt>
      <trkpt lat="44.34652" lon="7.20397">
        <ele>1321.95</ele>
        <time>2021-02-02T11:05:45Z</time>
      </trkpt>
      <trkpt lat="44.34649" lon="7.20395">
        <ele>1320.99</ele>
        <time>2021-02-02T11:06:05Z</time>
      </trkpt>
      <trkpt lat="44.34644" lon="7.20389">
        <ele>1318.59</ele>
        <time>2021-02-02T11:06:11Z</time>
      </trkpt>
      <trkpt lat="44.34637" lon="7.20387">
        <ele>1316.18</ele>
        <time>2021-02-02T11:06:24Z</time>
      </trkpt>
      <trkpt lat="44.34639" lon="7.20388">
        <ele>1315.7</ele>
        <time>2021-02-02T11:06:41Z</time>
      </trkpt>
      <trkpt lat="44.34631" lon="7.20378">
        <ele>1319.07</ele>
        <time>2021-02-02T11:06:57Z</time>
      </trkpt>
      <trkpt lat="44.34626" lon="7.20376">
        <ele>1318.59</ele>
        <time>2021-02-02T11:07:01Z</time>
      </trkpt>
      <trkpt lat="44.34611" lon="7.20368">
        <ele>1313.78</ele>
        <time>2021-02-02T11:07:15Z</time>
      </trkpt>
      <trkpt lat="44.34603" lon="7.20359">
        <ele>1312.82</ele>
        <time>2021-02-02T11:07:27Z</time>
      </trkpt>
      <trkpt lat="44.34601" lon="7.20348">
        <ele>1312.34</ele>
        <time>2021-02-02T11:07:39Z</time>
      </trkpt>
      <trkpt lat="44.346" lon="7.20333">
        <ele>1314.74</ele>
        <time>2021-02-02T11:07:52Z</time>
      </trkpt>
      <trkpt lat="44.346" lon="7.20329">
        <ele>1315.22</ele>
        <time>2021-02-02T11:07:55Z</time>
      </trkpt>
      <trkpt lat="44.34601" lon="7.20308">
        <ele>1316.66</ele>
        <time>2021-02-02T11:08:10Z</time>
      </trkpt>
      <trkpt lat="44.34602" lon="7.20285">
        <ele>1317.14</ele>
        <time>2021-02-02T11:08:26Z</time>
      </trkpt>
      <trkpt lat="44.34605" lon="7.2026">
        <ele>1319.07</ele>
        <time>2021-02-02T11:08:42Z</time>
      </trkpt>
      <trkpt lat="44.34608" lon="7.20238">
        <ele>1320.03</ele>
        <time>2021-02-02T11:08:56Z</time>
      </trkpt>
      <trkpt lat="44.34611" lon="7.20216">
        <ele>1320.03</ele>
        <time>2021-02-02T11:09:11Z</time>
      </trkpt>
      <trkpt lat="44.34618" lon="7.20201">
        <ele>1321.47</ele>
        <time>2021-02-02T11:09:25Z</time>
      </trkpt>
      <trkpt lat="44.34613" lon="7.20199">
        <ele>1320.03</ele>
        <time>2021-02-02T11:09:35Z</time>
      </trkpt>
      <trkpt lat="44.34612" lon="7.20202">
        <ele>1320.03</ele>
        <time>2021-02-02T11:09:48Z</time>
      </trkpt>
      <trkpt lat="44.34611" lon="7.20203">
        <ele>1318.1</ele>
        <time>2021-02-02T11:10:05Z</time>
      </trkpt>
      <trkpt lat="44.34612" lon="7.20204">
        <ele>1319.07</ele>
        <time>2021-02-02T11:10:33Z</time>
      </trkpt>
      <trkpt lat="44.34614" lon="7.20205">
        <ele>1318.59</ele>
        <time>2021-02-02T11:11:03Z</time>
      </trkpt>
      <trkpt lat="44.34613" lon="7.20205">
        <ele>1318.1</ele>
        <time>2021-02-02T11:11:40Z</time>
      </trkpt>
      <trkpt lat="44.34614" lon="7.20205">
        <ele>1320.99</ele>
        <time>2021-02-02T11:12:11Z</time>
      </trkpt>
      <trkpt lat="44.34615" lon="7.20206">
        <ele>1320.99</ele>
        <time>2021-02-02T11:12:45Z</time>
      </trkpt>
      <trkpt lat="44.34612" lon="7.20205">
        <ele>1320.51</ele>
        <time>2021-02-02T11:13:22Z</time>
      </trkpt>
      <trkpt lat="44.34611" lon="7.20203">
        <ele>1320.51</ele>
        <time>2021-02-02T11:13:55Z</time>
      </trkpt>
      <trkpt lat="44.34611" lon="7.20203">
        <ele>1318.1</ele>
        <time>2021-02-02T11:14:35Z</time>
      </trkpt>
      <trkpt lat="44.34611" lon="7.20203">
        <ele>1318.1</ele>
        <time>2021-02-02T11:15:00Z</time>
      </trkpt>
      <trkpt lat="44.34613" lon="7.20205">
        <ele>1320.99</ele>
        <time>2021-02-02T11:15:33Z</time>
      </trkpt>
      <trkpt lat="44.34617" lon="7.20205">
        <ele>1318.1</ele>
        <time>2021-02-02T11:15:54Z</time>
      </trkpt>
      <trkpt lat="44.34618" lon="7.20205">
        <ele>1321.95</ele>
        <time>2021-02-02T11:16:32Z</time>
      </trkpt>
      <trkpt lat="44.34615" lon="7.202">
        <ele>1318.59</ele>
        <time>2021-02-02T11:16:55Z</time>
      </trkpt>
      <trkpt lat="44.34611" lon="7.20195">
        <ele>1317.62</ele>
        <time>2021-02-02T11:17:13Z</time>
      </trkpt>
    </trkseg>
  </trk>
</gpx>